<?xml version="1.0" encoding="UTF-8" standalone="no" ?>
<gpx xmlns="http://www.topografix.com/GPX/1/1" xmlns:xsi="http://www.w3.org/2001/XMLSchema-instance" xsi:schemaLocation="http://www.topografix.com/GPX/1/1 http://www.topografix.com/GPX/1/1/gpx.xsd" version="1.1" creator="VisuGPX - https://www.visugpx.com">
  <metadata>
    <name>Marignac R2000</name>
    <desc><![CDATA[File with points/tracks from Locus Map/3.37.2]]></desc>
  </metadata>
  <trk>
    <name><![CDATA[F26150 Marignac R2000]]></name>
    <trkseg>
      <trkpt lat="44.79978" lon="5.34662">
        <ele>561.49</ele>
        <time>2019-05-15T07:01:22.000Z</time>
      </trkpt>
      <trkpt lat="44.79969" lon="5.34665">
        <ele>561.06</ele>
        <time>2019-05-15T07:04:28.000Z</time>
      </trkpt>
      <trkpt lat="44.79961" lon="5.34671">
        <ele>560.79</ele>
        <time>2019-05-15T07:05:03.000Z</time>
      </trkpt>
      <trkpt lat="44.79952" lon="5.34675">
        <ele>560.36</ele>
        <time>2019-05-15T07:05:13.000Z</time>
      </trkpt>
      <trkpt lat="44.79942" lon="5.3468">
        <ele>559.83</ele>
        <time>2019-05-15T07:05:23.000Z</time>
      </trkpt>
      <trkpt lat="44.79933" lon="5.34685">
        <ele>559.29</ele>
        <time>2019-05-15T07:05:33.000Z</time>
      </trkpt>
      <trkpt lat="44.79923" lon="5.34688">
        <ele>558.72</ele>
        <time>2019-05-15T07:05:43.000Z</time>
      </trkpt>
      <trkpt lat="44.79914" lon="5.34695">
        <ele>558.24</ele>
        <time>2019-05-15T07:06:00.000Z</time>
      </trkpt>
      <trkpt lat="44.79902" lon="5.34702">
        <ele>557.7</ele>
        <time>2019-05-15T07:06:10.000Z</time>
      </trkpt>
      <trkpt lat="44.79903" lon="5.34716">
        <ele>557.89</ele>
        <time>2019-05-15T07:06:21.000Z</time>
      </trkpt>
      <trkpt lat="44.79903" lon="5.34732">
        <ele>558.29</ele>
        <time>2019-05-15T07:06:31.000Z</time>
      </trkpt>
      <trkpt lat="44.79904" lon="5.34748">
        <ele>559.04</ele>
        <time>2019-05-15T07:06:41.000Z</time>
      </trkpt>
      <trkpt lat="44.79904" lon="5.34763">
        <ele>560.1</ele>
        <time>2019-05-15T07:06:51.000Z</time>
      </trkpt>
      <trkpt lat="44.79904" lon="5.34776">
        <ele>561.32</ele>
        <time>2019-05-15T07:07:01.000Z</time>
      </trkpt>
      <trkpt lat="44.79902" lon="5.34789">
        <ele>562.47</ele>
        <time>2019-05-15T07:07:13.000Z</time>
      </trkpt>
      <trkpt lat="44.79899" lon="5.34802">
        <ele>563.51</ele>
        <time>2019-05-15T07:07:27.000Z</time>
      </trkpt>
      <trkpt lat="44.79895" lon="5.34814">
        <ele>564.47</ele>
        <time>2019-05-15T07:07:39.000Z</time>
      </trkpt>
      <trkpt lat="44.79894" lon="5.34827">
        <ele>565.7</ele>
        <time>2019-05-15T07:07:51.000Z</time>
      </trkpt>
      <trkpt lat="44.79895" lon="5.34839">
        <ele>567.15</ele>
        <time>2019-05-15T07:08:04.000Z</time>
      </trkpt>
      <trkpt lat="44.79898" lon="5.34852">
        <ele>568.99</ele>
        <time>2019-05-15T07:08:19.000Z</time>
      </trkpt>
      <trkpt lat="44.799" lon="5.34865">
        <ele>570.74</ele>
        <time>2019-05-15T07:08:32.000Z</time>
      </trkpt>
      <trkpt lat="44.79901" lon="5.34878">
        <ele>572.48</ele>
        <time>2019-05-15T07:08:43.000Z</time>
      </trkpt>
      <trkpt lat="44.79904" lon="5.3489">
        <ele>574.3</ele>
        <time>2019-05-15T07:08:57.000Z</time>
      </trkpt>
      <trkpt lat="44.79911" lon="5.349">
        <ele>575.99</ele>
        <time>2019-05-15T07:09:10.000Z</time>
      </trkpt>
      <trkpt lat="44.79917" lon="5.3491">
        <ele>577.49</ele>
        <time>2019-05-15T07:09:22.000Z</time>
      </trkpt>
      <trkpt lat="44.79923" lon="5.3492">
        <ele>578.81</ele>
        <time>2019-05-15T07:09:33.000Z</time>
      </trkpt>
      <trkpt lat="44.79929" lon="5.34931">
        <ele>579.9</ele>
        <time>2019-05-15T07:09:44.000Z</time>
      </trkpt>
      <trkpt lat="44.79934" lon="5.34942">
        <ele>580.91</ele>
        <time>2019-05-15T07:09:57.000Z</time>
      </trkpt>
      <trkpt lat="44.79933" lon="5.34955">
        <ele>581.42</ele>
        <time>2019-05-15T07:10:39.000Z</time>
      </trkpt>
      <trkpt lat="44.79923" lon="5.34955">
        <ele>580.75</ele>
        <time>2019-05-15T07:10:54.000Z</time>
      </trkpt>
      <trkpt lat="44.79914" lon="5.34956">
        <ele>580.06</ele>
        <time>2019-05-15T07:11:08.000Z</time>
      </trkpt>
      <trkpt lat="44.79905" lon="5.34957">
        <ele>579.3</ele>
        <time>2019-05-15T07:11:25.000Z</time>
      </trkpt>
      <trkpt lat="44.79896" lon="5.34956">
        <ele>578.43</ele>
        <time>2019-05-15T07:11:55.000Z</time>
      </trkpt>
      <trkpt lat="44.79905" lon="5.34954">
        <ele>579.22</ele>
        <time>2019-05-15T07:13:24.000Z</time>
      </trkpt>
      <trkpt lat="44.79896" lon="5.34956">
        <ele>578.42</ele>
        <time>2019-05-15T07:14:38.000Z</time>
      </trkpt>
      <trkpt lat="44.79886" lon="5.34957">
        <ele>577.53</ele>
        <time>2019-05-15T07:14:51.000Z</time>
      </trkpt>
      <trkpt lat="44.79876" lon="5.34956">
        <ele>576.56</ele>
        <time>2019-05-15T07:15:02.000Z</time>
      </trkpt>
      <trkpt lat="44.79867" lon="5.34957">
        <ele>575.65</ele>
        <time>2019-05-15T07:15:14.000Z</time>
      </trkpt>
      <trkpt lat="44.79858" lon="5.34957">
        <ele>574.78</ele>
        <time>2019-05-15T07:15:25.000Z</time>
      </trkpt>
      <trkpt lat="44.79848" lon="5.34955">
        <ele>573.86</ele>
        <time>2019-05-15T07:15:35.000Z</time>
      </trkpt>
      <trkpt lat="44.79838" lon="5.34954">
        <ele>573</ele>
        <time>2019-05-15T07:15:47.000Z</time>
      </trkpt>
      <trkpt lat="44.79828" lon="5.34956">
        <ele>572.4</ele>
        <time>2019-05-15T07:15:57.000Z</time>
      </trkpt>
      <trkpt lat="44.7982" lon="5.34951">
        <ele>571.58</ele>
        <time>2019-05-15T07:16:12.000Z</time>
      </trkpt>
      <trkpt lat="44.7981" lon="5.3495">
        <ele>570.97</ele>
        <time>2019-05-15T07:16:22.000Z</time>
      </trkpt>
      <trkpt lat="44.79798" lon="5.34948">
        <ele>570.28</ele>
        <time>2019-05-15T07:16:32.000Z</time>
      </trkpt>
      <trkpt lat="44.79787" lon="5.34949">
        <ele>569.78</ele>
        <time>2019-05-15T07:16:42.000Z</time>
      </trkpt>
      <trkpt lat="44.79775" lon="5.34948">
        <ele>569.12</ele>
        <time>2019-05-15T07:16:52.000Z</time>
      </trkpt>
      <trkpt lat="44.79763" lon="5.34949">
        <ele>568.58</ele>
        <time>2019-05-15T07:17:02.000Z</time>
      </trkpt>
      <trkpt lat="44.79752" lon="5.34951">
        <ele>568.01</ele>
        <time>2019-05-15T07:17:12.000Z</time>
      </trkpt>
      <trkpt lat="44.7974" lon="5.34953">
        <ele>567.31</ele>
        <time>2019-05-15T07:17:22.000Z</time>
      </trkpt>
      <trkpt lat="44.79729" lon="5.34954">
        <ele>566.41</ele>
        <time>2019-05-15T07:17:32.000Z</time>
      </trkpt>
      <trkpt lat="44.79718" lon="5.34956">
        <ele>565.59</ele>
        <time>2019-05-15T07:17:42.000Z</time>
      </trkpt>
      <trkpt lat="44.79706" lon="5.34957">
        <ele>564.65</ele>
        <time>2019-05-15T07:17:52.000Z</time>
      </trkpt>
      <trkpt lat="44.79694" lon="5.34957">
        <ele>563.56</ele>
        <time>2019-05-15T07:18:02.000Z</time>
      </trkpt>
      <trkpt lat="44.79683" lon="5.34957">
        <ele>562.55</ele>
        <time>2019-05-15T07:18:12.000Z</time>
      </trkpt>
      <trkpt lat="44.7967" lon="5.34956">
        <ele>561.52</ele>
        <time>2019-05-15T07:18:22.000Z</time>
      </trkpt>
      <trkpt lat="44.79659" lon="5.34953">
        <ele>560.56</ele>
        <time>2019-05-15T07:18:32.000Z</time>
      </trkpt>
      <trkpt lat="44.79646" lon="5.34953">
        <ele>560.06</ele>
        <time>2019-05-15T07:18:42.000Z</time>
      </trkpt>
      <trkpt lat="44.79634" lon="5.34951">
        <ele>559.59</ele>
        <time>2019-05-15T07:18:52.000Z</time>
      </trkpt>
      <trkpt lat="44.79623" lon="5.3495">
        <ele>559.42</ele>
        <time>2019-05-15T07:19:02.000Z</time>
      </trkpt>
      <trkpt lat="44.7961" lon="5.34948">
        <ele>559.13</ele>
        <time>2019-05-15T07:19:12.000Z</time>
      </trkpt>
      <trkpt lat="44.79599" lon="5.34946">
        <ele>558.73</ele>
        <time>2019-05-15T07:19:22.000Z</time>
      </trkpt>
      <trkpt lat="44.79587" lon="5.3494">
        <ele>558.01</ele>
        <time>2019-05-15T07:19:32.000Z</time>
      </trkpt>
      <trkpt lat="44.79577" lon="5.34932">
        <ele>557.07</ele>
        <time>2019-05-15T07:19:42.000Z</time>
      </trkpt>
      <trkpt lat="44.79567" lon="5.34925">
        <ele>556.12</ele>
        <time>2019-05-15T07:19:52.000Z</time>
      </trkpt>
      <trkpt lat="44.79555" lon="5.34919">
        <ele>555.02</ele>
        <time>2019-05-15T07:20:02.000Z</time>
      </trkpt>
      <trkpt lat="44.79544" lon="5.34911">
        <ele>553.87</ele>
        <time>2019-05-15T07:20:12.000Z</time>
      </trkpt>
      <trkpt lat="44.79532" lon="5.34909">
        <ele>552.99</ele>
        <time>2019-05-15T07:20:22.000Z</time>
      </trkpt>
      <trkpt lat="44.79518" lon="5.34908">
        <ele>552.23</ele>
        <time>2019-05-15T07:20:32.000Z</time>
      </trkpt>
      <trkpt lat="44.79508" lon="5.34905">
        <ele>551.52</ele>
        <time>2019-05-15T07:20:42.000Z</time>
      </trkpt>
      <trkpt lat="44.79495" lon="5.34903">
        <ele>550.92</ele>
        <time>2019-05-15T07:20:52.000Z</time>
      </trkpt>
      <trkpt lat="44.79483" lon="5.34903">
        <ele>550.7</ele>
        <time>2019-05-15T07:21:02.000Z</time>
      </trkpt>
      <trkpt lat="44.7947" lon="5.34901">
        <ele>550.53</ele>
        <time>2019-05-15T07:21:12.000Z</time>
      </trkpt>
      <trkpt lat="44.79456" lon="5.34898">
        <ele>550.21</ele>
        <time>2019-05-15T07:21:22.000Z</time>
      </trkpt>
      <trkpt lat="44.79444" lon="5.34895">
        <ele>549.64</ele>
        <time>2019-05-15T07:21:32.000Z</time>
      </trkpt>
      <trkpt lat="44.79433" lon="5.34889">
        <ele>548.6</ele>
        <time>2019-05-15T07:21:42.000Z</time>
      </trkpt>
      <trkpt lat="44.79423" lon="5.34881">
        <ele>547.15</ele>
        <time>2019-05-15T07:21:52.000Z</time>
      </trkpt>
      <trkpt lat="44.79412" lon="5.34874">
        <ele>545.35</ele>
        <time>2019-05-15T07:22:02.000Z</time>
      </trkpt>
      <trkpt lat="44.79403" lon="5.34866">
        <ele>543.45</ele>
        <time>2019-05-15T07:22:12.000Z</time>
      </trkpt>
      <trkpt lat="44.79393" lon="5.34858">
        <ele>541.46</ele>
        <time>2019-05-15T07:22:22.000Z</time>
      </trkpt>
      <trkpt lat="44.79385" lon="5.34848">
        <ele>539.6</ele>
        <time>2019-05-15T07:22:32.000Z</time>
      </trkpt>
      <trkpt lat="44.79375" lon="5.34839">
        <ele>538.1</ele>
        <time>2019-05-15T07:22:42.000Z</time>
      </trkpt>
      <trkpt lat="44.79365" lon="5.34834">
        <ele>537.01</ele>
        <time>2019-05-15T07:22:52.000Z</time>
      </trkpt>
      <trkpt lat="44.79355" lon="5.34831">
        <ele>536.17</ele>
        <time>2019-05-15T07:23:02.000Z</time>
      </trkpt>
      <trkpt lat="44.79345" lon="5.34831">
        <ele>535.51</ele>
        <time>2019-05-15T07:23:12.000Z</time>
      </trkpt>
      <trkpt lat="44.79343" lon="5.34845">
        <ele>535.79</ele>
        <time>2019-05-15T07:23:22.000Z</time>
      </trkpt>
      <trkpt lat="44.79344" lon="5.34858">
        <ele>536.25</ele>
        <time>2019-05-15T07:23:32.000Z</time>
      </trkpt>
      <trkpt lat="44.79345" lon="5.34871">
        <ele>536.86</ele>
        <time>2019-05-15T07:25:35.000Z</time>
      </trkpt>
      <trkpt lat="44.79347" lon="5.34886">
        <ele>537.53</ele>
        <time>2019-05-15T07:25:45.000Z</time>
      </trkpt>
      <trkpt lat="44.79347" lon="5.349">
        <ele>538.1</ele>
        <time>2019-05-15T07:25:55.000Z</time>
      </trkpt>
      <trkpt lat="44.79348" lon="5.34912">
        <ele>538.55</ele>
        <time>2019-05-15T07:26:11.000Z</time>
      </trkpt>
      <trkpt lat="44.7935" lon="5.34926">
        <ele>538.91</ele>
        <time>2019-05-15T07:26:21.000Z</time>
      </trkpt>
      <trkpt lat="44.7935" lon="5.34939">
        <ele>538.97</ele>
        <time>2019-05-15T07:26:31.000Z</time>
      </trkpt>
      <trkpt lat="44.7935" lon="5.34952">
        <ele>538.93</ele>
        <time>2019-05-15T07:26:52.000Z</time>
      </trkpt>
      <trkpt lat="44.7935" lon="5.34965">
        <ele>538.88</ele>
        <time>2019-05-15T07:27:03.000Z</time>
      </trkpt>
      <trkpt lat="44.79352" lon="5.34979">
        <ele>538.87</ele>
        <time>2019-05-15T07:27:13.000Z</time>
      </trkpt>
      <trkpt lat="44.79353" lon="5.34995">
        <ele>538.84</ele>
        <time>2019-05-15T07:27:23.000Z</time>
      </trkpt>
      <trkpt lat="44.79357" lon="5.35011">
        <ele>538.91</ele>
        <time>2019-05-15T07:27:33.000Z</time>
      </trkpt>
      <trkpt lat="44.79359" lon="5.35023">
        <ele>538.81</ele>
        <time>2019-05-15T07:27:43.000Z</time>
      </trkpt>
      <trkpt lat="44.79365" lon="5.35035">
        <ele>538.9</ele>
        <time>2019-05-15T07:27:53.000Z</time>
      </trkpt>
      <trkpt lat="44.79367" lon="5.35048">
        <ele>538.8</ele>
        <time>2019-05-15T07:28:03.000Z</time>
      </trkpt>
      <trkpt lat="44.79371" lon="5.35061">
        <ele>539.1</ele>
        <time>2019-05-15T07:28:16.000Z</time>
      </trkpt>
      <trkpt lat="44.79374" lon="5.35073">
        <ele>539.51</ele>
        <time>2019-05-15T07:28:28.000Z</time>
      </trkpt>
      <trkpt lat="44.79378" lon="5.35084">
        <ele>540.38</ele>
        <time>2019-05-15T07:28:38.000Z</time>
      </trkpt>
      <trkpt lat="44.79383" lon="5.35099">
        <ele>541.77</ele>
        <time>2019-05-15T07:28:48.000Z</time>
      </trkpt>
      <trkpt lat="44.79388" lon="5.35111">
        <ele>543.09</ele>
        <time>2019-05-15T07:28:58.000Z</time>
      </trkpt>
      <trkpt lat="44.79394" lon="5.35124">
        <ele>544.49</ele>
        <time>2019-05-15T07:29:08.000Z</time>
      </trkpt>
      <trkpt lat="44.79402" lon="5.35137">
        <ele>545.71</ele>
        <time>2019-05-15T07:29:18.000Z</time>
      </trkpt>
      <trkpt lat="44.79407" lon="5.35151">
        <ele>546.43</ele>
        <time>2019-05-15T07:29:28.000Z</time>
      </trkpt>
      <trkpt lat="44.79407" lon="5.35166">
        <ele>546.92</ele>
        <time>2019-05-15T07:29:38.000Z</time>
      </trkpt>
      <trkpt lat="44.79403" lon="5.35182">
        <ele>547.4</ele>
        <time>2019-05-15T07:29:48.000Z</time>
      </trkpt>
      <trkpt lat="44.79398" lon="5.35198">
        <ele>548.08</ele>
        <time>2019-05-15T07:29:58.000Z</time>
      </trkpt>
      <trkpt lat="44.79394" lon="5.35212">
        <ele>548.96</ele>
        <time>2019-05-15T07:30:08.000Z</time>
      </trkpt>
      <trkpt lat="44.79392" lon="5.35225">
        <ele>549.77</ele>
        <time>2019-05-15T07:30:18.000Z</time>
      </trkpt>
      <trkpt lat="44.79388" lon="5.35236">
        <ele>550.92</ele>
        <time>2019-05-15T07:30:28.000Z</time>
      </trkpt>
      <trkpt lat="44.79384" lon="5.35249">
        <ele>552.28</ele>
        <time>2019-05-15T07:30:38.000Z</time>
      </trkpt>
      <trkpt lat="44.79379" lon="5.35263">
        <ele>553.76</ele>
        <time>2019-05-15T07:30:48.000Z</time>
      </trkpt>
      <trkpt lat="44.79375" lon="5.35275">
        <ele>554.76</ele>
        <time>2019-05-15T07:30:59.000Z</time>
      </trkpt>
      <trkpt lat="44.79371" lon="5.3529">
        <ele>555.6</ele>
        <time>2019-05-15T07:31:09.000Z</time>
      </trkpt>
      <trkpt lat="44.79364" lon="5.353">
        <ele>556.44</ele>
        <time>2019-05-15T07:31:19.000Z</time>
      </trkpt>
      <trkpt lat="44.79359" lon="5.35313">
        <ele>557.05</ele>
        <time>2019-05-15T07:31:29.000Z</time>
      </trkpt>
      <trkpt lat="44.79357" lon="5.35326">
        <ele>557.76</ele>
        <time>2019-05-15T07:31:39.000Z</time>
      </trkpt>
      <trkpt lat="44.7935" lon="5.35339">
        <ele>559.13</ele>
        <time>2019-05-15T07:31:49.000Z</time>
      </trkpt>
      <trkpt lat="44.79347" lon="5.35351">
        <ele>560.29</ele>
        <time>2019-05-15T07:31:59.000Z</time>
      </trkpt>
      <trkpt lat="44.79354" lon="5.35362">
        <ele>561.57</ele>
        <time>2019-05-15T07:32:09.000Z</time>
      </trkpt>
      <trkpt lat="44.79363" lon="5.35362">
        <ele>562.31</ele>
        <time>2019-05-15T07:32:19.000Z</time>
      </trkpt>
      <trkpt lat="44.79372" lon="5.35358">
        <ele>562.63</ele>
        <time>2019-05-15T07:32:29.000Z</time>
      </trkpt>
      <trkpt lat="44.79381" lon="5.35357">
        <ele>563.49</ele>
        <time>2019-05-15T07:34:33.000Z</time>
      </trkpt>
      <trkpt lat="44.79391" lon="5.35356">
        <ele>564.23</ele>
        <time>2019-05-15T07:34:45.000Z</time>
      </trkpt>
      <trkpt lat="44.794" lon="5.35359">
        <ele>565.91</ele>
        <time>2019-05-15T07:34:55.000Z</time>
      </trkpt>
      <trkpt lat="44.7941" lon="5.35358">
        <ele>566.16</ele>
        <time>2019-05-15T07:35:06.000Z</time>
      </trkpt>
      <trkpt lat="44.79419" lon="5.35359">
        <ele>565.99</ele>
        <time>2019-05-15T07:35:16.000Z</time>
      </trkpt>
      <trkpt lat="44.79429" lon="5.35359">
        <ele>564.96</ele>
        <time>2019-05-15T07:35:26.000Z</time>
      </trkpt>
      <trkpt lat="44.79438" lon="5.3536">
        <ele>563.91</ele>
        <time>2019-05-15T07:35:38.000Z</time>
      </trkpt>
      <trkpt lat="44.79445" lon="5.3537">
        <ele>565.25</ele>
        <time>2019-05-15T07:35:49.000Z</time>
      </trkpt>
      <trkpt lat="44.7945" lon="5.3538">
        <ele>566.85</ele>
        <time>2019-05-15T07:36:00.000Z</time>
      </trkpt>
      <trkpt lat="44.79456" lon="5.3539">
        <ele>567.6</ele>
        <time>2019-05-15T07:36:10.000Z</time>
      </trkpt>
      <trkpt lat="44.79463" lon="5.35399">
        <ele>566.74</ele>
        <time>2019-05-15T07:36:21.000Z</time>
      </trkpt>
      <trkpt lat="44.79468" lon="5.35411">
        <ele>567.07</ele>
        <time>2019-05-15T07:36:32.000Z</time>
      </trkpt>
      <trkpt lat="44.79469" lon="5.35424">
        <ele>568.3</ele>
        <time>2019-05-15T07:36:44.000Z</time>
      </trkpt>
      <trkpt lat="44.79465" lon="5.35436">
        <ele>571.28</ele>
        <time>2019-05-15T07:36:54.000Z</time>
      </trkpt>
      <trkpt lat="44.79461" lon="5.35448">
        <ele>573.65</ele>
        <time>2019-05-15T07:37:04.000Z</time>
      </trkpt>
      <trkpt lat="44.7946" lon="5.35462">
        <ele>574.92</ele>
        <time>2019-05-15T07:37:15.000Z</time>
      </trkpt>
      <trkpt lat="44.79458" lon="5.35476">
        <ele>576.17</ele>
        <time>2019-05-15T07:37:25.000Z</time>
      </trkpt>
      <trkpt lat="44.79457" lon="5.35491">
        <ele>577.15</ele>
        <time>2019-05-15T07:37:35.000Z</time>
      </trkpt>
      <trkpt lat="44.79456" lon="5.35504">
        <ele>578.23</ele>
        <time>2019-05-15T07:37:45.000Z</time>
      </trkpt>
      <trkpt lat="44.79458" lon="5.35519">
        <ele>578.87</ele>
        <time>2019-05-15T07:37:55.000Z</time>
      </trkpt>
      <trkpt lat="44.79461" lon="5.35531">
        <ele>579.33</ele>
        <time>2019-05-15T07:38:05.000Z</time>
      </trkpt>
      <trkpt lat="44.79463" lon="5.35544">
        <ele>579.78</ele>
        <time>2019-05-15T07:38:16.000Z</time>
      </trkpt>
      <trkpt lat="44.79463" lon="5.35558">
        <ele>580.81</ele>
        <time>2019-05-15T07:38:27.000Z</time>
      </trkpt>
      <trkpt lat="44.79466" lon="5.3557">
        <ele>581.14</ele>
        <time>2019-05-15T07:38:37.000Z</time>
      </trkpt>
      <trkpt lat="44.79464" lon="5.35583">
        <ele>582.15</ele>
        <time>2019-05-15T07:38:48.000Z</time>
      </trkpt>
      <trkpt lat="44.7946" lon="5.35595">
        <ele>583.38</ele>
        <time>2019-05-15T07:38:58.000Z</time>
      </trkpt>
      <trkpt lat="44.79454" lon="5.35605">
        <ele>584.68</ele>
        <time>2019-05-15T07:39:09.000Z</time>
      </trkpt>
      <trkpt lat="44.79452" lon="5.35618">
        <ele>584.95</ele>
        <time>2019-05-15T07:39:19.000Z</time>
      </trkpt>
      <trkpt lat="44.7945" lon="5.35631">
        <ele>585.04</ele>
        <time>2019-05-15T07:39:29.000Z</time>
      </trkpt>
      <trkpt lat="44.79446" lon="5.35643">
        <ele>585.18</ele>
        <time>2019-05-15T07:39:39.000Z</time>
      </trkpt>
      <trkpt lat="44.79442" lon="5.35656">
        <ele>585.49</ele>
        <time>2019-05-15T07:39:49.000Z</time>
      </trkpt>
      <trkpt lat="44.79439" lon="5.35669">
        <ele>585.83</ele>
        <time>2019-05-15T07:39:59.000Z</time>
      </trkpt>
      <trkpt lat="44.79436" lon="5.35683">
        <ele>586.66</ele>
        <time>2019-05-15T07:40:09.000Z</time>
      </trkpt>
      <trkpt lat="44.79438" lon="5.35696">
        <ele>587.22</ele>
        <time>2019-05-15T07:40:21.000Z</time>
      </trkpt>
      <trkpt lat="44.7944" lon="5.35709">
        <ele>588.04</ele>
        <time>2019-05-15T07:40:38.000Z</time>
      </trkpt>
      <trkpt lat="44.79442" lon="5.35723">
        <ele>588.93</ele>
        <time>2019-05-15T07:40:48.000Z</time>
      </trkpt>
      <trkpt lat="44.79442" lon="5.3574">
        <ele>589.74</ele>
        <time>2019-05-15T07:40:58.000Z</time>
      </trkpt>
      <trkpt lat="44.7945" lon="5.35756">
        <ele>589.59</ele>
        <time>2019-05-15T07:41:08.000Z</time>
      </trkpt>
      <trkpt lat="44.79461" lon="5.35762">
        <ele>589.36</ele>
        <time>2019-05-15T07:41:18.000Z</time>
      </trkpt>
      <trkpt lat="44.79472" lon="5.35762">
        <ele>589.43</ele>
        <time>2019-05-15T07:41:28.000Z</time>
      </trkpt>
      <trkpt lat="44.79484" lon="5.35763">
        <ele>589.51</ele>
        <time>2019-05-15T07:41:38.000Z</time>
      </trkpt>
      <trkpt lat="44.79493" lon="5.35763">
        <ele>589.6</ele>
        <time>2019-05-15T07:41:48.000Z</time>
      </trkpt>
      <trkpt lat="44.79504" lon="5.35767">
        <ele>589.31</ele>
        <time>2019-05-15T07:41:58.000Z</time>
      </trkpt>
      <trkpt lat="44.79515" lon="5.35768">
        <ele>589.24</ele>
        <time>2019-05-15T07:42:08.000Z</time>
      </trkpt>
      <trkpt lat="44.79524" lon="5.35771">
        <ele>589.12</ele>
        <time>2019-05-15T07:42:18.000Z</time>
      </trkpt>
      <trkpt lat="44.79534" lon="5.35772">
        <ele>589.21</ele>
        <time>2019-05-15T07:42:28.000Z</time>
      </trkpt>
      <trkpt lat="44.79545" lon="5.35775">
        <ele>589.37</ele>
        <time>2019-05-15T07:42:38.000Z</time>
      </trkpt>
      <trkpt lat="44.79555" lon="5.35778">
        <ele>589.7</ele>
        <time>2019-05-15T07:42:48.000Z</time>
      </trkpt>
      <trkpt lat="44.79565" lon="5.3578">
        <ele>590.15</ele>
        <time>2019-05-15T07:42:58.000Z</time>
      </trkpt>
      <trkpt lat="44.79575" lon="5.35782">
        <ele>590.7</ele>
        <time>2019-05-15T07:43:08.000Z</time>
      </trkpt>
      <trkpt lat="44.79586" lon="5.35786">
        <ele>591.46</ele>
        <time>2019-05-15T07:43:18.000Z</time>
      </trkpt>
      <trkpt lat="44.79597" lon="5.35789">
        <ele>592.32</ele>
        <time>2019-05-15T07:43:28.000Z</time>
      </trkpt>
      <trkpt lat="44.79607" lon="5.35791">
        <ele>593.3</ele>
        <time>2019-05-15T07:43:38.000Z</time>
      </trkpt>
      <trkpt lat="44.79617" lon="5.35797">
        <ele>594.48</ele>
        <time>2019-05-15T07:43:48.000Z</time>
      </trkpt>
      <trkpt lat="44.79625" lon="5.35806">
        <ele>595.62</ele>
        <time>2019-05-15T07:43:58.000Z</time>
      </trkpt>
      <trkpt lat="44.79632" lon="5.35814">
        <ele>596.68</ele>
        <time>2019-05-15T07:44:08.000Z</time>
      </trkpt>
      <trkpt lat="44.79642" lon="5.35823">
        <ele>597.88</ele>
        <time>2019-05-15T07:44:18.000Z</time>
      </trkpt>
      <trkpt lat="44.7965" lon="5.35833">
        <ele>598.73</ele>
        <time>2019-05-15T07:44:28.000Z</time>
      </trkpt>
      <trkpt lat="44.79658" lon="5.35842">
        <ele>599.41</ele>
        <time>2019-05-15T07:44:38.000Z</time>
      </trkpt>
      <trkpt lat="44.79668" lon="5.35841">
        <ele>600.08</ele>
        <time>2019-05-15T07:44:49.000Z</time>
      </trkpt>
      <trkpt lat="44.79678" lon="5.35839">
        <ele>600.69</ele>
        <time>2019-05-15T07:44:59.000Z</time>
      </trkpt>
      <trkpt lat="44.79688" lon="5.35838">
        <ele>601.1</ele>
        <time>2019-05-15T07:45:09.000Z</time>
      </trkpt>
      <trkpt lat="44.79697" lon="5.3584">
        <ele>601.44</ele>
        <time>2019-05-15T07:45:20.000Z</time>
      </trkpt>
      <trkpt lat="44.79706" lon="5.35843">
        <ele>601.73</ele>
        <time>2019-05-15T07:45:30.000Z</time>
      </trkpt>
      <trkpt lat="44.79715" lon="5.35848">
        <ele>601.99</ele>
        <time>2019-05-15T07:45:40.000Z</time>
      </trkpt>
      <trkpt lat="44.79723" lon="5.35854">
        <ele>602.23</ele>
        <time>2019-05-15T07:45:50.000Z</time>
      </trkpt>
      <trkpt lat="44.79733" lon="5.35854">
        <ele>602.53</ele>
        <time>2019-05-15T07:46:02.000Z</time>
      </trkpt>
      <trkpt lat="44.79744" lon="5.35851">
        <ele>602.88</ele>
        <time>2019-05-15T07:46:12.000Z</time>
      </trkpt>
      <trkpt lat="44.79754" lon="5.35854">
        <ele>603.3</ele>
        <time>2019-05-15T07:46:22.000Z</time>
      </trkpt>
      <trkpt lat="44.79762" lon="5.35864">
        <ele>603.66</ele>
        <time>2019-05-15T07:46:32.000Z</time>
      </trkpt>
      <trkpt lat="44.79769" lon="5.35877">
        <ele>603.77</ele>
        <time>2019-05-15T07:46:42.000Z</time>
      </trkpt>
      <trkpt lat="44.79774" lon="5.35891">
        <ele>603.48</ele>
        <time>2019-05-15T07:46:52.000Z</time>
      </trkpt>
      <trkpt lat="44.79781" lon="5.35902">
        <ele>602.98</ele>
        <time>2019-05-15T07:47:02.000Z</time>
      </trkpt>
      <trkpt lat="44.7979" lon="5.35905">
        <ele>602.94</ele>
        <time>2019-05-15T07:47:13.000Z</time>
      </trkpt>
      <trkpt lat="44.79799" lon="5.35904">
        <ele>603.11</ele>
        <time>2019-05-15T07:47:24.000Z</time>
      </trkpt>
      <trkpt lat="44.79811" lon="5.35906">
        <ele>603.2</ele>
        <time>2019-05-15T07:47:34.000Z</time>
      </trkpt>
      <trkpt lat="44.79822" lon="5.35907">
        <ele>603.45</ele>
        <time>2019-05-15T07:47:44.000Z</time>
      </trkpt>
      <trkpt lat="44.79832" lon="5.35909">
        <ele>603.71</ele>
        <time>2019-05-15T07:47:54.000Z</time>
      </trkpt>
      <trkpt lat="44.79841" lon="5.35911">
        <ele>604.1</ele>
        <time>2019-05-15T07:48:04.000Z</time>
      </trkpt>
      <trkpt lat="44.79851" lon="5.35913">
        <ele>604.64</ele>
        <time>2019-05-15T07:48:14.000Z</time>
      </trkpt>
      <trkpt lat="44.7986" lon="5.35913">
        <ele>605.52</ele>
        <time>2019-05-15T07:48:24.000Z</time>
      </trkpt>
      <trkpt lat="44.79871" lon="5.35915">
        <ele>606.28</ele>
        <time>2019-05-15T07:48:34.000Z</time>
      </trkpt>
      <trkpt lat="44.79881" lon="5.35917">
        <ele>607.1</ele>
        <time>2019-05-15T07:48:44.000Z</time>
      </trkpt>
      <trkpt lat="44.7989" lon="5.35916">
        <ele>608.13</ele>
        <time>2019-05-15T07:48:54.000Z</time>
      </trkpt>
      <trkpt lat="44.799" lon="5.35916">
        <ele>608.92</ele>
        <time>2019-05-15T07:49:06.000Z</time>
      </trkpt>
      <trkpt lat="44.79912" lon="5.35917">
        <ele>609.68</ele>
        <time>2019-05-15T07:49:16.000Z</time>
      </trkpt>
      <trkpt lat="44.79923" lon="5.35918">
        <ele>610.15</ele>
        <time>2019-05-15T07:49:26.000Z</time>
      </trkpt>
      <trkpt lat="44.79932" lon="5.35914">
        <ele>610.74</ele>
        <time>2019-05-15T07:50:07.000Z</time>
      </trkpt>
      <trkpt lat="44.79941" lon="5.35909">
        <ele>611.16</ele>
        <time>2019-05-15T07:50:17.000Z</time>
      </trkpt>
      <trkpt lat="44.79953" lon="5.3591">
        <ele>610.9</ele>
        <time>2019-05-15T07:50:27.000Z</time>
      </trkpt>
      <trkpt lat="44.79964" lon="5.35916">
        <ele>610.23</ele>
        <time>2019-05-15T07:50:37.000Z</time>
      </trkpt>
      <trkpt lat="44.79974" lon="5.35925">
        <ele>609.41</ele>
        <time>2019-05-15T07:50:47.000Z</time>
      </trkpt>
      <trkpt lat="44.79986" lon="5.35926">
        <ele>609.57</ele>
        <time>2019-05-15T07:50:57.000Z</time>
      </trkpt>
      <trkpt lat="44.79995" lon="5.35931">
        <ele>609.5</ele>
        <time>2019-05-15T07:51:09.000Z</time>
      </trkpt>
      <trkpt lat="44.80005" lon="5.35933">
        <ele>610.01</ele>
        <time>2019-05-15T07:51:19.000Z</time>
      </trkpt>
      <trkpt lat="44.80015" lon="5.35929">
        <ele>611.36</ele>
        <time>2019-05-15T07:51:29.000Z</time>
      </trkpt>
      <trkpt lat="44.80023" lon="5.35917">
        <ele>613.17</ele>
        <time>2019-05-15T07:51:39.000Z</time>
      </trkpt>
      <trkpt lat="44.80027" lon="5.35902">
        <ele>614.72</ele>
        <time>2019-05-15T07:51:49.000Z</time>
      </trkpt>
      <trkpt lat="44.80031" lon="5.3589">
        <ele>615.73</ele>
        <time>2019-05-15T07:52:01.000Z</time>
      </trkpt>
      <trkpt lat="44.80037" lon="5.3588">
        <ele>616.86</ele>
        <time>2019-05-15T07:52:11.000Z</time>
      </trkpt>
      <trkpt lat="44.80045" lon="5.35873">
        <ele>618.02</ele>
        <time>2019-05-15T07:52:23.000Z</time>
      </trkpt>
      <trkpt lat="44.8005" lon="5.35863">
        <ele>618.78</ele>
        <time>2019-05-15T07:52:37.000Z</time>
      </trkpt>
      <trkpt lat="44.8005" lon="5.3585">
        <ele>618.59</ele>
        <time>2019-05-15T07:52:50.000Z</time>
      </trkpt>
      <trkpt lat="44.80051" lon="5.35837">
        <ele>618.34</ele>
        <time>2019-05-15T07:53:00.000Z</time>
      </trkpt>
      <trkpt lat="44.80054" lon="5.35823">
        <ele>618.21</ele>
        <time>2019-05-15T07:53:16.000Z</time>
      </trkpt>
      <trkpt lat="44.80058" lon="5.35804">
        <ele>617.41</ele>
        <time>2019-05-15T07:53:26.000Z</time>
      </trkpt>
      <trkpt lat="44.8006" lon="5.35788">
        <ele>616.32</ele>
        <time>2019-05-15T07:53:36.000Z</time>
      </trkpt>
      <trkpt lat="44.8006" lon="5.35771">
        <ele>614.65</ele>
        <time>2019-05-15T07:53:46.000Z</time>
      </trkpt>
      <trkpt lat="44.80062" lon="5.35757">
        <ele>613.71</ele>
        <time>2019-05-15T07:53:56.000Z</time>
      </trkpt>
      <trkpt lat="44.80064" lon="5.35745">
        <ele>613.1</ele>
        <time>2019-05-15T07:54:07.000Z</time>
      </trkpt>
      <trkpt lat="44.80062" lon="5.35726">
        <ele>611.34</ele>
        <time>2019-05-15T07:54:17.000Z</time>
      </trkpt>
      <trkpt lat="44.8006" lon="5.35712">
        <ele>609.96</ele>
        <time>2019-05-15T07:54:27.000Z</time>
      </trkpt>
      <trkpt lat="44.80057" lon="5.35698">
        <ele>608.57</ele>
        <time>2019-05-15T07:54:42.000Z</time>
      </trkpt>
      <trkpt lat="44.8006" lon="5.3568">
        <ele>607.46</ele>
        <time>2019-05-15T07:54:52.000Z</time>
      </trkpt>
      <trkpt lat="44.80061" lon="5.35664">
        <ele>606.19</ele>
        <time>2019-05-15T07:55:02.000Z</time>
      </trkpt>
      <trkpt lat="44.8006" lon="5.35649">
        <ele>604.59</ele>
        <time>2019-05-15T07:55:12.000Z</time>
      </trkpt>
      <trkpt lat="44.80063" lon="5.35634">
        <ele>603.3</ele>
        <time>2019-05-15T07:55:22.000Z</time>
      </trkpt>
      <trkpt lat="44.80065" lon="5.3562">
        <ele>602.21</ele>
        <time>2019-05-15T07:55:32.000Z</time>
      </trkpt>
      <trkpt lat="44.80069" lon="5.35606">
        <ele>601.36</ele>
        <time>2019-05-15T07:55:42.000Z</time>
      </trkpt>
      <trkpt lat="44.80074" lon="5.35593">
        <ele>601.04</ele>
        <time>2019-05-15T07:55:52.000Z</time>
      </trkpt>
      <trkpt lat="44.80079" lon="5.3558">
        <ele>600.84</ele>
        <time>2019-05-15T07:56:02.000Z</time>
      </trkpt>
      <trkpt lat="44.80086" lon="5.35565">
        <ele>600.92</ele>
        <time>2019-05-15T07:56:12.000Z</time>
      </trkpt>
      <trkpt lat="44.80092" lon="5.35552">
        <ele>601.04</ele>
        <time>2019-05-15T07:56:22.000Z</time>
      </trkpt>
      <trkpt lat="44.80101" lon="5.35544">
        <ele>601.73</ele>
        <time>2019-05-15T07:57:08.000Z</time>
      </trkpt>
      <trkpt lat="44.80108" lon="5.35538">
        <ele>602.28</ele>
        <time>2019-05-15T07:57:36.000Z</time>
      </trkpt>
      <trkpt lat="44.80115" lon="5.35528">
        <ele>602.34</ele>
        <time>2019-05-15T07:57:46.000Z</time>
      </trkpt>
      <trkpt lat="44.80122" lon="5.35519">
        <ele>602.32</ele>
        <time>2019-05-15T07:57:56.000Z</time>
      </trkpt>
      <trkpt lat="44.8013" lon="5.3551">
        <ele>602.38</ele>
        <time>2019-05-15T07:58:06.000Z</time>
      </trkpt>
      <trkpt lat="44.80138" lon="5.35501">
        <ele>602.38</ele>
        <time>2019-05-15T07:58:16.000Z</time>
      </trkpt>
      <trkpt lat="44.80146" lon="5.35492">
        <ele>602.49</ele>
        <time>2019-05-15T07:58:26.000Z</time>
      </trkpt>
      <trkpt lat="44.80155" lon="5.35484">
        <ele>602.7</ele>
        <time>2019-05-15T07:58:36.000Z</time>
      </trkpt>
      <trkpt lat="44.80164" lon="5.35474">
        <ele>602.92</ele>
        <time>2019-05-15T07:58:46.000Z</time>
      </trkpt>
      <trkpt lat="44.80171" lon="5.35464">
        <ele>602.86</ele>
        <time>2019-05-15T07:58:56.000Z</time>
      </trkpt>
      <trkpt lat="44.8018" lon="5.35456">
        <ele>603.51</ele>
        <time>2019-05-15T07:59:06.000Z</time>
      </trkpt>
      <trkpt lat="44.80189" lon="5.35447">
        <ele>604.01</ele>
        <time>2019-05-15T07:59:16.000Z</time>
      </trkpt>
      <trkpt lat="44.80197" lon="5.35435">
        <ele>604.27</ele>
        <time>2019-05-15T07:59:26.000Z</time>
      </trkpt>
      <trkpt lat="44.80206" lon="5.35425">
        <ele>605.12</ele>
        <time>2019-05-15T07:59:36.000Z</time>
      </trkpt>
      <trkpt lat="44.80215" lon="5.35415">
        <ele>605.79</ele>
        <time>2019-05-15T07:59:46.000Z</time>
      </trkpt>
      <trkpt lat="44.80222" lon="5.35405">
        <ele>606.45</ele>
        <time>2019-05-15T07:59:56.000Z</time>
      </trkpt>
      <trkpt lat="44.80229" lon="5.35394">
        <ele>606.99</ele>
        <time>2019-05-15T08:00:06.000Z</time>
      </trkpt>
      <trkpt lat="44.80235" lon="5.35383">
        <ele>607.65</ele>
        <time>2019-05-15T08:00:17.000Z</time>
      </trkpt>
      <trkpt lat="44.80242" lon="5.35373">
        <ele>608.33</ele>
        <time>2019-05-15T08:00:27.000Z</time>
      </trkpt>
      <trkpt lat="44.80249" lon="5.35362">
        <ele>608.99</ele>
        <time>2019-05-15T08:00:37.000Z</time>
      </trkpt>
      <trkpt lat="44.80255" lon="5.35351">
        <ele>609.53</ele>
        <time>2019-05-15T08:00:47.000Z</time>
      </trkpt>
      <trkpt lat="44.80263" lon="5.35341">
        <ele>610.37</ele>
        <time>2019-05-15T08:00:57.000Z</time>
      </trkpt>
      <trkpt lat="44.80269" lon="5.3533">
        <ele>610.72</ele>
        <time>2019-05-15T08:01:07.000Z</time>
      </trkpt>
      <trkpt lat="44.80273" lon="5.35318">
        <ele>610.78</ele>
        <time>2019-05-15T08:01:18.000Z</time>
      </trkpt>
      <trkpt lat="44.80278" lon="5.35307">
        <ele>610.92</ele>
        <time>2019-05-15T08:01:28.000Z</time>
      </trkpt>
      <trkpt lat="44.80283" lon="5.35294">
        <ele>610.97</ele>
        <time>2019-05-15T08:01:38.000Z</time>
      </trkpt>
      <trkpt lat="44.80287" lon="5.3528">
        <ele>610.85</ele>
        <time>2019-05-15T08:01:48.000Z</time>
      </trkpt>
      <trkpt lat="44.80291" lon="5.35266">
        <ele>610.69</ele>
        <time>2019-05-15T08:01:58.000Z</time>
      </trkpt>
      <trkpt lat="44.80296" lon="5.35251">
        <ele>610.62</ele>
        <time>2019-05-15T08:02:08.000Z</time>
      </trkpt>
      <trkpt lat="44.80301" lon="5.35238">
        <ele>610.64</ele>
        <time>2019-05-15T08:02:18.000Z</time>
      </trkpt>
      <trkpt lat="44.80306" lon="5.35224">
        <ele>610.72</ele>
        <time>2019-05-15T08:02:28.000Z</time>
      </trkpt>
      <trkpt lat="44.80312" lon="5.3521">
        <ele>610.61</ele>
        <time>2019-05-15T08:02:38.000Z</time>
      </trkpt>
      <trkpt lat="44.80317" lon="5.35196">
        <ele>610.6</ele>
        <time>2019-05-15T08:02:48.000Z</time>
      </trkpt>
      <trkpt lat="44.80322" lon="5.35183">
        <ele>610.5</ele>
        <time>2019-05-15T08:02:58.000Z</time>
      </trkpt>
      <trkpt lat="44.80329" lon="5.35169">
        <ele>610.7</ele>
        <time>2019-05-15T08:03:08.000Z</time>
      </trkpt>
      <trkpt lat="44.80336" lon="5.35158">
        <ele>610.96</ele>
        <time>2019-05-15T08:03:18.000Z</time>
      </trkpt>
      <trkpt lat="44.80343" lon="5.35147">
        <ele>611.18</ele>
        <time>2019-05-15T08:03:28.000Z</time>
      </trkpt>
      <trkpt lat="44.80351" lon="5.35134">
        <ele>611.38</ele>
        <time>2019-05-15T08:03:38.000Z</time>
      </trkpt>
      <trkpt lat="44.80357" lon="5.35122">
        <ele>611.43</ele>
        <time>2019-05-15T08:03:48.000Z</time>
      </trkpt>
      <trkpt lat="44.80364" lon="5.35109">
        <ele>611.37</ele>
        <time>2019-05-15T08:03:58.000Z</time>
      </trkpt>
      <trkpt lat="44.80367" lon="5.35097">
        <ele>611.21</ele>
        <time>2019-05-15T08:04:08.000Z</time>
      </trkpt>
      <trkpt lat="44.80372" lon="5.35082">
        <ele>610.96</ele>
        <time>2019-05-15T08:04:18.000Z</time>
      </trkpt>
      <trkpt lat="44.80374" lon="5.35067">
        <ele>610.77</ele>
        <time>2019-05-15T08:04:28.000Z</time>
      </trkpt>
      <trkpt lat="44.80373" lon="5.35053">
        <ele>610.71</ele>
        <time>2019-05-15T08:04:38.000Z</time>
      </trkpt>
      <trkpt lat="44.80369" lon="5.35041">
        <ele>610.68</ele>
        <time>2019-05-15T08:04:50.000Z</time>
      </trkpt>
      <trkpt lat="44.80366" lon="5.35029">
        <ele>610.64</ele>
        <time>2019-05-15T08:05:00.000Z</time>
      </trkpt>
      <trkpt lat="44.80361" lon="5.35016">
        <ele>610.55</ele>
        <time>2019-05-15T08:05:10.000Z</time>
      </trkpt>
      <trkpt lat="44.80357" lon="5.35">
        <ele>610.39</ele>
        <time>2019-05-15T08:05:20.000Z</time>
      </trkpt>
      <trkpt lat="44.80356" lon="5.34986">
        <ele>610.47</ele>
        <time>2019-05-15T08:05:30.000Z</time>
      </trkpt>
      <trkpt lat="44.80364" lon="5.34976">
        <ele>610.67</ele>
        <time>2019-05-15T08:05:40.000Z</time>
      </trkpt>
      <trkpt lat="44.80375" lon="5.34976">
        <ele>610.52</ele>
        <time>2019-05-15T08:05:50.000Z</time>
      </trkpt>
      <trkpt lat="44.80384" lon="5.34976">
        <ele>610.35</ele>
        <time>2019-05-15T08:06:00.000Z</time>
      </trkpt>
      <trkpt lat="44.80395" lon="5.34978">
        <ele>610.2</ele>
        <time>2019-05-15T08:06:10.000Z</time>
      </trkpt>
      <trkpt lat="44.80404" lon="5.34983">
        <ele>610.2</ele>
        <time>2019-05-15T08:06:21.000Z</time>
      </trkpt>
      <trkpt lat="44.80414" lon="5.34987">
        <ele>610.4</ele>
        <time>2019-05-15T08:06:31.000Z</time>
      </trkpt>
      <trkpt lat="44.80423" lon="5.34994">
        <ele>610.94</ele>
        <time>2019-05-15T08:06:42.000Z</time>
      </trkpt>
      <trkpt lat="44.80432" lon="5.35">
        <ele>611.86</ele>
        <time>2019-05-15T08:06:53.000Z</time>
      </trkpt>
      <trkpt lat="44.80442" lon="5.35003">
        <ele>612.9</ele>
        <time>2019-05-15T08:07:03.000Z</time>
      </trkpt>
      <trkpt lat="44.80453" lon="5.35008">
        <ele>614.23</ele>
        <time>2019-05-15T08:07:13.000Z</time>
      </trkpt>
      <trkpt lat="44.80461" lon="5.35011">
        <ele>615.35</ele>
        <time>2019-05-15T08:07:29.000Z</time>
      </trkpt>
      <trkpt lat="44.8047" lon="5.35015">
        <ele>616.53</ele>
        <time>2019-05-15T08:07:40.000Z</time>
      </trkpt>
      <trkpt lat="44.80479" lon="5.35021">
        <ele>617.71</ele>
        <time>2019-05-15T08:09:19.000Z</time>
      </trkpt>
      <trkpt lat="44.80489" lon="5.35024">
        <ele>618.65</ele>
        <time>2019-05-15T08:09:29.000Z</time>
      </trkpt>
      <trkpt lat="44.80497" lon="5.3503">
        <ele>619.37</ele>
        <time>2019-05-15T08:09:39.000Z</time>
      </trkpt>
      <trkpt lat="44.80507" lon="5.35032">
        <ele>619.65</ele>
        <time>2019-05-15T08:09:49.000Z</time>
      </trkpt>
      <trkpt lat="44.80517" lon="5.35036">
        <ele>619.88</ele>
        <time>2019-05-15T08:09:59.000Z</time>
      </trkpt>
      <trkpt lat="44.80528" lon="5.3504">
        <ele>619.95</ele>
        <time>2019-05-15T08:10:09.000Z</time>
      </trkpt>
      <trkpt lat="44.80537" lon="5.35046">
        <ele>620.16</ele>
        <time>2019-05-15T08:10:19.000Z</time>
      </trkpt>
      <trkpt lat="44.80547" lon="5.35049">
        <ele>620.06</ele>
        <time>2019-05-15T08:10:30.000Z</time>
      </trkpt>
      <trkpt lat="44.80558" lon="5.35053">
        <ele>619.94</ele>
        <time>2019-05-15T08:10:40.000Z</time>
      </trkpt>
      <trkpt lat="44.80567" lon="5.35057">
        <ele>619.85</ele>
        <time>2019-05-15T08:10:50.000Z</time>
      </trkpt>
      <trkpt lat="44.80576" lon="5.35062">
        <ele>619.89</ele>
        <time>2019-05-15T08:11:00.000Z</time>
      </trkpt>
      <trkpt lat="44.80584" lon="5.35069">
        <ele>620.24</ele>
        <time>2019-05-15T08:11:10.000Z</time>
      </trkpt>
      <trkpt lat="44.80593" lon="5.35075">
        <ele>620.19</ele>
        <time>2019-05-15T08:11:23.000Z</time>
      </trkpt>
      <trkpt lat="44.80598" lon="5.35064">
        <ele>618.07</ele>
        <time>2019-05-15T08:11:40.000Z</time>
      </trkpt>
      <trkpt lat="44.80609" lon="5.35062">
        <ele>616.42</ele>
        <time>2019-05-15T08:11:56.000Z</time>
      </trkpt>
      <trkpt lat="44.80618" lon="5.35063">
        <ele>614.99</ele>
        <time>2019-05-15T08:12:11.000Z</time>
      </trkpt>
      <trkpt lat="44.80627" lon="5.35059">
        <ele>612.87</ele>
        <time>2019-05-15T08:12:24.000Z</time>
      </trkpt>
      <trkpt lat="44.80635" lon="5.35054">
        <ele>610.59</ele>
        <time>2019-05-15T08:12:37.000Z</time>
      </trkpt>
      <trkpt lat="44.80644" lon="5.3505">
        <ele>608.34</ele>
        <time>2019-05-15T08:12:51.000Z</time>
      </trkpt>
      <trkpt lat="44.80653" lon="5.35047">
        <ele>606.44</ele>
        <time>2019-05-15T08:13:04.000Z</time>
      </trkpt>
      <trkpt lat="44.80661" lon="5.35041">
        <ele>604.22</ele>
        <time>2019-05-15T08:13:20.000Z</time>
      </trkpt>
      <trkpt lat="44.80669" lon="5.35034">
        <ele>602.16</ele>
        <time>2019-05-15T08:13:33.000Z</time>
      </trkpt>
      <trkpt lat="44.80678" lon="5.3503">
        <ele>600.82</ele>
        <time>2019-05-15T08:13:47.000Z</time>
      </trkpt>
      <trkpt lat="44.80687" lon="5.35026">
        <ele>599.55</ele>
        <time>2019-05-15T08:14:00.000Z</time>
      </trkpt>
      <trkpt lat="44.80696" lon="5.35024">
        <ele>599.09</ele>
        <time>2019-05-15T08:14:13.000Z</time>
      </trkpt>
      <trkpt lat="44.80702" lon="5.35012">
        <ele>597.2</ele>
        <time>2019-05-15T08:14:23.000Z</time>
      </trkpt>
      <trkpt lat="44.8071" lon="5.35006">
        <ele>596.5</ele>
        <time>2019-05-15T08:14:33.000Z</time>
      </trkpt>
      <trkpt lat="44.80716" lon="5.34997">
        <ele>595.78</ele>
        <time>2019-05-15T08:15:44.000Z</time>
      </trkpt>
      <trkpt lat="44.80719" lon="5.34984">
        <ele>594.76</ele>
        <time>2019-05-15T08:16:56.000Z</time>
      </trkpt>
      <trkpt lat="44.80723" lon="5.34972">
        <ele>594.19</ele>
        <time>2019-05-15T08:17:37.000Z</time>
      </trkpt>
      <trkpt lat="44.80728" lon="5.34961">
        <ele>593.94</ele>
        <time>2019-05-15T08:17:48.000Z</time>
      </trkpt>
      <trkpt lat="44.80731" lon="5.34948">
        <ele>593.66</ele>
        <time>2019-05-15T08:18:47.000Z</time>
      </trkpt>
      <trkpt lat="44.80729" lon="5.34935">
        <ele>593.22</ele>
        <time>2019-05-15T08:19:02.000Z</time>
      </trkpt>
      <trkpt lat="44.8073" lon="5.34921">
        <ele>593.03</ele>
        <time>2019-05-15T08:19:13.000Z</time>
      </trkpt>
      <trkpt lat="44.80737" lon="5.34912">
        <ele>593.16</ele>
        <time>2019-05-15T08:19:25.000Z</time>
      </trkpt>
      <trkpt lat="44.80745" lon="5.34907">
        <ele>593.54</ele>
        <time>2019-05-15T08:19:35.000Z</time>
      </trkpt>
      <trkpt lat="44.80755" lon="5.34903">
        <ele>593.98</ele>
        <time>2019-05-15T08:19:48.000Z</time>
      </trkpt>
      <trkpt lat="44.80764" lon="5.34899">
        <ele>594.43</ele>
        <time>2019-05-15T08:19:58.000Z</time>
      </trkpt>
      <trkpt lat="44.80773" lon="5.34896">
        <ele>594.93</ele>
        <time>2019-05-15T08:20:08.000Z</time>
      </trkpt>
      <trkpt lat="44.80783" lon="5.34892">
        <ele>595.42</ele>
        <time>2019-05-15T08:20:20.000Z</time>
      </trkpt>
      <trkpt lat="44.80792" lon="5.34887">
        <ele>595.91</ele>
        <time>2019-05-15T08:20:30.000Z</time>
      </trkpt>
      <trkpt lat="44.80801" lon="5.34885">
        <ele>596.46</ele>
        <time>2019-05-15T08:20:46.000Z</time>
      </trkpt>
      <trkpt lat="44.80811" lon="5.34882">
        <ele>597.07</ele>
        <time>2019-05-15T08:20:56.000Z</time>
      </trkpt>
      <trkpt lat="44.80821" lon="5.34877">
        <ele>597.63</ele>
        <time>2019-05-15T08:21:07.000Z</time>
      </trkpt>
      <trkpt lat="44.80831" lon="5.3487">
        <ele>598.23</ele>
        <time>2019-05-15T08:21:17.000Z</time>
      </trkpt>
      <trkpt lat="44.8084" lon="5.34866">
        <ele>598.79</ele>
        <time>2019-05-15T08:21:28.000Z</time>
      </trkpt>
      <trkpt lat="44.8085" lon="5.34862">
        <ele>599.42</ele>
        <time>2019-05-15T08:21:38.000Z</time>
      </trkpt>
      <trkpt lat="44.80859" lon="5.34855">
        <ele>600.01</ele>
        <time>2019-05-15T08:22:01.000Z</time>
      </trkpt>
      <trkpt lat="44.80872" lon="5.34849">
        <ele>600.82</ele>
        <time>2019-05-15T08:22:11.000Z</time>
      </trkpt>
      <trkpt lat="44.80881" lon="5.34843">
        <ele>601.5</ele>
        <time>2019-05-15T08:22:29.000Z</time>
      </trkpt>
      <trkpt lat="44.80893" lon="5.34836">
        <ele>602.42</ele>
        <time>2019-05-15T08:22:39.000Z</time>
      </trkpt>
      <trkpt lat="44.80905" lon="5.34826">
        <ele>603.52</ele>
        <time>2019-05-15T08:22:49.000Z</time>
      </trkpt>
      <trkpt lat="44.80916" lon="5.34817">
        <ele>604.75</ele>
        <time>2019-05-15T08:22:59.000Z</time>
      </trkpt>
      <trkpt lat="44.80927" lon="5.34815">
        <ele>605.64</ele>
        <time>2019-05-15T08:23:09.000Z</time>
      </trkpt>
      <trkpt lat="44.80937" lon="5.34809">
        <ele>606.77</ele>
        <time>2019-05-15T08:23:19.000Z</time>
      </trkpt>
      <trkpt lat="44.80946" lon="5.34804">
        <ele>607.83</ele>
        <time>2019-05-15T08:23:29.000Z</time>
      </trkpt>
      <trkpt lat="44.80954" lon="5.34798">
        <ele>608.82</ele>
        <time>2019-05-15T08:23:40.000Z</time>
      </trkpt>
      <trkpt lat="44.80963" lon="5.34793">
        <ele>609.78</ele>
        <time>2019-05-15T08:23:50.000Z</time>
      </trkpt>
      <trkpt lat="44.80971" lon="5.34788">
        <ele>610.67</ele>
        <time>2019-05-15T08:24:00.000Z</time>
      </trkpt>
      <trkpt lat="44.80982" lon="5.34784">
        <ele>611.55</ele>
        <time>2019-05-15T08:24:10.000Z</time>
      </trkpt>
      <trkpt lat="44.8099" lon="5.34778">
        <ele>612.39</ele>
        <time>2019-05-15T08:24:20.000Z</time>
      </trkpt>
      <trkpt lat="44.80991" lon="5.34765">
        <ele>613.36</ele>
        <time>2019-05-15T08:25:10.000Z</time>
      </trkpt>
      <trkpt lat="44.80985" lon="5.34756">
        <ele>613.77</ele>
        <time>2019-05-15T08:25:21.000Z</time>
      </trkpt>
      <trkpt lat="44.80979" lon="5.34745">
        <ele>614.2</ele>
        <time>2019-05-15T08:26:05.000Z</time>
      </trkpt>
      <trkpt lat="44.80979" lon="5.34732">
        <ele>615.1</ele>
        <time>2019-05-15T08:26:30.000Z</time>
      </trkpt>
      <trkpt lat="44.8097" lon="5.34727">
        <ele>615.1</ele>
        <time>2019-05-15T08:31:10.000Z</time>
      </trkpt>
      <trkpt lat="44.80977" lon="5.34719">
        <ele>615.98</ele>
        <time>2019-05-15T08:33:48.000Z</time>
      </trkpt>
      <trkpt lat="44.80977" lon="5.34706">
        <ele>616.94</ele>
        <time>2019-05-15T08:34:02.000Z</time>
      </trkpt>
      <trkpt lat="44.80979" lon="5.34693">
        <ele>618</ele>
        <time>2019-05-15T08:34:16.000Z</time>
      </trkpt>
      <trkpt lat="44.8098" lon="5.34679">
        <ele>619.06</ele>
        <time>2019-05-15T08:34:28.000Z</time>
      </trkpt>
      <trkpt lat="44.80983" lon="5.34666">
        <ele>620.26</ele>
        <time>2019-05-15T08:34:43.000Z</time>
      </trkpt>
      <trkpt lat="44.80986" lon="5.34654">
        <ele>621.45</ele>
        <time>2019-05-15T08:34:56.000Z</time>
      </trkpt>
      <trkpt lat="44.8099" lon="5.3464">
        <ele>622.83</ele>
        <time>2019-05-15T08:35:07.000Z</time>
      </trkpt>
      <trkpt lat="44.80993" lon="5.34627">
        <ele>623.99</ele>
        <time>2019-05-15T08:35:18.000Z</time>
      </trkpt>
      <trkpt lat="44.81001" lon="5.34621">
        <ele>625.46</ele>
        <time>2019-05-15T08:35:31.000Z</time>
      </trkpt>
      <trkpt lat="44.81008" lon="5.34613">
        <ele>627.28</ele>
        <time>2019-05-15T08:35:42.000Z</time>
      </trkpt>
      <trkpt lat="44.81015" lon="5.34605">
        <ele>629.39</ele>
        <time>2019-05-15T08:35:55.000Z</time>
      </trkpt>
      <trkpt lat="44.8102" lon="5.34593">
        <ele>631.62</ele>
        <time>2019-05-15T08:36:05.000Z</time>
      </trkpt>
      <trkpt lat="44.81029" lon="5.34586">
        <ele>634.44</ele>
        <time>2019-05-15T08:36:18.000Z</time>
      </trkpt>
      <trkpt lat="44.81037" lon="5.3458">
        <ele>637.26</ele>
        <time>2019-05-15T08:36:31.000Z</time>
      </trkpt>
      <trkpt lat="44.81044" lon="5.34573">
        <ele>639.81</ele>
        <time>2019-05-15T08:36:44.000Z</time>
      </trkpt>
      <trkpt lat="44.81051" lon="5.34563">
        <ele>641.79</ele>
        <time>2019-05-15T08:37:00.000Z</time>
      </trkpt>
      <trkpt lat="44.81056" lon="5.34553">
        <ele>643.28</ele>
        <time>2019-05-15T08:37:12.000Z</time>
      </trkpt>
      <trkpt lat="44.81061" lon="5.34541">
        <ele>643.72</ele>
        <time>2019-05-15T08:37:25.000Z</time>
      </trkpt>
      <trkpt lat="44.81068" lon="5.3453">
        <ele>644.95</ele>
        <time>2019-05-15T08:37:35.000Z</time>
      </trkpt>
      <trkpt lat="44.81074" lon="5.3452">
        <ele>646.02</ele>
        <time>2019-05-15T08:37:47.000Z</time>
      </trkpt>
      <trkpt lat="44.81078" lon="5.34507">
        <ele>646.47</ele>
        <time>2019-05-15T08:37:59.000Z</time>
      </trkpt>
      <trkpt lat="44.81082" lon="5.34496">
        <ele>647.62</ele>
        <time>2019-05-15T08:38:10.000Z</time>
      </trkpt>
      <trkpt lat="44.81086" lon="5.34483">
        <ele>648.64</ele>
        <time>2019-05-15T08:38:23.000Z</time>
      </trkpt>
      <trkpt lat="44.8109" lon="5.34471">
        <ele>649.94</ele>
        <time>2019-05-15T08:38:35.000Z</time>
      </trkpt>
      <trkpt lat="44.81093" lon="5.34458">
        <ele>651.2</ele>
        <time>2019-05-15T08:38:48.000Z</time>
      </trkpt>
      <trkpt lat="44.81099" lon="5.34448">
        <ele>653.05</ele>
        <time>2019-05-15T08:39:01.000Z</time>
      </trkpt>
      <trkpt lat="44.81105" lon="5.34438">
        <ele>654.47</ele>
        <time>2019-05-15T08:39:14.000Z</time>
      </trkpt>
      <trkpt lat="44.81109" lon="5.34426">
        <ele>655.18</ele>
        <time>2019-05-15T08:39:33.000Z</time>
      </trkpt>
      <trkpt lat="44.81116" lon="5.34417">
        <ele>656.47</ele>
        <time>2019-05-15T08:39:47.000Z</time>
      </trkpt>
      <trkpt lat="44.8112" lon="5.34404">
        <ele>656.74</ele>
        <time>2019-05-15T08:39:59.000Z</time>
      </trkpt>
      <trkpt lat="44.81124" lon="5.34393">
        <ele>656.82</ele>
        <time>2019-05-15T08:40:10.000Z</time>
      </trkpt>
      <trkpt lat="44.81124" lon="5.3438">
        <ele>656.12</ele>
        <time>2019-05-15T08:40:20.000Z</time>
      </trkpt>
      <trkpt lat="44.81128" lon="5.34368">
        <ele>655.98</ele>
        <time>2019-05-15T08:40:33.000Z</time>
      </trkpt>
      <trkpt lat="44.81129" lon="5.34355">
        <ele>655.64</ele>
        <time>2019-05-15T08:40:45.000Z</time>
      </trkpt>
      <trkpt lat="44.81131" lon="5.34343">
        <ele>655.67</ele>
        <time>2019-05-15T08:40:57.000Z</time>
      </trkpt>
      <trkpt lat="44.81134" lon="5.3433">
        <ele>656.23</ele>
        <time>2019-05-15T08:41:09.000Z</time>
      </trkpt>
      <trkpt lat="44.81135" lon="5.34316">
        <ele>657.04</ele>
        <time>2019-05-15T08:41:21.000Z</time>
      </trkpt>
      <trkpt lat="44.8114" lon="5.34305">
        <ele>658.57</ele>
        <time>2019-05-15T08:41:35.000Z</time>
      </trkpt>
      <trkpt lat="44.81142" lon="5.34291">
        <ele>660.29</ele>
        <time>2019-05-15T08:41:47.000Z</time>
      </trkpt>
      <trkpt lat="44.81145" lon="5.34279">
        <ele>662.34</ele>
        <time>2019-05-15T08:42:01.000Z</time>
      </trkpt>
      <trkpt lat="44.8115" lon="5.34269">
        <ele>664.55</ele>
        <time>2019-05-15T08:42:13.000Z</time>
      </trkpt>
      <trkpt lat="44.81156" lon="5.34259">
        <ele>666.66</ele>
        <time>2019-05-15T08:42:23.000Z</time>
      </trkpt>
      <trkpt lat="44.81158" lon="5.34246">
        <ele>668.37</ele>
        <time>2019-05-15T08:42:37.000Z</time>
      </trkpt>
      <trkpt lat="44.81162" lon="5.34234">
        <ele>670.06</ele>
        <time>2019-05-15T08:42:49.000Z</time>
      </trkpt>
      <trkpt lat="44.81163" lon="5.34221">
        <ele>671.42</ele>
        <time>2019-05-15T08:43:01.000Z</time>
      </trkpt>
      <trkpt lat="44.81165" lon="5.34207">
        <ele>672.9</ele>
        <time>2019-05-15T08:43:37.000Z</time>
      </trkpt>
      <trkpt lat="44.8117" lon="5.34196">
        <ele>674.24</ele>
        <time>2019-05-15T08:43:50.000Z</time>
      </trkpt>
      <trkpt lat="44.81177" lon="5.34186">
        <ele>675.62</ele>
        <time>2019-05-15T08:44:02.000Z</time>
      </trkpt>
      <trkpt lat="44.81184" lon="5.34178">
        <ele>677.08</ele>
        <time>2019-05-15T08:44:13.000Z</time>
      </trkpt>
      <trkpt lat="44.81191" lon="5.34168">
        <ele>678.79</ele>
        <time>2019-05-15T08:44:25.000Z</time>
      </trkpt>
      <trkpt lat="44.81197" lon="5.34158">
        <ele>680.47</ele>
        <time>2019-05-15T08:44:39.000Z</time>
      </trkpt>
      <trkpt lat="44.81201" lon="5.34146">
        <ele>681.93</ele>
        <time>2019-05-15T08:44:51.000Z</time>
      </trkpt>
      <trkpt lat="44.81206" lon="5.34135">
        <ele>683.32</ele>
        <time>2019-05-15T08:45:04.000Z</time>
      </trkpt>
      <trkpt lat="44.81213" lon="5.34126">
        <ele>684.94</ele>
        <time>2019-05-15T08:45:17.000Z</time>
      </trkpt>
      <trkpt lat="44.8122" lon="5.34117">
        <ele>686.77</ele>
        <time>2019-05-15T08:45:28.000Z</time>
      </trkpt>
      <trkpt lat="44.81227" lon="5.34108">
        <ele>688.64</ele>
        <time>2019-05-15T08:45:41.000Z</time>
      </trkpt>
      <trkpt lat="44.81234" lon="5.34099">
        <ele>690.45</ele>
        <time>2019-05-15T08:45:56.000Z</time>
      </trkpt>
      <trkpt lat="44.81238" lon="5.34088">
        <ele>692.05</ele>
        <time>2019-05-15T08:46:10.000Z</time>
      </trkpt>
      <trkpt lat="44.81244" lon="5.34075">
        <ele>693.97</ele>
        <time>2019-05-15T08:46:24.000Z</time>
      </trkpt>
      <trkpt lat="44.81248" lon="5.34064">
        <ele>695.48</ele>
        <time>2019-05-15T08:46:35.000Z</time>
      </trkpt>
      <trkpt lat="44.81258" lon="5.34065">
        <ele>696.32</ele>
        <time>2019-05-15T08:46:49.000Z</time>
      </trkpt>
      <trkpt lat="44.81267" lon="5.34068">
        <ele>697.07</ele>
        <time>2019-05-15T08:47:01.000Z</time>
      </trkpt>
      <trkpt lat="44.81278" lon="5.34069">
        <ele>698.22</ele>
        <time>2019-05-15T08:47:11.000Z</time>
      </trkpt>
      <trkpt lat="44.81287" lon="5.34071">
        <ele>699.3</ele>
        <time>2019-05-15T08:47:24.000Z</time>
      </trkpt>
      <trkpt lat="44.81297" lon="5.34073">
        <ele>700.45</ele>
        <time>2019-05-15T08:47:36.000Z</time>
      </trkpt>
      <trkpt lat="44.81306" lon="5.34075">
        <ele>701.7</ele>
        <time>2019-05-15T08:47:46.000Z</time>
      </trkpt>
      <trkpt lat="44.81316" lon="5.34078">
        <ele>703.18</ele>
        <time>2019-05-15T08:48:00.000Z</time>
      </trkpt>
      <trkpt lat="44.81326" lon="5.3408">
        <ele>704.72</ele>
        <time>2019-05-15T08:48:10.000Z</time>
      </trkpt>
      <trkpt lat="44.81334" lon="5.34084">
        <ele>706.12</ele>
        <time>2019-05-15T08:48:20.000Z</time>
      </trkpt>
      <trkpt lat="44.81343" lon="5.34087">
        <ele>707.9</ele>
        <time>2019-05-15T08:48:31.000Z</time>
      </trkpt>
      <trkpt lat="44.81354" lon="5.34086">
        <ele>710.53</ele>
        <time>2019-05-15T08:48:41.000Z</time>
      </trkpt>
      <trkpt lat="44.81361" lon="5.34074">
        <ele>712.63</ele>
        <time>2019-05-15T08:48:51.000Z</time>
      </trkpt>
      <trkpt lat="44.8136" lon="5.34061">
        <ele>712.78</ele>
        <time>2019-05-15T08:49:03.000Z</time>
      </trkpt>
      <trkpt lat="44.81358" lon="5.34048">
        <ele>712.78</ele>
        <time>2019-05-15T08:49:14.000Z</time>
      </trkpt>
      <trkpt lat="44.81357" lon="5.34033">
        <ele>713.25</ele>
        <time>2019-05-15T08:49:24.000Z</time>
      </trkpt>
      <trkpt lat="44.81357" lon="5.3402">
        <ele>713.82</ele>
        <time>2019-05-15T08:49:34.000Z</time>
      </trkpt>
      <trkpt lat="44.81356" lon="5.34006">
        <ele>714.44</ele>
        <time>2019-05-15T08:49:45.000Z</time>
      </trkpt>
      <trkpt lat="44.81354" lon="5.33994">
        <ele>714.94</ele>
        <time>2019-05-15T08:49:58.000Z</time>
      </trkpt>
      <trkpt lat="44.8135" lon="5.33982">
        <ele>715.07</ele>
        <time>2019-05-15T08:50:10.000Z</time>
      </trkpt>
      <trkpt lat="44.8135" lon="5.33969">
        <ele>715.62</ele>
        <time>2019-05-15T08:53:28.000Z</time>
      </trkpt>
      <trkpt lat="44.81355" lon="5.33959">
        <ele>716.85</ele>
        <time>2019-05-15T08:53:47.000Z</time>
      </trkpt>
      <trkpt lat="44.81355" lon="5.33946">
        <ele>717.71</ele>
        <time>2019-05-15T08:54:14.000Z</time>
      </trkpt>
      <trkpt lat="44.81355" lon="5.33932">
        <ele>719.15</ele>
        <time>2019-05-15T08:54:27.000Z</time>
      </trkpt>
      <trkpt lat="44.81358" lon="5.33919">
        <ele>721.38</ele>
        <time>2019-05-15T08:54:39.000Z</time>
      </trkpt>
      <trkpt lat="44.81359" lon="5.33906">
        <ele>723.83</ele>
        <time>2019-05-15T08:54:51.000Z</time>
      </trkpt>
      <trkpt lat="44.81357" lon="5.33894">
        <ele>726.48</ele>
        <time>2019-05-15T08:55:08.000Z</time>
      </trkpt>
      <trkpt lat="44.8135" lon="5.33886">
        <ele>728.09</ele>
        <time>2019-05-15T08:55:22.000Z</time>
      </trkpt>
      <trkpt lat="44.81343" lon="5.33877">
        <ele>730.94</ele>
        <time>2019-05-15T08:55:43.000Z</time>
      </trkpt>
      <trkpt lat="44.81335" lon="5.33873">
        <ele>733.02</ele>
        <time>2019-05-15T08:56:11.000Z</time>
      </trkpt>
      <trkpt lat="44.81326" lon="5.3387">
        <ele>734.81</ele>
        <time>2019-05-15T08:56:49.000Z</time>
      </trkpt>
      <trkpt lat="44.81319" lon="5.33861">
        <ele>738.86</ele>
        <time>2019-05-15T08:57:33.000Z</time>
      </trkpt>
      <trkpt lat="44.81312" lon="5.33853">
        <ele>742.55</ele>
        <time>2019-05-15T08:57:53.000Z</time>
      </trkpt>
      <trkpt lat="44.81303" lon="5.3385">
        <ele>744.82</ele>
        <time>2019-05-15T08:58:20.000Z</time>
      </trkpt>
      <trkpt lat="44.81295" lon="5.33844">
        <ele>747.83</ele>
        <time>2019-05-15T08:58:42.000Z</time>
      </trkpt>
      <trkpt lat="44.81288" lon="5.33835">
        <ele>752</ele>
        <time>2019-05-15T08:59:03.000Z</time>
      </trkpt>
      <trkpt lat="44.81281" lon="5.33827">
        <ele>755.72</ele>
        <time>2019-05-15T08:59:26.000Z</time>
      </trkpt>
      <trkpt lat="44.81273" lon="5.3382">
        <ele>758.99</ele>
        <time>2019-05-15T08:59:54.000Z</time>
      </trkpt>
      <trkpt lat="44.81266" lon="5.33812">
        <ele>762.89</ele>
        <time>2019-05-15T09:00:14.000Z</time>
      </trkpt>
      <trkpt lat="44.81257" lon="5.33809">
        <ele>765.24</ele>
        <time>2019-05-15T09:00:54.000Z</time>
      </trkpt>
      <trkpt lat="44.81248" lon="5.33806">
        <ele>767.85</ele>
        <time>2019-05-15T09:01:24.000Z</time>
      </trkpt>
      <trkpt lat="44.8124" lon="5.33801">
        <ele>771</ele>
        <time>2019-05-15T09:01:49.000Z</time>
      </trkpt>
      <trkpt lat="44.81231" lon="5.33797">
        <ele>773.9</ele>
        <time>2019-05-15T09:02:17.000Z</time>
      </trkpt>
      <trkpt lat="44.81224" lon="5.33788">
        <ele>778.38</ele>
        <time>2019-05-15T09:02:40.000Z</time>
      </trkpt>
      <trkpt lat="44.81217" lon="5.3378">
        <ele>782.53</ele>
        <time>2019-05-15T09:03:01.000Z</time>
      </trkpt>
      <trkpt lat="44.81208" lon="5.33774">
        <ele>785.86</ele>
        <time>2019-05-15T09:03:27.000Z</time>
      </trkpt>
      <trkpt lat="44.81201" lon="5.33766">
        <ele>789.9</ele>
        <time>2019-05-15T09:03:53.000Z</time>
      </trkpt>
      <trkpt lat="44.81193" lon="5.33758">
        <ele>793.92</ele>
        <time>2019-05-15T09:04:15.000Z</time>
      </trkpt>
      <trkpt lat="44.81184" lon="5.33753">
        <ele>796.84</ele>
        <time>2019-05-15T09:04:37.000Z</time>
      </trkpt>
      <trkpt lat="44.81176" lon="5.33748">
        <ele>799.82</ele>
        <time>2019-05-15T09:04:59.000Z</time>
      </trkpt>
      <trkpt lat="44.81168" lon="5.33743">
        <ele>802.56</ele>
        <time>2019-05-15T09:05:21.000Z</time>
      </trkpt>
      <trkpt lat="44.81159" lon="5.33739">
        <ele>804.92</ele>
        <time>2019-05-15T09:05:38.000Z</time>
      </trkpt>
      <trkpt lat="44.81149" lon="5.33735">
        <ele>807.29</ele>
        <time>2019-05-15T09:05:58.000Z</time>
      </trkpt>
      <trkpt lat="44.8114" lon="5.3373">
        <ele>809.59</ele>
        <time>2019-05-15T09:06:20.000Z</time>
      </trkpt>
      <trkpt lat="44.81133" lon="5.33723">
        <ele>812.65</ele>
        <time>2019-05-15T09:06:42.000Z</time>
      </trkpt>
      <trkpt lat="44.81125" lon="5.33716">
        <ele>815.76</ele>
        <time>2019-05-15T09:06:54.000Z</time>
      </trkpt>
      <trkpt lat="44.81118" lon="5.33707">
        <ele>819.6</ele>
        <time>2019-05-15T09:07:08.000Z</time>
      </trkpt>
      <trkpt lat="44.81111" lon="5.33699">
        <ele>822.44</ele>
        <time>2019-05-15T09:07:23.000Z</time>
      </trkpt>
      <trkpt lat="44.81103" lon="5.33692">
        <ele>824.8</ele>
        <time>2019-05-15T09:07:42.000Z</time>
      </trkpt>
      <trkpt lat="44.81096" lon="5.33682">
        <ele>827.8</ele>
        <time>2019-05-15T09:07:58.000Z</time>
      </trkpt>
      <trkpt lat="44.81098" lon="5.33669">
        <ele>831.77</ele>
        <time>2019-05-15T09:08:14.000Z</time>
      </trkpt>
      <trkpt lat="44.81106" lon="5.33664">
        <ele>834.17</ele>
        <time>2019-05-15T09:09:06.000Z</time>
      </trkpt>
      <trkpt lat="44.81116" lon="5.33662">
        <ele>835.67</ele>
        <time>2019-05-15T09:11:40.000Z</time>
      </trkpt>
      <trkpt lat="44.81125" lon="5.3366">
        <ele>837.45</ele>
        <time>2019-05-15T09:13:37.000Z</time>
      </trkpt>
      <trkpt lat="44.81135" lon="5.33658">
        <ele>839.4</ele>
        <time>2019-05-15T09:13:57.000Z</time>
      </trkpt>
      <trkpt lat="44.81144" lon="5.33658">
        <ele>840.04</ele>
        <time>2019-05-15T09:14:12.000Z</time>
      </trkpt>
      <trkpt lat="44.81154" lon="5.33659">
        <ele>840.11</ele>
        <time>2019-05-15T09:14:26.000Z</time>
      </trkpt>
      <trkpt lat="44.81163" lon="5.33659">
        <ele>840.71</ele>
        <time>2019-05-15T09:14:39.000Z</time>
      </trkpt>
      <trkpt lat="44.81174" lon="5.33659">
        <ele>841.09</ele>
        <time>2019-05-15T09:14:49.000Z</time>
      </trkpt>
      <trkpt lat="44.81185" lon="5.33656">
        <ele>842.81</ele>
        <time>2019-05-15T09:14:59.000Z</time>
      </trkpt>
      <trkpt lat="44.81196" lon="5.33653">
        <ele>843.98</ele>
        <time>2019-05-15T09:15:09.000Z</time>
      </trkpt>
      <trkpt lat="44.81205" lon="5.33654">
        <ele>843.51</ele>
        <time>2019-05-15T09:15:19.000Z</time>
      </trkpt>
      <trkpt lat="44.81214" lon="5.33654">
        <ele>842.95</ele>
        <time>2019-05-15T09:15:29.000Z</time>
      </trkpt>
      <trkpt lat="44.81223" lon="5.33653">
        <ele>842.85</ele>
        <time>2019-05-15T09:15:40.000Z</time>
      </trkpt>
      <trkpt lat="44.81233" lon="5.33653">
        <ele>842.47</ele>
        <time>2019-05-15T09:15:52.000Z</time>
      </trkpt>
      <trkpt lat="44.81245" lon="5.33652">
        <ele>841.93</ele>
        <time>2019-05-15T09:16:02.000Z</time>
      </trkpt>
      <trkpt lat="44.81255" lon="5.33648">
        <ele>843.42</ele>
        <time>2019-05-15T09:16:12.000Z</time>
      </trkpt>
      <trkpt lat="44.81264" lon="5.33645">
        <ele>843.94</ele>
        <time>2019-05-15T09:16:22.000Z</time>
      </trkpt>
      <trkpt lat="44.81273" lon="5.33642">
        <ele>845.04</ele>
        <time>2019-05-15T09:16:32.000Z</time>
      </trkpt>
      <trkpt lat="44.81282" lon="5.33638">
        <ele>845.86</ele>
        <time>2019-05-15T09:16:42.000Z</time>
      </trkpt>
      <trkpt lat="44.81291" lon="5.33635">
        <ele>846.27</ele>
        <time>2019-05-15T09:16:53.000Z</time>
      </trkpt>
      <trkpt lat="44.81301" lon="5.33631">
        <ele>847.16</ele>
        <time>2019-05-15T09:17:06.000Z</time>
      </trkpt>
      <trkpt lat="44.8131" lon="5.33628">
        <ele>848.17</ele>
        <time>2019-05-15T09:17:16.000Z</time>
      </trkpt>
      <trkpt lat="44.81319" lon="5.33624">
        <ele>848.94</ele>
        <time>2019-05-15T09:17:27.000Z</time>
      </trkpt>
      <trkpt lat="44.81327" lon="5.33618">
        <ele>851.5</ele>
        <time>2019-05-15T09:17:38.000Z</time>
      </trkpt>
      <trkpt lat="44.81336" lon="5.33612">
        <ele>853.53</ele>
        <time>2019-05-15T09:17:48.000Z</time>
      </trkpt>
      <trkpt lat="44.81349" lon="5.3361">
        <ele>852.61</ele>
        <time>2019-05-15T09:17:58.000Z</time>
      </trkpt>
      <trkpt lat="44.81358" lon="5.33609">
        <ele>851.63</ele>
        <time>2019-05-15T09:18:09.000Z</time>
      </trkpt>
      <trkpt lat="44.81367" lon="5.33607">
        <ele>851.59</ele>
        <time>2019-05-15T09:18:19.000Z</time>
      </trkpt>
      <trkpt lat="44.81377" lon="5.33604">
        <ele>850.98</ele>
        <time>2019-05-15T09:18:29.000Z</time>
      </trkpt>
      <trkpt lat="44.81387" lon="5.336">
        <ele>851.76</ele>
        <time>2019-05-15T09:18:44.000Z</time>
      </trkpt>
      <trkpt lat="44.81397" lon="5.33596">
        <ele>851.78</ele>
        <time>2019-05-15T09:18:54.000Z</time>
      </trkpt>
      <trkpt lat="44.81407" lon="5.33593">
        <ele>851.55</ele>
        <time>2019-05-15T09:19:04.000Z</time>
      </trkpt>
      <trkpt lat="44.81416" lon="5.33586">
        <ele>852.9</ele>
        <time>2019-05-15T09:19:14.000Z</time>
      </trkpt>
      <trkpt lat="44.81425" lon="5.3358">
        <ele>853.4</ele>
        <time>2019-05-15T09:19:24.000Z</time>
      </trkpt>
      <trkpt lat="44.81434" lon="5.33575">
        <ele>853.97</ele>
        <time>2019-05-15T09:19:35.000Z</time>
      </trkpt>
      <trkpt lat="44.81445" lon="5.3357">
        <ele>853.58</ele>
        <time>2019-05-15T09:19:45.000Z</time>
      </trkpt>
      <trkpt lat="44.81456" lon="5.33565">
        <ele>852.5</ele>
        <time>2019-05-15T09:19:55.000Z</time>
      </trkpt>
      <trkpt lat="44.81467" lon="5.33561">
        <ele>851.16</ele>
        <time>2019-05-15T09:20:05.000Z</time>
      </trkpt>
      <trkpt lat="44.81477" lon="5.33558">
        <ele>849.25</ele>
        <time>2019-05-15T09:20:15.000Z</time>
      </trkpt>
      <trkpt lat="44.81485" lon="5.33552">
        <ele>849.75</ele>
        <time>2019-05-15T09:20:25.000Z</time>
      </trkpt>
      <trkpt lat="44.81494" lon="5.33545">
        <ele>850.35</ele>
        <time>2019-05-15T09:20:35.000Z</time>
      </trkpt>
      <trkpt lat="44.81502" lon="5.33537">
        <ele>851.69</ele>
        <time>2019-05-15T09:20:45.000Z</time>
      </trkpt>
      <trkpt lat="44.8151" lon="5.3353">
        <ele>852.76</ele>
        <time>2019-05-15T09:20:55.000Z</time>
      </trkpt>
      <trkpt lat="44.81514" lon="5.33519">
        <ele>856.77</ele>
        <time>2019-05-15T09:21:06.000Z</time>
      </trkpt>
      <trkpt lat="44.81521" lon="5.33509">
        <ele>859.67</ele>
        <time>2019-05-15T09:21:16.000Z</time>
      </trkpt>
      <trkpt lat="44.81527" lon="5.33499">
        <ele>863.14</ele>
        <time>2019-05-15T09:21:27.000Z</time>
      </trkpt>
      <trkpt lat="44.81534" lon="5.33491">
        <ele>865.71</ele>
        <time>2019-05-15T09:21:37.000Z</time>
      </trkpt>
      <trkpt lat="44.81542" lon="5.33484">
        <ele>868</ele>
        <time>2019-05-15T09:21:48.000Z</time>
      </trkpt>
      <trkpt lat="44.81551" lon="5.33481">
        <ele>868.65</ele>
        <time>2019-05-15T09:22:01.000Z</time>
      </trkpt>
      <trkpt lat="44.8156" lon="5.3348">
        <ele>868.66</ele>
        <time>2019-05-15T09:22:14.000Z</time>
      </trkpt>
      <trkpt lat="44.8157" lon="5.33477">
        <ele>869.15</ele>
        <time>2019-05-15T09:22:24.000Z</time>
      </trkpt>
      <trkpt lat="44.81579" lon="5.33477">
        <ele>868.58</ele>
        <time>2019-05-15T09:22:36.000Z</time>
      </trkpt>
      <trkpt lat="44.81588" lon="5.33474">
        <ele>868.99</ele>
        <time>2019-05-15T09:22:46.000Z</time>
      </trkpt>
      <trkpt lat="44.81598" lon="5.33472">
        <ele>868.39</ele>
        <time>2019-05-15T09:22:56.000Z</time>
      </trkpt>
      <trkpt lat="44.81606" lon="5.33467">
        <ele>869.12</ele>
        <time>2019-05-15T09:23:07.000Z</time>
      </trkpt>
      <trkpt lat="44.81615" lon="5.33462">
        <ele>869.71</ele>
        <time>2019-05-15T09:23:17.000Z</time>
      </trkpt>
      <trkpt lat="44.81626" lon="5.33457">
        <ele>869.87</ele>
        <time>2019-05-15T09:23:27.000Z</time>
      </trkpt>
      <trkpt lat="44.81634" lon="5.3345">
        <ele>870.89</ele>
        <time>2019-05-15T09:23:38.000Z</time>
      </trkpt>
      <trkpt lat="44.81642" lon="5.33441">
        <ele>873.24</ele>
        <time>2019-05-15T09:23:48.000Z</time>
      </trkpt>
      <trkpt lat="44.8165" lon="5.33434">
        <ele>875.2</ele>
        <time>2019-05-15T09:23:58.000Z</time>
      </trkpt>
      <trkpt lat="44.81658" lon="5.33426">
        <ele>877.92</ele>
        <time>2019-05-15T09:24:09.000Z</time>
      </trkpt>
      <trkpt lat="44.81667" lon="5.33422">
        <ele>880.15</ele>
        <time>2019-05-15T09:24:19.000Z</time>
      </trkpt>
      <trkpt lat="44.81676" lon="5.33419">
        <ele>883.41</ele>
        <time>2019-05-15T09:24:32.000Z</time>
      </trkpt>
      <trkpt lat="44.81685" lon="5.33425">
        <ele>884.46</ele>
        <time>2019-05-15T09:24:43.000Z</time>
      </trkpt>
      <trkpt lat="44.81692" lon="5.33434">
        <ele>884.44</ele>
        <time>2019-05-15T09:24:55.000Z</time>
      </trkpt>
      <trkpt lat="44.81699" lon="5.33443">
        <ele>884.88</ele>
        <time>2019-05-15T09:25:07.000Z</time>
      </trkpt>
      <trkpt lat="44.81706" lon="5.33451">
        <ele>885.97</ele>
        <time>2019-05-15T09:25:17.000Z</time>
      </trkpt>
      <trkpt lat="44.81712" lon="5.33461">
        <ele>884.84</ele>
        <time>2019-05-15T09:25:28.000Z</time>
      </trkpt>
      <trkpt lat="44.81719" lon="5.33471">
        <ele>884.51</ele>
        <time>2019-05-15T09:25:39.000Z</time>
      </trkpt>
      <trkpt lat="44.81727" lon="5.33478">
        <ele>885.06</ele>
        <time>2019-05-15T09:25:50.000Z</time>
      </trkpt>
      <trkpt lat="44.81736" lon="5.3348">
        <ele>888.16</ele>
        <time>2019-05-15T09:26:01.000Z</time>
      </trkpt>
      <trkpt lat="44.81747" lon="5.33479">
        <ele>891.71</ele>
        <time>2019-05-15T09:26:23.000Z</time>
      </trkpt>
      <trkpt lat="44.81755" lon="5.33473">
        <ele>895.83</ele>
        <time>2019-05-15T09:26:51.000Z</time>
      </trkpt>
      <trkpt lat="44.81765" lon="5.33472">
        <ele>897.24</ele>
        <time>2019-05-15T09:27:11.000Z</time>
      </trkpt>
      <trkpt lat="44.81774" lon="5.33472">
        <ele>896.87</ele>
        <time>2019-05-15T09:27:23.000Z</time>
      </trkpt>
      <trkpt lat="44.81784" lon="5.33471">
        <ele>896.89</ele>
        <time>2019-05-15T09:27:38.000Z</time>
      </trkpt>
      <trkpt lat="44.81793" lon="5.33467">
        <ele>897.53</ele>
        <time>2019-05-15T09:27:56.000Z</time>
      </trkpt>
      <trkpt lat="44.81802" lon="5.33464">
        <ele>897.96</ele>
        <time>2019-05-15T09:28:11.000Z</time>
      </trkpt>
      <trkpt lat="44.81812" lon="5.33464">
        <ele>897.53</ele>
        <time>2019-05-15T09:28:26.000Z</time>
      </trkpt>
      <trkpt lat="44.81819" lon="5.33457">
        <ele>900.51</ele>
        <time>2019-05-15T09:28:44.000Z</time>
      </trkpt>
      <trkpt lat="44.81828" lon="5.3345">
        <ele>904.03</ele>
        <time>2019-05-15T09:29:00.000Z</time>
      </trkpt>
      <trkpt lat="44.81836" lon="5.33443">
        <ele>908.03</ele>
        <time>2019-05-15T09:29:17.000Z</time>
      </trkpt>
      <trkpt lat="44.81842" lon="5.33434">
        <ele>912.59</ele>
        <time>2019-05-15T09:29:40.000Z</time>
      </trkpt>
      <trkpt lat="44.8185" lon="5.33426">
        <ele>916.86</ele>
        <time>2019-05-15T09:29:55.000Z</time>
      </trkpt>
      <trkpt lat="44.81858" lon="5.33417">
        <ele>920.72</ele>
        <time>2019-05-15T09:30:09.000Z</time>
      </trkpt>
      <trkpt lat="44.81864" lon="5.33408">
        <ele>924.55</ele>
        <time>2019-05-15T09:30:29.000Z</time>
      </trkpt>
      <trkpt lat="44.8187" lon="5.33398">
        <ele>927.98</ele>
        <time>2019-05-15T09:30:48.000Z</time>
      </trkpt>
      <trkpt lat="44.81875" lon="5.33387">
        <ele>931.77</ele>
        <time>2019-05-15T09:31:11.000Z</time>
      </trkpt>
      <trkpt lat="44.81879" lon="5.33375">
        <ele>935.63</ele>
        <time>2019-05-15T09:31:40.000Z</time>
      </trkpt>
      <trkpt lat="44.81881" lon="5.33362">
        <ele>939.56</ele>
        <time>2019-05-15T09:32:09.000Z</time>
      </trkpt>
      <trkpt lat="44.81887" lon="5.33352">
        <ele>942.9</ele>
        <time>2019-05-15T09:32:29.000Z</time>
      </trkpt>
      <trkpt lat="44.8188" lon="5.33344">
        <ele>945.1</ele>
        <time>2019-05-15T09:33:04.000Z</time>
      </trkpt>
      <trkpt lat="44.8187" lon="5.33341">
        <ele>945.66</ele>
        <time>2019-05-15T09:33:19.000Z</time>
      </trkpt>
      <trkpt lat="44.81862" lon="5.33335">
        <ele>947.71</ele>
        <time>2019-05-15T09:33:36.000Z</time>
      </trkpt>
      <trkpt lat="44.81866" lon="5.33323">
        <ele>952.37</ele>
        <time>2019-05-15T09:34:03.000Z</time>
      </trkpt>
      <trkpt lat="44.81873" lon="5.33315">
        <ele>955.27</ele>
        <time>2019-05-15T09:34:21.000Z</time>
      </trkpt>
      <trkpt lat="44.81879" lon="5.33305">
        <ele>959.35</ele>
        <time>2019-05-15T09:34:47.000Z</time>
      </trkpt>
      <trkpt lat="44.81889" lon="5.33305">
        <ele>959.58</ele>
        <time>2019-05-15T09:38:41.000Z</time>
      </trkpt>
      <trkpt lat="44.81897" lon="5.33298">
        <ele>962.86</ele>
        <time>2019-05-15T09:39:00.000Z</time>
      </trkpt>
      <trkpt lat="44.81906" lon="5.33293">
        <ele>965.36</ele>
        <time>2019-05-15T09:39:23.000Z</time>
      </trkpt>
      <trkpt lat="44.81914" lon="5.33287">
        <ele>969.02</ele>
        <time>2019-05-15T09:39:42.000Z</time>
      </trkpt>
      <trkpt lat="44.81923" lon="5.33283">
        <ele>971.91</ele>
        <time>2019-05-15T09:40:05.000Z</time>
      </trkpt>
      <trkpt lat="44.81932" lon="5.33286">
        <ele>972.76</ele>
        <time>2019-05-15T09:40:23.000Z</time>
      </trkpt>
      <trkpt lat="44.81941" lon="5.33288">
        <ele>974.52</ele>
        <time>2019-05-15T09:40:36.000Z</time>
      </trkpt>
      <trkpt lat="44.81951" lon="5.33289">
        <ele>977.14</ele>
        <time>2019-05-15T09:40:51.000Z</time>
      </trkpt>
      <trkpt lat="44.8195" lon="5.33275">
        <ele>980.65</ele>
        <time>2019-05-15T09:41:20.000Z</time>
      </trkpt>
      <trkpt lat="44.81946" lon="5.33262">
        <ele>983.07</ele>
        <time>2019-05-15T09:41:33.000Z</time>
      </trkpt>
      <trkpt lat="44.81946" lon="5.33248">
        <ele>986.26</ele>
        <time>2019-05-15T09:41:52.000Z</time>
      </trkpt>
      <trkpt lat="44.81955" lon="5.33246">
        <ele>988.33</ele>
        <time>2019-05-15T09:42:11.000Z</time>
      </trkpt>
      <trkpt lat="44.81964" lon="5.33244">
        <ele>990.62</ele>
        <time>2019-05-15T09:42:27.000Z</time>
      </trkpt>
      <trkpt lat="44.81966" lon="5.33231">
        <ele>993.84</ele>
        <time>2019-05-15T09:42:50.000Z</time>
      </trkpt>
      <trkpt lat="44.81964" lon="5.33218">
        <ele>996.39</ele>
        <time>2019-05-15T09:43:04.000Z</time>
      </trkpt>
      <trkpt lat="44.81962" lon="5.33206">
        <ele>998.75</ele>
        <time>2019-05-15T09:43:25.000Z</time>
      </trkpt>
      <trkpt lat="44.81959" lon="5.33193">
        <ele>1000.85</ele>
        <time>2019-05-15T09:43:43.000Z</time>
      </trkpt>
      <trkpt lat="44.81958" lon="5.33179">
        <ele>1002.64</ele>
        <time>2019-05-15T09:46:21.000Z</time>
      </trkpt>
      <trkpt lat="44.81947" lon="5.33169">
        <ele>1002.15</ele>
        <time>2019-05-15T09:46:31.000Z</time>
      </trkpt>
      <trkpt lat="44.81942" lon="5.33155">
        <ele>1001.36</ele>
        <time>2019-05-15T09:46:41.000Z</time>
      </trkpt>
      <trkpt lat="44.81935" lon="5.33142">
        <ele>999.43</ele>
        <time>2019-05-15T09:46:54.000Z</time>
      </trkpt>
      <trkpt lat="44.81927" lon="5.33135">
        <ele>997.63</ele>
        <time>2019-05-15T09:47:05.000Z</time>
      </trkpt>
      <trkpt lat="44.81919" lon="5.33131">
        <ele>996.29</ele>
        <time>2019-05-15T09:49:09.000Z</time>
      </trkpt>
      <trkpt lat="44.81909" lon="5.3313">
        <ele>995.89</ele>
        <time>2019-05-15T09:57:30.000Z</time>
      </trkpt>
      <trkpt lat="44.81919" lon="5.33131">
        <ele>996.42</ele>
        <time>2019-05-15T10:24:36.000Z</time>
      </trkpt>
      <trkpt lat="44.81928" lon="5.33131">
        <ele>996.87</ele>
        <time>2019-05-15T10:35:34.000Z</time>
      </trkpt>
      <trkpt lat="44.81935" lon="5.33142">
        <ele>999.38</ele>
        <time>2019-05-15T10:35:49.000Z</time>
      </trkpt>
      <trkpt lat="44.81941" lon="5.33151">
        <ele>1001.02</ele>
        <time>2019-05-15T10:36:03.000Z</time>
      </trkpt>
      <trkpt lat="44.81945" lon="5.33163">
        <ele>1001.99</ele>
        <time>2019-05-15T10:36:15.000Z</time>
      </trkpt>
      <trkpt lat="44.81951" lon="5.33174">
        <ele>1002.32</ele>
        <time>2019-05-15T10:36:27.000Z</time>
      </trkpt>
      <trkpt lat="44.81958" lon="5.33182">
        <ele>1002.35</ele>
        <time>2019-05-15T10:36:38.000Z</time>
      </trkpt>
      <trkpt lat="44.81968" lon="5.3319">
        <ele>1002.49</ele>
        <time>2019-05-15T10:36:54.000Z</time>
      </trkpt>
      <trkpt lat="44.81977" lon="5.33198">
        <ele>1002.7</ele>
        <time>2019-05-15T10:37:14.000Z</time>
      </trkpt>
      <trkpt lat="44.81985" lon="5.33204">
        <ele>1003.22</ele>
        <time>2019-05-15T10:37:27.000Z</time>
      </trkpt>
      <trkpt lat="44.81995" lon="5.33206">
        <ele>1005.17</ele>
        <time>2019-05-15T10:37:38.000Z</time>
      </trkpt>
      <trkpt lat="44.82003" lon="5.33211">
        <ele>1006.7</ele>
        <time>2019-05-15T10:37:53.000Z</time>
      </trkpt>
      <trkpt lat="44.82012" lon="5.33217">
        <ele>1008.29</ele>
        <time>2019-05-15T10:38:09.000Z</time>
      </trkpt>
      <trkpt lat="44.82018" lon="5.33226">
        <ele>1009.39</ele>
        <time>2019-05-15T10:38:24.000Z</time>
      </trkpt>
      <trkpt lat="44.82026" lon="5.33234">
        <ele>1011.31</ele>
        <time>2019-05-15T10:38:35.000Z</time>
      </trkpt>
      <trkpt lat="44.82034" lon="5.33244">
        <ele>1014.03</ele>
        <time>2019-05-15T10:38:55.000Z</time>
      </trkpt>
      <trkpt lat="44.82036" lon="5.33256">
        <ele>1013.43</ele>
        <time>2019-05-15T10:39:13.000Z</time>
      </trkpt>
      <trkpt lat="44.82044" lon="5.33264">
        <ele>1016.02</ele>
        <time>2019-05-15T10:39:37.000Z</time>
      </trkpt>
      <trkpt lat="44.82053" lon="5.33271">
        <ele>1018.71</ele>
        <time>2019-05-15T10:39:49.000Z</time>
      </trkpt>
      <trkpt lat="44.82053" lon="5.33286">
        <ele>1015.25</ele>
        <time>2019-05-15T10:40:38.000Z</time>
      </trkpt>
      <trkpt lat="44.82059" lon="5.33296">
        <ele>1015.22</ele>
        <time>2019-05-15T10:40:52.000Z</time>
      </trkpt>
      <trkpt lat="44.82064" lon="5.33308">
        <ele>1014.11</ele>
        <time>2019-05-15T10:41:06.000Z</time>
      </trkpt>
      <trkpt lat="44.82069" lon="5.33297">
        <ele>1019.09</ele>
        <time>2019-05-15T10:41:27.000Z</time>
      </trkpt>
      <trkpt lat="44.82065" lon="5.33285">
        <ele>1020.64</ele>
        <time>2019-05-15T10:41:40.000Z</time>
      </trkpt>
      <trkpt lat="44.82067" lon="5.33271">
        <ele>1025.71</ele>
        <time>2019-05-15T10:41:59.000Z</time>
      </trkpt>
      <trkpt lat="44.82063" lon="5.33259">
        <ele>1026.02</ele>
        <time>2019-05-15T10:42:09.000Z</time>
      </trkpt>
      <trkpt lat="44.82063" lon="5.33246">
        <ele>1028.33</ele>
        <time>2019-05-15T10:42:22.000Z</time>
      </trkpt>
      <trkpt lat="44.82062" lon="5.33233">
        <ele>1029.09</ele>
        <time>2019-05-15T10:42:36.000Z</time>
      </trkpt>
      <trkpt lat="44.8206" lon="5.3322">
        <ele>1028.99</ele>
        <time>2019-05-15T10:42:46.000Z</time>
      </trkpt>
      <trkpt lat="44.82061" lon="5.33205">
        <ele>1030</ele>
        <time>2019-05-15T10:42:58.000Z</time>
      </trkpt>
      <trkpt lat="44.82059" lon="5.33193">
        <ele>1029.31</ele>
        <time>2019-05-15T10:43:09.000Z</time>
      </trkpt>
      <trkpt lat="44.82059" lon="5.33179">
        <ele>1029.02</ele>
        <time>2019-05-15T10:43:24.000Z</time>
      </trkpt>
      <trkpt lat="44.82057" lon="5.33164">
        <ele>1027.54</ele>
        <time>2019-05-15T10:43:34.000Z</time>
      </trkpt>
      <trkpt lat="44.8206" lon="5.33149">
        <ele>1026.72</ele>
        <time>2019-05-15T10:43:44.000Z</time>
      </trkpt>
      <trkpt lat="44.82068" lon="5.33139">
        <ele>1027.12</ele>
        <time>2019-05-15T10:43:54.000Z</time>
      </trkpt>
      <trkpt lat="44.82067" lon="5.33126">
        <ele>1023.86</ele>
        <time>2019-05-15T10:44:06.000Z</time>
      </trkpt>
      <trkpt lat="44.82063" lon="5.33109">
        <ele>1019.29</ele>
        <time>2019-05-15T10:44:16.000Z</time>
      </trkpt>
      <trkpt lat="44.82063" lon="5.33096">
        <ele>1016.63</ele>
        <time>2019-05-15T10:44:26.000Z</time>
      </trkpt>
      <trkpt lat="44.82072" lon="5.33089">
        <ele>1017.91</ele>
        <time>2019-05-15T10:44:37.000Z</time>
      </trkpt>
      <trkpt lat="44.82077" lon="5.33079">
        <ele>1018.65</ele>
        <time>2019-05-15T10:44:48.000Z</time>
      </trkpt>
      <trkpt lat="44.82086" lon="5.33069">
        <ele>1021.7</ele>
        <time>2019-05-15T10:44:58.000Z</time>
      </trkpt>
      <trkpt lat="44.82095" lon="5.33064">
        <ele>1025.66</ele>
        <time>2019-05-15T10:45:08.000Z</time>
      </trkpt>
      <trkpt lat="44.82103" lon="5.33056">
        <ele>1029.95</ele>
        <time>2019-05-15T10:45:20.000Z</time>
      </trkpt>
      <trkpt lat="44.82102" lon="5.33042">
        <ele>1031.11</ele>
        <time>2019-05-15T10:45:31.000Z</time>
      </trkpt>
      <trkpt lat="44.82098" lon="5.3303">
        <ele>1030.96</ele>
        <time>2019-05-15T10:45:43.000Z</time>
      </trkpt>
      <trkpt lat="44.8209" lon="5.33021">
        <ele>1028</ele>
        <time>2019-05-15T10:45:53.000Z</time>
      </trkpt>
      <trkpt lat="44.82083" lon="5.33009">
        <ele>1025.59</ele>
        <time>2019-05-15T10:46:03.000Z</time>
      </trkpt>
      <trkpt lat="44.82073" lon="5.33003">
        <ele>1020.87</ele>
        <time>2019-05-15T10:46:14.000Z</time>
      </trkpt>
      <trkpt lat="44.82073" lon="5.32988">
        <ele>1020.39</ele>
        <time>2019-05-15T10:46:30.000Z</time>
      </trkpt>
      <trkpt lat="44.82074" lon="5.32975">
        <ele>1021.01</ele>
        <time>2019-05-15T10:46:40.000Z</time>
      </trkpt>
      <trkpt lat="44.82078" lon="5.32962">
        <ele>1022.57</ele>
        <time>2019-05-15T10:46:50.000Z</time>
      </trkpt>
      <trkpt lat="44.82079" lon="5.32948">
        <ele>1022.33</ele>
        <time>2019-05-15T10:47:00.000Z</time>
      </trkpt>
      <trkpt lat="44.82078" lon="5.32931">
        <ele>1020.53</ele>
        <time>2019-05-15T10:47:10.000Z</time>
      </trkpt>
      <trkpt lat="44.82077" lon="5.32912">
        <ele>1017.5</ele>
        <time>2019-05-15T10:47:20.000Z</time>
      </trkpt>
      <trkpt lat="44.82077" lon="5.32899">
        <ele>1014.87</ele>
        <time>2019-05-15T10:47:30.000Z</time>
      </trkpt>
      <trkpt lat="44.82078" lon="5.32882">
        <ele>1011.66</ele>
        <time>2019-05-15T10:47:42.000Z</time>
      </trkpt>
      <trkpt lat="44.82078" lon="5.32865">
        <ele>1007.36</ele>
        <time>2019-05-15T10:48:37.000Z</time>
      </trkpt>
      <trkpt lat="44.8208" lon="5.32852">
        <ele>1004.45</ele>
        <time>2019-05-15T10:48:53.000Z</time>
      </trkpt>
      <trkpt lat="44.82087" lon="5.32843">
        <ele>1003.79</ele>
        <time>2019-05-15T10:49:03.000Z</time>
      </trkpt>
      <trkpt lat="44.82097" lon="5.3284">
        <ele>1005.86</ele>
        <time>2019-05-15T10:49:16.000Z</time>
      </trkpt>
      <trkpt lat="44.82105" lon="5.32837">
        <ele>1007.18</ele>
        <time>2019-05-15T10:49:55.000Z</time>
      </trkpt>
      <trkpt lat="44.82115" lon="5.32833">
        <ele>1008.59</ele>
        <time>2019-05-15T10:50:06.000Z</time>
      </trkpt>
      <trkpt lat="44.82124" lon="5.3283">
        <ele>1009.88</ele>
        <time>2019-05-15T10:50:16.000Z</time>
      </trkpt>
      <trkpt lat="44.82133" lon="5.32825">
        <ele>1010.79</ele>
        <time>2019-05-15T10:50:31.000Z</time>
      </trkpt>
      <trkpt lat="44.82143" lon="5.32826">
        <ele>1013.81</ele>
        <time>2019-05-15T10:50:43.000Z</time>
      </trkpt>
      <trkpt lat="44.82153" lon="5.32827">
        <ele>1016.79</ele>
        <time>2019-05-15T10:51:04.000Z</time>
      </trkpt>
      <trkpt lat="44.82163" lon="5.32825">
        <ele>1019.65</ele>
        <time>2019-05-15T10:51:29.000Z</time>
      </trkpt>
      <trkpt lat="44.82172" lon="5.32823">
        <ele>1022.5</ele>
        <time>2019-05-15T10:51:39.000Z</time>
      </trkpt>
      <trkpt lat="44.82181" lon="5.32816">
        <ele>1024.5</ele>
        <time>2019-05-15T10:53:49.000Z</time>
      </trkpt>
      <trkpt lat="44.82185" lon="5.32804">
        <ele>1024.95</ele>
        <time>2019-05-15T10:53:59.000Z</time>
      </trkpt>
      <trkpt lat="44.82185" lon="5.32791">
        <ele>1024.91</ele>
        <time>2019-05-15T10:54:18.000Z</time>
      </trkpt>
      <trkpt lat="44.82184" lon="5.32777">
        <ele>1024.76</ele>
        <time>2019-05-15T10:54:31.000Z</time>
      </trkpt>
      <trkpt lat="44.82181" lon="5.32764">
        <ele>1023.57</ele>
        <time>2019-05-15T10:54:41.000Z</time>
      </trkpt>
      <trkpt lat="44.82177" lon="5.32752">
        <ele>1022.14</ele>
        <time>2019-05-15T10:54:54.000Z</time>
      </trkpt>
      <trkpt lat="44.82173" lon="5.3274">
        <ele>1021.08</ele>
        <time>2019-05-15T10:55:04.000Z</time>
      </trkpt>
      <trkpt lat="44.82167" lon="5.32729">
        <ele>1019.58</ele>
        <time>2019-05-15T10:55:14.000Z</time>
      </trkpt>
      <trkpt lat="44.82162" lon="5.32716">
        <ele>1019.74</ele>
        <time>2019-05-15T10:55:24.000Z</time>
      </trkpt>
      <trkpt lat="44.82157" lon="5.32702">
        <ele>1020.88</ele>
        <time>2019-05-15T10:55:34.000Z</time>
      </trkpt>
      <trkpt lat="44.8215" lon="5.32692">
        <ele>1020.59</ele>
        <time>2019-05-15T10:55:44.000Z</time>
      </trkpt>
      <trkpt lat="44.82142" lon="5.32687">
        <ele>1017.66</ele>
        <time>2019-05-15T10:56:06.000Z</time>
      </trkpt>
      <trkpt lat="44.82129" lon="5.32675">
        <ele>1014.31</ele>
        <time>2019-05-15T10:56:16.000Z</time>
      </trkpt>
      <trkpt lat="44.82123" lon="5.32658">
        <ele>1014.94</ele>
        <time>2019-05-15T10:56:26.000Z</time>
      </trkpt>
      <trkpt lat="44.82115" lon="5.32644">
        <ele>1013.35</ele>
        <time>2019-05-15T10:56:36.000Z</time>
      </trkpt>
      <trkpt lat="44.8211" lon="5.32633">
        <ele>1011.9</ele>
        <time>2019-05-15T10:56:46.000Z</time>
      </trkpt>
      <trkpt lat="44.82103" lon="5.32625">
        <ele>1008.54</ele>
        <time>2019-05-15T10:56:57.000Z</time>
      </trkpt>
      <trkpt lat="44.821" lon="5.32611">
        <ele>1008.62</ele>
        <time>2019-05-15T10:57:07.000Z</time>
      </trkpt>
      <trkpt lat="44.82098" lon="5.32597">
        <ele>1009.04</ele>
        <time>2019-05-15T10:57:17.000Z</time>
      </trkpt>
      <trkpt lat="44.82096" lon="5.32578">
        <ele>1010.07</ele>
        <time>2019-05-15T10:57:27.000Z</time>
      </trkpt>
      <trkpt lat="44.82092" lon="5.32566">
        <ele>1009.33</ele>
        <time>2019-05-15T10:57:37.000Z</time>
      </trkpt>
      <trkpt lat="44.82087" lon="5.32554">
        <ele>1007.74</ele>
        <time>2019-05-15T10:57:48.000Z</time>
      </trkpt>
      <trkpt lat="44.8208" lon="5.32541">
        <ele>1005.63</ele>
        <time>2019-05-15T10:57:58.000Z</time>
      </trkpt>
      <trkpt lat="44.82072" lon="5.32526">
        <ele>1004.08</ele>
        <time>2019-05-15T10:58:08.000Z</time>
      </trkpt>
      <trkpt lat="44.82066" lon="5.32515">
        <ele>1003.94</ele>
        <time>2019-05-15T10:58:18.000Z</time>
      </trkpt>
      <trkpt lat="44.82059" lon="5.32506">
        <ele>1002.77</ele>
        <time>2019-05-15T10:58:29.000Z</time>
      </trkpt>
      <trkpt lat="44.82051" lon="5.32498">
        <ele>1001.75</ele>
        <time>2019-05-15T10:58:47.000Z</time>
      </trkpt>
      <trkpt lat="44.82044" lon="5.32489">
        <ele>1002.02</ele>
        <time>2019-05-15T10:58:57.000Z</time>
      </trkpt>
      <trkpt lat="44.82035" lon="5.32475">
        <ele>1003.86</ele>
        <time>2019-05-15T10:59:07.000Z</time>
      </trkpt>
      <trkpt lat="44.82021" lon="5.32469">
        <ele>1002.01</ele>
        <time>2019-05-15T10:59:17.000Z</time>
      </trkpt>
      <trkpt lat="44.8201" lon="5.32468">
        <ele>999.09</ele>
        <time>2019-05-15T10:59:27.000Z</time>
      </trkpt>
      <trkpt lat="44.81999" lon="5.32471">
        <ele>994.87</ele>
        <time>2019-05-15T10:59:37.000Z</time>
      </trkpt>
      <trkpt lat="44.81989" lon="5.32466">
        <ele>993.79</ele>
        <time>2019-05-15T10:59:47.000Z</time>
      </trkpt>
      <trkpt lat="44.8198" lon="5.32462">
        <ele>992.73</ele>
        <time>2019-05-15T11:00:09.000Z</time>
      </trkpt>
      <trkpt lat="44.81969" lon="5.32456">
        <ele>991.46</ele>
        <time>2019-05-15T11:00:19.000Z</time>
      </trkpt>
      <trkpt lat="44.81957" lon="5.32448">
        <ele>991.04</ele>
        <time>2019-05-15T11:00:29.000Z</time>
      </trkpt>
      <trkpt lat="44.81948" lon="5.32443">
        <ele>990.16</ele>
        <time>2019-05-15T11:00:42.000Z</time>
      </trkpt>
      <trkpt lat="44.81938" lon="5.32433">
        <ele>990.32</ele>
        <time>2019-05-15T11:00:52.000Z</time>
      </trkpt>
      <trkpt lat="44.8193" lon="5.32425">
        <ele>990.13</ele>
        <time>2019-05-15T11:01:02.000Z</time>
      </trkpt>
      <trkpt lat="44.81922" lon="5.32418">
        <ele>990.13</ele>
        <time>2019-05-15T11:01:12.000Z</time>
      </trkpt>
      <trkpt lat="44.81913" lon="5.32412">
        <ele>989.59</ele>
        <time>2019-05-15T11:01:23.000Z</time>
      </trkpt>
      <trkpt lat="44.81904" lon="5.32406">
        <ele>988.81</ele>
        <time>2019-05-15T11:01:33.000Z</time>
      </trkpt>
      <trkpt lat="44.81895" lon="5.324">
        <ele>987.96</ele>
        <time>2019-05-15T11:01:43.000Z</time>
      </trkpt>
      <trkpt lat="44.81885" lon="5.32394">
        <ele>986.72</ele>
        <time>2019-05-15T11:01:53.000Z</time>
      </trkpt>
      <trkpt lat="44.81875" lon="5.32388">
        <ele>985.12</ele>
        <time>2019-05-15T11:02:03.000Z</time>
      </trkpt>
      <trkpt lat="44.81865" lon="5.32385">
        <ele>982.79</ele>
        <time>2019-05-15T11:02:14.000Z</time>
      </trkpt>
      <trkpt lat="44.81855" lon="5.32382">
        <ele>980.5</ele>
        <time>2019-05-15T11:02:24.000Z</time>
      </trkpt>
      <trkpt lat="44.81845" lon="5.32379">
        <ele>978.18</ele>
        <time>2019-05-15T11:02:34.000Z</time>
      </trkpt>
      <trkpt lat="44.81834" lon="5.32377">
        <ele>975.51</ele>
        <time>2019-05-15T11:02:44.000Z</time>
      </trkpt>
      <trkpt lat="44.81824" lon="5.32376">
        <ele>972.9</ele>
        <time>2019-05-15T11:02:54.000Z</time>
      </trkpt>
      <trkpt lat="44.81813" lon="5.32373">
        <ele>971.26</ele>
        <time>2019-05-15T11:03:04.000Z</time>
      </trkpt>
      <trkpt lat="44.81803" lon="5.32369">
        <ele>970.56</ele>
        <time>2019-05-15T11:03:14.000Z</time>
      </trkpt>
      <trkpt lat="44.81794" lon="5.32367">
        <ele>969.46</ele>
        <time>2019-05-15T11:03:24.000Z</time>
      </trkpt>
      <trkpt lat="44.81784" lon="5.32364">
        <ele>968.51</ele>
        <time>2019-05-15T11:03:35.000Z</time>
      </trkpt>
      <trkpt lat="44.81774" lon="5.3236">
        <ele>967.28</ele>
        <time>2019-05-15T11:03:45.000Z</time>
      </trkpt>
      <trkpt lat="44.81764" lon="5.32353">
        <ele>967.27</ele>
        <time>2019-05-15T11:03:55.000Z</time>
      </trkpt>
      <trkpt lat="44.81755" lon="5.32344">
        <ele>967.14</ele>
        <time>2019-05-15T11:04:05.000Z</time>
      </trkpt>
      <trkpt lat="44.81748" lon="5.32334">
        <ele>967.79</ele>
        <time>2019-05-15T11:04:15.000Z</time>
      </trkpt>
      <trkpt lat="44.81739" lon="5.32323">
        <ele>967.79</ele>
        <time>2019-05-15T11:04:25.000Z</time>
      </trkpt>
      <trkpt lat="44.81734" lon="5.32313">
        <ele>969.24</ele>
        <time>2019-05-15T11:04:39.000Z</time>
      </trkpt>
      <trkpt lat="44.81725" lon="5.32301">
        <ele>968.45</ele>
        <time>2019-05-15T11:04:49.000Z</time>
      </trkpt>
      <trkpt lat="44.81716" lon="5.32289">
        <ele>967.13</ele>
        <time>2019-05-15T11:04:59.000Z</time>
      </trkpt>
      <trkpt lat="44.81707" lon="5.32277">
        <ele>965.06</ele>
        <time>2019-05-15T11:05:09.000Z</time>
      </trkpt>
      <trkpt lat="44.817" lon="5.32266">
        <ele>963.02</ele>
        <time>2019-05-15T11:05:19.000Z</time>
      </trkpt>
      <trkpt lat="44.81691" lon="5.32253">
        <ele>959.13</ele>
        <time>2019-05-15T11:05:29.000Z</time>
      </trkpt>
      <trkpt lat="44.81685" lon="5.32243">
        <ele>956.34</ele>
        <time>2019-05-15T11:05:40.000Z</time>
      </trkpt>
      <trkpt lat="44.81677" lon="5.3223">
        <ele>952.41</ele>
        <time>2019-05-15T11:05:50.000Z</time>
      </trkpt>
      <trkpt lat="44.81671" lon="5.32219">
        <ele>949.6</ele>
        <time>2019-05-15T11:06:00.000Z</time>
      </trkpt>
      <trkpt lat="44.81665" lon="5.32209">
        <ele>946.73</ele>
        <time>2019-05-15T11:06:15.000Z</time>
      </trkpt>
      <trkpt lat="44.8166" lon="5.32195">
        <ele>944.25</ele>
        <time>2019-05-15T11:06:25.000Z</time>
      </trkpt>
      <trkpt lat="44.81663" lon="5.32182">
        <ele>944.48</ele>
        <time>2019-05-15T11:06:35.000Z</time>
      </trkpt>
      <trkpt lat="44.81673" lon="5.32175">
        <ele>946.83</ele>
        <time>2019-05-15T11:06:45.000Z</time>
      </trkpt>
      <trkpt lat="44.81684" lon="5.32168">
        <ele>948.39</ele>
        <time>2019-05-15T11:06:55.000Z</time>
      </trkpt>
      <trkpt lat="44.81694" lon="5.32159">
        <ele>948.19</ele>
        <time>2019-05-15T11:07:05.000Z</time>
      </trkpt>
      <trkpt lat="44.81704" lon="5.3215">
        <ele>947.14</ele>
        <time>2019-05-15T11:07:15.000Z</time>
      </trkpt>
      <trkpt lat="44.81713" lon="5.32143">
        <ele>945.5</ele>
        <time>2019-05-15T11:07:25.000Z</time>
      </trkpt>
      <trkpt lat="44.81722" lon="5.32136">
        <ele>944.05</ele>
        <time>2019-05-15T11:07:35.000Z</time>
      </trkpt>
      <trkpt lat="44.81732" lon="5.32128">
        <ele>942.44</ele>
        <time>2019-05-15T11:07:45.000Z</time>
      </trkpt>
      <trkpt lat="44.81741" lon="5.32121">
        <ele>940.64</ele>
        <time>2019-05-15T11:07:55.000Z</time>
      </trkpt>
      <trkpt lat="44.81749" lon="5.32114">
        <ele>938.65</ele>
        <time>2019-05-15T11:08:05.000Z</time>
      </trkpt>
      <trkpt lat="44.81759" lon="5.32107">
        <ele>937.22</ele>
        <time>2019-05-15T11:08:15.000Z</time>
      </trkpt>
      <trkpt lat="44.81768" lon="5.32101">
        <ele>936.29</ele>
        <time>2019-05-15T11:08:25.000Z</time>
      </trkpt>
      <trkpt lat="44.81777" lon="5.32094">
        <ele>934.88</ele>
        <time>2019-05-15T11:08:35.000Z</time>
      </trkpt>
      <trkpt lat="44.81787" lon="5.32088">
        <ele>934.58</ele>
        <time>2019-05-15T11:08:45.000Z</time>
      </trkpt>
      <trkpt lat="44.81796" lon="5.32085">
        <ele>935.24</ele>
        <time>2019-05-15T11:08:55.000Z</time>
      </trkpt>
      <trkpt lat="44.81806" lon="5.32083">
        <ele>936.19</ele>
        <time>2019-05-15T11:09:06.000Z</time>
      </trkpt>
      <trkpt lat="44.81815" lon="5.32079">
        <ele>936.28</ele>
        <time>2019-05-15T11:09:18.000Z</time>
      </trkpt>
      <trkpt lat="44.81824" lon="5.32075">
        <ele>935.82</ele>
        <time>2019-05-15T11:09:30.000Z</time>
      </trkpt>
      <trkpt lat="44.81825" lon="5.32062">
        <ele>930.23</ele>
        <time>2019-05-15T11:13:14.000Z</time>
      </trkpt>
      <trkpt lat="44.81816" lon="5.32062">
        <ele>928.59</ele>
        <time>2019-05-15T11:14:12.000Z</time>
      </trkpt>
      <trkpt lat="44.81804" lon="5.32071">
        <ele>930.13</ele>
        <time>2019-05-15T11:14:22.000Z</time>
      </trkpt>
      <trkpt lat="44.81794" lon="5.32075">
        <ele>929.74</ele>
        <time>2019-05-15T11:14:32.000Z</time>
      </trkpt>
      <trkpt lat="44.81782" lon="5.32074">
        <ele>926.8</ele>
        <time>2019-05-15T11:14:42.000Z</time>
      </trkpt>
      <trkpt lat="44.81771" lon="5.32074">
        <ele>923.81</ele>
        <time>2019-05-15T11:14:52.000Z</time>
      </trkpt>
      <trkpt lat="44.81761" lon="5.32074">
        <ele>921.89</ele>
        <time>2019-05-15T11:15:02.000Z</time>
      </trkpt>
      <trkpt lat="44.81752" lon="5.32072">
        <ele>918.73</ele>
        <time>2019-05-15T11:15:14.000Z</time>
      </trkpt>
      <trkpt lat="44.81737" lon="5.32076">
        <ele>917.71</ele>
        <time>2019-05-15T11:15:24.000Z</time>
      </trkpt>
      <trkpt lat="44.81726" lon="5.32081">
        <ele>917.77</ele>
        <time>2019-05-15T11:15:34.000Z</time>
      </trkpt>
      <trkpt lat="44.81713" lon="5.32082">
        <ele>915.38</ele>
        <time>2019-05-15T11:15:44.000Z</time>
      </trkpt>
      <trkpt lat="44.81701" lon="5.32086">
        <ele>914.97</ele>
        <time>2019-05-15T11:15:54.000Z</time>
      </trkpt>
      <trkpt lat="44.81691" lon="5.32089">
        <ele>913.95</ele>
        <time>2019-05-15T11:16:04.000Z</time>
      </trkpt>
      <trkpt lat="44.8168" lon="5.32089">
        <ele>911.69</ele>
        <time>2019-05-15T11:16:14.000Z</time>
      </trkpt>
      <trkpt lat="44.81667" lon="5.32092">
        <ele>910.93</ele>
        <time>2019-05-15T11:16:24.000Z</time>
      </trkpt>
      <trkpt lat="44.81655" lon="5.32093">
        <ele>909.2</ele>
        <time>2019-05-15T11:16:34.000Z</time>
      </trkpt>
      <trkpt lat="44.81645" lon="5.32094">
        <ele>907.81</ele>
        <time>2019-05-15T11:16:44.000Z</time>
      </trkpt>
      <trkpt lat="44.81632" lon="5.32095">
        <ele>906.2</ele>
        <time>2019-05-15T11:16:54.000Z</time>
      </trkpt>
      <trkpt lat="44.81619" lon="5.32097">
        <ele>904.79</ele>
        <time>2019-05-15T11:17:04.000Z</time>
      </trkpt>
      <trkpt lat="44.8161" lon="5.32098">
        <ele>903.44</ele>
        <time>2019-05-15T11:17:14.000Z</time>
      </trkpt>
      <trkpt lat="44.81599" lon="5.32098">
        <ele>901.8</ele>
        <time>2019-05-15T11:17:24.000Z</time>
      </trkpt>
      <trkpt lat="44.81588" lon="5.32096">
        <ele>899.67</ele>
        <time>2019-05-15T11:17:34.000Z</time>
      </trkpt>
      <trkpt lat="44.81577" lon="5.32093">
        <ele>897.37</ele>
        <time>2019-05-15T11:17:44.000Z</time>
      </trkpt>
      <trkpt lat="44.81566" lon="5.32089">
        <ele>895.4</ele>
        <time>2019-05-15T11:17:54.000Z</time>
      </trkpt>
      <trkpt lat="44.81555" lon="5.32084">
        <ele>893.8</ele>
        <time>2019-05-15T11:18:04.000Z</time>
      </trkpt>
      <trkpt lat="44.81546" lon="5.3208">
        <ele>892.91</ele>
        <time>2019-05-15T11:18:14.000Z</time>
      </trkpt>
      <trkpt lat="44.81537" lon="5.32076">
        <ele>892.14</ele>
        <time>2019-05-15T11:18:25.000Z</time>
      </trkpt>
      <trkpt lat="44.81528" lon="5.32072">
        <ele>891.63</ele>
        <time>2019-05-15T11:18:35.000Z</time>
      </trkpt>
      <trkpt lat="44.81519" lon="5.32074">
        <ele>891.51</ele>
        <time>2019-05-15T11:18:45.000Z</time>
      </trkpt>
      <trkpt lat="44.81509" lon="5.32078">
        <ele>891.04</ele>
        <time>2019-05-15T11:18:57.000Z</time>
      </trkpt>
      <trkpt lat="44.815" lon="5.3208">
        <ele>890.23</ele>
        <time>2019-05-15T11:19:08.000Z</time>
      </trkpt>
      <trkpt lat="44.8149" lon="5.32078">
        <ele>889.5</ele>
        <time>2019-05-15T11:20:03.000Z</time>
      </trkpt>
      <trkpt lat="44.8148" lon="5.32076">
        <ele>888.72</ele>
        <time>2019-05-15T11:20:13.000Z</time>
      </trkpt>
      <trkpt lat="44.8147" lon="5.32075">
        <ele>887.84</ele>
        <time>2019-05-15T11:20:23.000Z</time>
      </trkpt>
      <trkpt lat="44.81457" lon="5.32073">
        <ele>886.7</ele>
        <time>2019-05-15T11:20:33.000Z</time>
      </trkpt>
      <trkpt lat="44.81448" lon="5.32074">
        <ele>885.55</ele>
        <time>2019-05-15T11:20:43.000Z</time>
      </trkpt>
      <trkpt lat="44.81438" lon="5.32075">
        <ele>884.2</ele>
        <time>2019-05-15T11:20:53.000Z</time>
      </trkpt>
      <trkpt lat="44.81426" lon="5.32075">
        <ele>882.71</ele>
        <time>2019-05-15T11:21:03.000Z</time>
      </trkpt>
      <trkpt lat="44.81417" lon="5.32066">
        <ele>883.4</ele>
        <time>2019-05-15T11:21:15.000Z</time>
      </trkpt>
      <trkpt lat="44.8141" lon="5.32056">
        <ele>884.7</ele>
        <time>2019-05-15T11:21:29.000Z</time>
      </trkpt>
      <trkpt lat="44.814" lon="5.32058">
        <ele>883.57</ele>
        <time>2019-05-15T11:21:39.000Z</time>
      </trkpt>
      <trkpt lat="44.8139" lon="5.32062">
        <ele>881.66</ele>
        <time>2019-05-15T11:21:49.000Z</time>
      </trkpt>
      <trkpt lat="44.8138" lon="5.32064">
        <ele>880.1</ele>
        <time>2019-05-15T11:21:59.000Z</time>
      </trkpt>
      <trkpt lat="44.81368" lon="5.32067">
        <ele>877.84</ele>
        <time>2019-05-15T11:22:09.000Z</time>
      </trkpt>
      <trkpt lat="44.81359" lon="5.32064">
        <ele>877.83</ele>
        <time>2019-05-15T11:22:19.000Z</time>
      </trkpt>
      <trkpt lat="44.81348" lon="5.32068">
        <ele>875.2</ele>
        <time>2019-05-15T11:22:29.000Z</time>
      </trkpt>
      <trkpt lat="44.81337" lon="5.32066">
        <ele>874.84</ele>
        <time>2019-05-15T11:22:39.000Z</time>
      </trkpt>
      <trkpt lat="44.81327" lon="5.3207">
        <ele>872.67</ele>
        <time>2019-05-15T11:22:49.000Z</time>
      </trkpt>
      <trkpt lat="44.81316" lon="5.3207">
        <ele>872.55</ele>
        <time>2019-05-15T11:22:59.000Z</time>
      </trkpt>
      <trkpt lat="44.8131" lon="5.32085">
        <ele>868.54</ele>
        <time>2019-05-15T11:23:09.000Z</time>
      </trkpt>
      <trkpt lat="44.81301" lon="5.32098">
        <ele>866.67</ele>
        <time>2019-05-15T11:23:19.000Z</time>
      </trkpt>
      <trkpt lat="44.81293" lon="5.32106">
        <ele>866.46</ele>
        <time>2019-05-15T11:23:30.000Z</time>
      </trkpt>
      <trkpt lat="44.81283" lon="5.32112">
        <ele>866.63</ele>
        <time>2019-05-15T11:23:40.000Z</time>
      </trkpt>
      <trkpt lat="44.81272" lon="5.32113">
        <ele>867.37</ele>
        <time>2019-05-15T11:23:50.000Z</time>
      </trkpt>
      <trkpt lat="44.81262" lon="5.32114">
        <ele>866.94</ele>
        <time>2019-05-15T11:24:00.000Z</time>
      </trkpt>
      <trkpt lat="44.81253" lon="5.32113">
        <ele>865.61</ele>
        <time>2019-05-15T11:24:14.000Z</time>
      </trkpt>
      <trkpt lat="44.81244" lon="5.32107">
        <ele>863.95</ele>
        <time>2019-05-15T11:24:28.000Z</time>
      </trkpt>
      <trkpt lat="44.81233" lon="5.32098">
        <ele>860.68</ele>
        <time>2019-05-15T11:24:38.000Z</time>
      </trkpt>
      <trkpt lat="44.81227" lon="5.32086">
        <ele>858.21</ele>
        <time>2019-05-15T11:24:48.000Z</time>
      </trkpt>
      <trkpt lat="44.81225" lon="5.32074">
        <ele>857.55</ele>
        <time>2019-05-15T11:24:59.000Z</time>
      </trkpt>
      <trkpt lat="44.81229" lon="5.32062">
        <ele>859.29</ele>
        <time>2019-05-15T11:25:11.000Z</time>
      </trkpt>
      <trkpt lat="44.81237" lon="5.32053">
        <ele>861.7</ele>
        <time>2019-05-15T11:25:24.000Z</time>
      </trkpt>
      <trkpt lat="44.81244" lon="5.32042">
        <ele>863.29</ele>
        <time>2019-05-15T11:25:34.000Z</time>
      </trkpt>
      <trkpt lat="44.81249" lon="5.32031">
        <ele>863.13</ele>
        <time>2019-05-15T11:25:46.000Z</time>
      </trkpt>
      <trkpt lat="44.81251" lon="5.32016">
        <ele>860.55</ele>
        <time>2019-05-15T11:25:58.000Z</time>
      </trkpt>
      <trkpt lat="44.81253" lon="5.32001">
        <ele>858.8</ele>
        <time>2019-05-15T11:26:08.000Z</time>
      </trkpt>
      <trkpt lat="44.81254" lon="5.31985">
        <ele>855.83</ele>
        <time>2019-05-15T11:26:18.000Z</time>
      </trkpt>
      <trkpt lat="44.81257" lon="5.31971">
        <ele>853.98</ele>
        <time>2019-05-15T11:26:28.000Z</time>
      </trkpt>
      <trkpt lat="44.81261" lon="5.31956">
        <ele>852.98</ele>
        <time>2019-05-15T11:26:38.000Z</time>
      </trkpt>
      <trkpt lat="44.81268" lon="5.31941">
        <ele>852.79</ele>
        <time>2019-05-15T11:26:48.000Z</time>
      </trkpt>
      <trkpt lat="44.81274" lon="5.31931">
        <ele>854.12</ele>
        <time>2019-05-15T11:26:58.000Z</time>
      </trkpt>
      <trkpt lat="44.8128" lon="5.3192">
        <ele>855.17</ele>
        <time>2019-05-15T11:27:09.000Z</time>
      </trkpt>
      <trkpt lat="44.81288" lon="5.3191">
        <ele>857.16</ele>
        <time>2019-05-15T11:27:19.000Z</time>
      </trkpt>
      <trkpt lat="44.81292" lon="5.31899">
        <ele>856.13</ele>
        <time>2019-05-15T11:27:32.000Z</time>
      </trkpt>
      <trkpt lat="44.81298" lon="5.31887">
        <ele>854.83</ele>
        <time>2019-05-15T11:27:46.000Z</time>
      </trkpt>
      <trkpt lat="44.81289" lon="5.31892">
        <ele>851.22</ele>
        <time>2019-05-15T11:28:17.000Z</time>
      </trkpt>
      <trkpt lat="44.81281" lon="5.319">
        <ele>848.91</ele>
        <time>2019-05-15T11:28:29.000Z</time>
      </trkpt>
      <trkpt lat="44.81272" lon="5.31898">
        <ele>841.41</ele>
        <time>2019-05-15T11:28:40.000Z</time>
      </trkpt>
      <trkpt lat="44.81265" lon="5.31907">
        <ele>840.17</ele>
        <time>2019-05-15T11:28:51.000Z</time>
      </trkpt>
      <trkpt lat="44.81256" lon="5.31912">
        <ele>836.52</ele>
        <time>2019-05-15T11:29:05.000Z</time>
      </trkpt>
      <trkpt lat="44.81248" lon="5.31917">
        <ele>833.9</ele>
        <time>2019-05-15T11:29:15.000Z</time>
      </trkpt>
      <trkpt lat="44.81238" lon="5.31925">
        <ele>831.58</ele>
        <time>2019-05-15T11:29:25.000Z</time>
      </trkpt>
      <trkpt lat="44.81229" lon="5.31936">
        <ele>831.18</ele>
        <time>2019-05-15T11:29:35.000Z</time>
      </trkpt>
      <trkpt lat="44.81224" lon="5.31947">
        <ele>832.18</ele>
        <time>2019-05-15T11:29:46.000Z</time>
      </trkpt>
      <trkpt lat="44.81218" lon="5.31956">
        <ele>832</ele>
        <time>2019-05-15T11:29:56.000Z</time>
      </trkpt>
      <trkpt lat="44.81212" lon="5.31968">
        <ele>832.36</ele>
        <time>2019-05-15T11:30:06.000Z</time>
      </trkpt>
      <trkpt lat="44.81204" lon="5.31976">
        <ele>830.66</ele>
        <time>2019-05-15T11:30:18.000Z</time>
      </trkpt>
      <trkpt lat="44.81198" lon="5.31988">
        <ele>830.32</ele>
        <time>2019-05-15T11:30:28.000Z</time>
      </trkpt>
      <trkpt lat="44.81194" lon="5.32002">
        <ele>830.75</ele>
        <time>2019-05-15T11:30:38.000Z</time>
      </trkpt>
      <trkpt lat="44.81187" lon="5.32014">
        <ele>829.06</ele>
        <time>2019-05-15T11:30:52.000Z</time>
      </trkpt>
      <trkpt lat="44.81182" lon="5.32026">
        <ele>827.85</ele>
        <time>2019-05-15T11:31:02.000Z</time>
      </trkpt>
      <trkpt lat="44.8118" lon="5.32039">
        <ele>827.27</ele>
        <time>2019-05-15T11:31:17.000Z</time>
      </trkpt>
      <trkpt lat="44.81178" lon="5.32026">
        <ele>825.69</ele>
        <time>2019-05-15T11:31:36.000Z</time>
      </trkpt>
      <trkpt lat="44.81177" lon="5.32012">
        <ele>823.72</ele>
        <time>2019-05-15T11:31:46.000Z</time>
      </trkpt>
      <trkpt lat="44.81179" lon="5.31999">
        <ele>823.62</ele>
        <time>2019-05-15T11:31:56.000Z</time>
      </trkpt>
      <trkpt lat="44.8118" lon="5.31983">
        <ele>821.85</ele>
        <time>2019-05-15T11:32:06.000Z</time>
      </trkpt>
      <trkpt lat="44.8118" lon="5.3197">
        <ele>819.54</ele>
        <time>2019-05-15T11:32:26.000Z</time>
      </trkpt>
      <trkpt lat="44.81184" lon="5.31956">
        <ele>818.23</ele>
        <time>2019-05-15T11:32:40.000Z</time>
      </trkpt>
      <trkpt lat="44.81187" lon="5.31944">
        <ele>816.79</ele>
        <time>2019-05-15T11:32:50.000Z</time>
      </trkpt>
      <trkpt lat="44.81185" lon="5.3193">
        <ele>812.68</ele>
        <time>2019-05-15T11:33:00.000Z</time>
      </trkpt>
      <trkpt lat="44.81184" lon="5.31917">
        <ele>809.18</ele>
        <time>2019-05-15T11:33:11.000Z</time>
      </trkpt>
      <trkpt lat="44.81188" lon="5.31904">
        <ele>807.23</ele>
        <time>2019-05-15T11:33:21.000Z</time>
      </trkpt>
      <trkpt lat="44.81194" lon="5.31894">
        <ele>806.56</ele>
        <time>2019-05-15T11:33:43.000Z</time>
      </trkpt>
      <trkpt lat="44.81194" lon="5.31881">
        <ele>802.7</ele>
        <time>2019-05-15T11:36:51.000Z</time>
      </trkpt>
      <trkpt lat="44.81185" lon="5.31882">
        <ele>800.27</ele>
        <time>2019-05-15T11:37:18.000Z</time>
      </trkpt>
      <trkpt lat="44.81176" lon="5.31889">
        <ele>799.38</ele>
        <time>2019-05-15T11:37:31.000Z</time>
      </trkpt>
      <trkpt lat="44.81169" lon="5.31898">
        <ele>799.44</ele>
        <time>2019-05-15T11:37:44.000Z</time>
      </trkpt>
      <trkpt lat="44.81163" lon="5.31909">
        <ele>800.11</ele>
        <time>2019-05-15T11:37:57.000Z</time>
      </trkpt>
      <trkpt lat="44.81163" lon="5.31924">
        <ele>803.09</ele>
        <time>2019-05-15T11:38:07.000Z</time>
      </trkpt>
      <trkpt lat="44.81156" lon="5.31932">
        <ele>802.21</ele>
        <time>2019-05-15T11:38:18.000Z</time>
      </trkpt>
      <trkpt lat="44.81145" lon="5.31937">
        <ele>798.8</ele>
        <time>2019-05-15T11:38:28.000Z</time>
      </trkpt>
      <trkpt lat="44.81136" lon="5.31948">
        <ele>797.06</ele>
        <time>2019-05-15T11:38:38.000Z</time>
      </trkpt>
      <trkpt lat="44.81131" lon="5.31959">
        <ele>796.99</ele>
        <time>2019-05-15T11:38:48.000Z</time>
      </trkpt>
      <trkpt lat="44.81125" lon="5.31969">
        <ele>795.76</ele>
        <time>2019-05-15T11:38:58.000Z</time>
      </trkpt>
      <trkpt lat="44.81121" lon="5.3198">
        <ele>795.52</ele>
        <time>2019-05-15T11:39:08.000Z</time>
      </trkpt>
      <trkpt lat="44.81118" lon="5.31993">
        <ele>795.29</ele>
        <time>2019-05-15T11:39:18.000Z</time>
      </trkpt>
      <trkpt lat="44.81113" lon="5.32005">
        <ele>793.61</ele>
        <time>2019-05-15T11:39:30.000Z</time>
      </trkpt>
      <trkpt lat="44.8111" lon="5.32022">
        <ele>792.32</ele>
        <time>2019-05-15T11:39:40.000Z</time>
      </trkpt>
      <trkpt lat="44.81112" lon="5.32038">
        <ele>792.33</ele>
        <time>2019-05-15T11:39:50.000Z</time>
      </trkpt>
      <trkpt lat="44.81115" lon="5.3205">
        <ele>792.98</ele>
        <time>2019-05-15T11:40:02.000Z</time>
      </trkpt>
      <trkpt lat="44.81121" lon="5.32065">
        <ele>794.51</ele>
        <time>2019-05-15T11:40:12.000Z</time>
      </trkpt>
      <trkpt lat="44.81126" lon="5.32077">
        <ele>795.67</ele>
        <time>2019-05-15T11:40:22.000Z</time>
      </trkpt>
      <trkpt lat="44.8113" lon="5.32089">
        <ele>796.4</ele>
        <time>2019-05-15T11:40:33.000Z</time>
      </trkpt>
      <trkpt lat="44.81132" lon="5.32102">
        <ele>794.68</ele>
        <time>2019-05-15T11:40:45.000Z</time>
      </trkpt>
      <trkpt lat="44.81134" lon="5.32115">
        <ele>792.13</ele>
        <time>2019-05-15T11:40:55.000Z</time>
      </trkpt>
      <trkpt lat="44.81139" lon="5.32129">
        <ele>790.82</ele>
        <time>2019-05-15T11:41:05.000Z</time>
      </trkpt>
      <trkpt lat="44.81144" lon="5.32139">
        <ele>790.99</ele>
        <time>2019-05-15T11:41:15.000Z</time>
      </trkpt>
      <trkpt lat="44.81148" lon="5.32152">
        <ele>788.72</ele>
        <time>2019-05-15T11:41:27.000Z</time>
      </trkpt>
      <trkpt lat="44.81154" lon="5.32161">
        <ele>789.54</ele>
        <time>2019-05-15T11:41:38.000Z</time>
      </trkpt>
      <trkpt lat="44.81156" lon="5.32174">
        <ele>786.32</ele>
        <time>2019-05-15T11:41:49.000Z</time>
      </trkpt>
      <trkpt lat="44.81163" lon="5.32182">
        <ele>788.17</ele>
        <time>2019-05-15T11:41:59.000Z</time>
      </trkpt>
      <trkpt lat="44.81168" lon="5.32194">
        <ele>786.8</ele>
        <time>2019-05-15T11:42:09.000Z</time>
      </trkpt>
      <trkpt lat="44.81174" lon="5.32204">
        <ele>786.99</ele>
        <time>2019-05-15T11:42:19.000Z</time>
      </trkpt>
      <trkpt lat="44.81177" lon="5.32217">
        <ele>783.89</ele>
        <time>2019-05-15T11:42:31.000Z</time>
      </trkpt>
      <trkpt lat="44.81169" lon="5.32208">
        <ele>782.52</ele>
        <time>2019-05-15T11:42:48.000Z</time>
      </trkpt>
      <trkpt lat="44.81162" lon="5.322">
        <ele>780.88</ele>
        <time>2019-05-15T11:42:58.000Z</time>
      </trkpt>
      <trkpt lat="44.81154" lon="5.32191">
        <ele>779.72</ele>
        <time>2019-05-15T11:43:10.000Z</time>
      </trkpt>
      <trkpt lat="44.8115" lon="5.32179">
        <ele>781.44</ele>
        <time>2019-05-15T11:43:23.000Z</time>
      </trkpt>
      <trkpt lat="44.81143" lon="5.3217">
        <ele>780.07</ele>
        <time>2019-05-15T11:43:34.000Z</time>
      </trkpt>
      <trkpt lat="44.81134" lon="5.32162">
        <ele>777.74</ele>
        <time>2019-05-15T11:43:44.000Z</time>
      </trkpt>
      <trkpt lat="44.81126" lon="5.32156">
        <ele>775.23</ele>
        <time>2019-05-15T11:43:57.000Z</time>
      </trkpt>
      <trkpt lat="44.81118" lon="5.32148">
        <ele>773.75</ele>
        <time>2019-05-15T11:44:08.000Z</time>
      </trkpt>
      <trkpt lat="44.81111" lon="5.3214">
        <ele>772.21</ele>
        <time>2019-05-15T11:44:18.000Z</time>
      </trkpt>
      <trkpt lat="44.81103" lon="5.32135">
        <ele>769.08</ele>
        <time>2019-05-15T11:44:28.000Z</time>
      </trkpt>
      <trkpt lat="44.81095" lon="5.32127">
        <ele>767.19</ele>
        <time>2019-05-15T11:44:39.000Z</time>
      </trkpt>
      <trkpt lat="44.81087" lon="5.32117">
        <ele>765.05</ele>
        <time>2019-05-15T11:44:49.000Z</time>
      </trkpt>
      <trkpt lat="44.81083" lon="5.32105">
        <ele>766.15</ele>
        <time>2019-05-15T11:45:00.000Z</time>
      </trkpt>
      <trkpt lat="44.81075" lon="5.32097">
        <ele>762.6</ele>
        <time>2019-05-15T11:45:10.000Z</time>
      </trkpt>
      <trkpt lat="44.81069" lon="5.32087">
        <ele>761.23</ele>
        <time>2019-05-15T11:45:20.000Z</time>
      </trkpt>
      <trkpt lat="44.8106" lon="5.32076">
        <ele>757.94</ele>
        <time>2019-05-15T11:45:30.000Z</time>
      </trkpt>
      <trkpt lat="44.81054" lon="5.32065">
        <ele>756.39</ele>
        <time>2019-05-15T11:45:40.000Z</time>
      </trkpt>
      <trkpt lat="44.81051" lon="5.32053">
        <ele>757.36</ele>
        <time>2019-05-15T11:45:51.000Z</time>
      </trkpt>
      <trkpt lat="44.81048" lon="5.32039">
        <ele>759.26</ele>
        <time>2019-05-15T11:46:02.000Z</time>
      </trkpt>
      <trkpt lat="44.81046" lon="5.32025">
        <ele>761.66</ele>
        <time>2019-05-15T11:46:12.000Z</time>
      </trkpt>
      <trkpt lat="44.81038" lon="5.32017">
        <ele>759.63</ele>
        <time>2019-05-15T11:46:22.000Z</time>
      </trkpt>
      <trkpt lat="44.81029" lon="5.32024">
        <ele>754.2</ele>
        <time>2019-05-15T11:46:33.000Z</time>
      </trkpt>
      <trkpt lat="44.8102" lon="5.32026">
        <ele>749.64</ele>
        <time>2019-05-15T11:46:44.000Z</time>
      </trkpt>
      <trkpt lat="44.81009" lon="5.32027">
        <ele>745.55</ele>
        <time>2019-05-15T11:46:54.000Z</time>
      </trkpt>
      <trkpt lat="44.81" lon="5.32027">
        <ele>742.9</ele>
        <time>2019-05-15T11:47:07.000Z</time>
      </trkpt>
      <trkpt lat="44.80991" lon="5.32033">
        <ele>739.04</ele>
        <time>2019-05-15T11:47:17.000Z</time>
      </trkpt>
      <trkpt lat="44.80979" lon="5.32037">
        <ele>736.22</ele>
        <time>2019-05-15T11:47:27.000Z</time>
      </trkpt>
      <trkpt lat="44.80966" lon="5.32044">
        <ele>734.26</ele>
        <time>2019-05-15T11:47:37.000Z</time>
      </trkpt>
      <trkpt lat="44.80954" lon="5.32049">
        <ele>733.74</ele>
        <time>2019-05-15T11:47:47.000Z</time>
      </trkpt>
      <trkpt lat="44.80945" lon="5.32049">
        <ele>734.52</ele>
        <time>2019-05-15T11:47:57.000Z</time>
      </trkpt>
      <trkpt lat="44.80937" lon="5.32055">
        <ele>734.2</ele>
        <time>2019-05-15T11:48:08.000Z</time>
      </trkpt>
      <trkpt lat="44.80928" lon="5.32059">
        <ele>734.4</ele>
        <time>2019-05-15T11:48:45.000Z</time>
      </trkpt>
      <trkpt lat="44.80919" lon="5.32063">
        <ele>733.98</ele>
        <time>2019-05-15T11:49:17.000Z</time>
      </trkpt>
      <trkpt lat="44.8091" lon="5.32067">
        <ele>733.08</ele>
        <time>2019-05-15T11:49:37.000Z</time>
      </trkpt>
      <trkpt lat="44.809" lon="5.32074">
        <ele>731.3</ele>
        <time>2019-05-15T11:49:47.000Z</time>
      </trkpt>
      <trkpt lat="44.8089" lon="5.32077">
        <ele>729.99</ele>
        <time>2019-05-15T11:49:57.000Z</time>
      </trkpt>
      <trkpt lat="44.80881" lon="5.32081">
        <ele>728.31</ele>
        <time>2019-05-15T11:50:07.000Z</time>
      </trkpt>
      <trkpt lat="44.80867" lon="5.32086">
        <ele>725.34</ele>
        <time>2019-05-15T11:50:17.000Z</time>
      </trkpt>
      <trkpt lat="44.80856" lon="5.3209">
        <ele>723.17</ele>
        <time>2019-05-15T11:50:27.000Z</time>
      </trkpt>
      <trkpt lat="44.80842" lon="5.3209">
        <ele>721.61</ele>
        <time>2019-05-15T11:50:37.000Z</time>
      </trkpt>
      <trkpt lat="44.80831" lon="5.32089">
        <ele>720.4</ele>
        <time>2019-05-15T11:50:47.000Z</time>
      </trkpt>
      <trkpt lat="44.80818" lon="5.3209">
        <ele>718.86</ele>
        <time>2019-05-15T11:50:57.000Z</time>
      </trkpt>
      <trkpt lat="44.80807" lon="5.32093">
        <ele>717.3</ele>
        <time>2019-05-15T11:51:07.000Z</time>
      </trkpt>
      <trkpt lat="44.80796" lon="5.32092">
        <ele>716.34</ele>
        <time>2019-05-15T11:51:17.000Z</time>
      </trkpt>
      <trkpt lat="44.80787" lon="5.32087">
        <ele>716.24</ele>
        <time>2019-05-15T11:52:31.000Z</time>
      </trkpt>
      <trkpt lat="44.80778" lon="5.32087">
        <ele>715.21</ele>
        <time>2019-05-15T11:52:41.000Z</time>
      </trkpt>
      <trkpt lat="44.80768" lon="5.32086">
        <ele>714.15</ele>
        <time>2019-05-15T11:52:51.000Z</time>
      </trkpt>
      <trkpt lat="44.80758" lon="5.32087">
        <ele>712.8</ele>
        <time>2019-05-15T11:53:01.000Z</time>
      </trkpt>
      <trkpt lat="44.80747" lon="5.32084">
        <ele>711.47</ele>
        <time>2019-05-15T11:53:11.000Z</time>
      </trkpt>
      <trkpt lat="44.80737" lon="5.32082">
        <ele>710.1</ele>
        <time>2019-05-15T11:53:23.000Z</time>
      </trkpt>
      <trkpt lat="44.80724" lon="5.32077">
        <ele>708.52</ele>
        <time>2019-05-15T11:53:33.000Z</time>
      </trkpt>
      <trkpt lat="44.80714" lon="5.32072">
        <ele>707.17</ele>
        <time>2019-05-15T11:53:43.000Z</time>
      </trkpt>
      <trkpt lat="44.80711" lon="5.32084">
        <ele>705.65</ele>
        <time>2019-05-15T11:54:00.000Z</time>
      </trkpt>
      <trkpt lat="44.80718" lon="5.32094">
        <ele>705.36</ele>
        <time>2019-05-15T11:54:11.000Z</time>
      </trkpt>
      <trkpt lat="44.80727" lon="5.32104">
        <ele>704.74</ele>
        <time>2019-05-15T11:54:21.000Z</time>
      </trkpt>
      <trkpt lat="44.80735" lon="5.32113">
        <ele>703.43</ele>
        <time>2019-05-15T11:54:31.000Z</time>
      </trkpt>
      <trkpt lat="44.80743" lon="5.32122">
        <ele>701.96</ele>
        <time>2019-05-15T11:54:41.000Z</time>
      </trkpt>
      <trkpt lat="44.80752" lon="5.32131">
        <ele>700.03</ele>
        <time>2019-05-15T11:54:51.000Z</time>
      </trkpt>
      <trkpt lat="44.80761" lon="5.32136">
        <ele>699.14</ele>
        <time>2019-05-15T11:55:01.000Z</time>
      </trkpt>
      <trkpt lat="44.80769" lon="5.32144">
        <ele>696.43</ele>
        <time>2019-05-15T11:55:11.000Z</time>
      </trkpt>
      <trkpt lat="44.80759" lon="5.32142">
        <ele>696.58</ele>
        <time>2019-05-15T11:55:24.000Z</time>
      </trkpt>
      <trkpt lat="44.80749" lon="5.3214">
        <ele>696.63</ele>
        <time>2019-05-15T11:55:48.000Z</time>
      </trkpt>
      <trkpt lat="44.80738" lon="5.32136">
        <ele>696.19</ele>
        <time>2019-05-15T11:55:58.000Z</time>
      </trkpt>
      <trkpt lat="44.8073" lon="5.32133">
        <ele>695.86</ele>
        <time>2019-05-15T11:56:08.000Z</time>
      </trkpt>
      <trkpt lat="44.80721" lon="5.32127">
        <ele>696.42</ele>
        <time>2019-05-15T11:56:18.000Z</time>
      </trkpt>
      <trkpt lat="44.80727" lon="5.32137">
        <ele>693.99</ele>
        <time>2019-05-15T11:56:49.000Z</time>
      </trkpt>
      <trkpt lat="44.80735" lon="5.32145">
        <ele>692.52</ele>
        <time>2019-05-15T11:56:59.000Z</time>
      </trkpt>
      <trkpt lat="44.80742" lon="5.32153">
        <ele>690.54</ele>
        <time>2019-05-15T11:57:12.000Z</time>
      </trkpt>
      <trkpt lat="44.80751" lon="5.32158">
        <ele>690.01</ele>
        <time>2019-05-15T11:57:23.000Z</time>
      </trkpt>
      <trkpt lat="44.80761" lon="5.32167">
        <ele>687.72</ele>
        <time>2019-05-15T11:57:33.000Z</time>
      </trkpt>
      <trkpt lat="44.8077" lon="5.32173">
        <ele>686.02</ele>
        <time>2019-05-15T11:57:43.000Z</time>
      </trkpt>
      <trkpt lat="44.8078" lon="5.32174">
        <ele>685.89</ele>
        <time>2019-05-15T11:57:53.000Z</time>
      </trkpt>
      <trkpt lat="44.80788" lon="5.32168">
        <ele>687.86</ele>
        <time>2019-05-15T11:58:04.000Z</time>
      </trkpt>
      <trkpt lat="44.80797" lon="5.32177">
        <ele>684.65</ele>
        <time>2019-05-15T11:58:14.000Z</time>
      </trkpt>
      <trkpt lat="44.80807" lon="5.32181">
        <ele>682.84</ele>
        <time>2019-05-15T11:58:24.000Z</time>
      </trkpt>
      <trkpt lat="44.80816" lon="5.32188">
        <ele>680.78</ele>
        <time>2019-05-15T11:58:34.000Z</time>
      </trkpt>
      <trkpt lat="44.80825" lon="5.32188">
        <ele>680.66</ele>
        <time>2019-05-15T11:58:46.000Z</time>
      </trkpt>
      <trkpt lat="44.80836" lon="5.32193">
        <ele>679.59</ele>
        <time>2019-05-15T11:58:56.000Z</time>
      </trkpt>
      <trkpt lat="44.80846" lon="5.32199">
        <ele>678.61</ele>
        <time>2019-05-15T11:59:06.000Z</time>
      </trkpt>
      <trkpt lat="44.80856" lon="5.32205">
        <ele>677.77</ele>
        <time>2019-05-15T11:59:16.000Z</time>
      </trkpt>
      <trkpt lat="44.8086" lon="5.32218">
        <ele>674.63</ele>
        <time>2019-05-15T11:59:26.000Z</time>
      </trkpt>
      <trkpt lat="44.80852" lon="5.32226">
        <ele>672.12</ele>
        <time>2019-05-15T11:59:37.000Z</time>
      </trkpt>
      <trkpt lat="44.80842" lon="5.32226">
        <ele>671.33</ele>
        <time>2019-05-15T11:59:48.000Z</time>
      </trkpt>
      <trkpt lat="44.8083" lon="5.32224">
        <ele>670.89</ele>
        <time>2019-05-15T11:59:58.000Z</time>
      </trkpt>
      <trkpt lat="44.80819" lon="5.32219">
        <ele>671.37</ele>
        <time>2019-05-15T12:00:08.000Z</time>
      </trkpt>
      <trkpt lat="44.80806" lon="5.3222">
        <ele>670.66</ele>
        <time>2019-05-15T12:00:18.000Z</time>
      </trkpt>
      <trkpt lat="44.80797" lon="5.32221">
        <ele>669.91</ele>
        <time>2019-05-15T12:00:28.000Z</time>
      </trkpt>
      <trkpt lat="44.80786" lon="5.32225">
        <ele>668</ele>
        <time>2019-05-15T12:00:38.000Z</time>
      </trkpt>
      <trkpt lat="44.80775" lon="5.32228">
        <ele>666.49</ele>
        <time>2019-05-15T12:00:48.000Z</time>
      </trkpt>
      <trkpt lat="44.80766" lon="5.32227">
        <ele>666.05</ele>
        <time>2019-05-15T12:01:00.000Z</time>
      </trkpt>
      <trkpt lat="44.80756" lon="5.32226">
        <ele>665.36</ele>
        <time>2019-05-15T12:01:11.000Z</time>
      </trkpt>
      <trkpt lat="44.80746" lon="5.32224">
        <ele>665.02</ele>
        <time>2019-05-15T12:01:21.000Z</time>
      </trkpt>
      <trkpt lat="44.80734" lon="5.32223">
        <ele>663.57</ele>
        <time>2019-05-15T12:01:31.000Z</time>
      </trkpt>
      <trkpt lat="44.80722" lon="5.32221">
        <ele>662.5</ele>
        <time>2019-05-15T12:01:41.000Z</time>
      </trkpt>
      <trkpt lat="44.80711" lon="5.32222">
        <ele>660.46</ele>
        <time>2019-05-15T12:01:51.000Z</time>
      </trkpt>
      <trkpt lat="44.807" lon="5.32223">
        <ele>658.09</ele>
        <time>2019-05-15T12:02:04.000Z</time>
      </trkpt>
      <trkpt lat="44.80689" lon="5.32222">
        <ele>656.49</ele>
        <time>2019-05-15T12:02:14.000Z</time>
      </trkpt>
      <trkpt lat="44.80676" lon="5.32223">
        <ele>654.14</ele>
        <time>2019-05-15T12:02:24.000Z</time>
      </trkpt>
      <trkpt lat="44.80663" lon="5.32223">
        <ele>652.23</ele>
        <time>2019-05-15T12:02:34.000Z</time>
      </trkpt>
      <trkpt lat="44.80654" lon="5.32224">
        <ele>650.83</ele>
        <time>2019-05-15T12:02:44.000Z</time>
      </trkpt>
      <trkpt lat="44.80642" lon="5.32225">
        <ele>648.99</ele>
        <time>2019-05-15T12:02:54.000Z</time>
      </trkpt>
      <trkpt lat="44.80635" lon="5.32234">
        <ele>646.21</ele>
        <time>2019-05-15T12:03:06.000Z</time>
      </trkpt>
      <trkpt lat="44.80624" lon="5.32242">
        <ele>643.58</ele>
        <time>2019-05-15T12:03:19.000Z</time>
      </trkpt>
      <trkpt lat="44.80617" lon="5.32249">
        <ele>641.8</ele>
        <time>2019-05-15T12:04:16.000Z</time>
      </trkpt>
      <trkpt lat="44.80607" lon="5.32253">
        <ele>640.44</ele>
        <time>2019-05-15T12:06:00.000Z</time>
      </trkpt>
      <trkpt lat="44.80599" lon="5.32248">
        <ele>640.06</ele>
        <time>2019-05-15T12:08:21.000Z</time>
      </trkpt>
      <trkpt lat="44.8059" lon="5.32245">
        <ele>639.34</ele>
        <time>2019-05-15T12:08:41.000Z</time>
      </trkpt>
      <trkpt lat="44.80577" lon="5.32246">
        <ele>637.64</ele>
        <time>2019-05-15T12:08:51.000Z</time>
      </trkpt>
      <trkpt lat="44.80566" lon="5.32249">
        <ele>635.69</ele>
        <time>2019-05-15T12:09:01.000Z</time>
      </trkpt>
      <trkpt lat="44.80556" lon="5.32254">
        <ele>633.72</ele>
        <time>2019-05-15T12:09:11.000Z</time>
      </trkpt>
      <trkpt lat="44.80547" lon="5.32258">
        <ele>632.18</ele>
        <time>2019-05-15T12:09:21.000Z</time>
      </trkpt>
      <trkpt lat="44.80538" lon="5.3226">
        <ele>630.71</ele>
        <time>2019-05-15T12:09:31.000Z</time>
      </trkpt>
      <trkpt lat="44.80528" lon="5.32262">
        <ele>629.11</ele>
        <time>2019-05-15T12:09:41.000Z</time>
      </trkpt>
      <trkpt lat="44.80518" lon="5.32264">
        <ele>627.66</ele>
        <time>2019-05-15T12:09:51.000Z</time>
      </trkpt>
      <trkpt lat="44.80508" lon="5.32265">
        <ele>626.42</ele>
        <time>2019-05-15T12:10:01.000Z</time>
      </trkpt>
      <trkpt lat="44.80499" lon="5.32268">
        <ele>625.27</ele>
        <time>2019-05-15T12:10:11.000Z</time>
      </trkpt>
      <trkpt lat="44.80489" lon="5.32271">
        <ele>624.19</ele>
        <time>2019-05-15T12:10:21.000Z</time>
      </trkpt>
      <trkpt lat="44.80478" lon="5.32269">
        <ele>623.32</ele>
        <time>2019-05-15T12:10:36.000Z</time>
      </trkpt>
      <trkpt lat="44.80469" lon="5.32267">
        <ele>622.52</ele>
        <time>2019-05-15T12:10:47.000Z</time>
      </trkpt>
      <trkpt lat="44.80458" lon="5.32267">
        <ele>621.71</ele>
        <time>2019-05-15T12:10:57.000Z</time>
      </trkpt>
      <trkpt lat="44.80449" lon="5.32267">
        <ele>620.98</ele>
        <time>2019-05-15T12:11:09.000Z</time>
      </trkpt>
      <trkpt lat="44.80439" lon="5.32269">
        <ele>620.29</ele>
        <time>2019-05-15T12:11:19.000Z</time>
      </trkpt>
      <trkpt lat="44.80429" lon="5.32266">
        <ele>619.54</ele>
        <time>2019-05-15T12:11:30.000Z</time>
      </trkpt>
      <trkpt lat="44.8042" lon="5.32263">
        <ele>618.75</ele>
        <time>2019-05-15T12:11:40.000Z</time>
      </trkpt>
      <trkpt lat="44.80412" lon="5.32255">
        <ele>617.86</ele>
        <time>2019-05-15T12:11:51.000Z</time>
      </trkpt>
      <trkpt lat="44.80403" lon="5.32249">
        <ele>616.87</ele>
        <time>2019-05-15T12:12:24.000Z</time>
      </trkpt>
      <trkpt lat="44.80397" lon="5.32237">
        <ele>615.91</ele>
        <time>2019-05-15T12:12:38.000Z</time>
      </trkpt>
      <trkpt lat="44.80388" lon="5.32229">
        <ele>614.94</ele>
        <time>2019-05-15T12:12:48.000Z</time>
      </trkpt>
      <trkpt lat="44.80378" lon="5.32229">
        <ele>614.27</ele>
        <time>2019-05-15T12:12:58.000Z</time>
      </trkpt>
      <trkpt lat="44.80368" lon="5.32231">
        <ele>613.74</ele>
        <time>2019-05-15T12:13:08.000Z</time>
      </trkpt>
      <trkpt lat="44.80355" lon="5.32235">
        <ele>612.99</ele>
        <time>2019-05-15T12:13:18.000Z</time>
      </trkpt>
      <trkpt lat="44.80346" lon="5.32241">
        <ele>612.54</ele>
        <time>2019-05-15T12:13:28.000Z</time>
      </trkpt>
      <trkpt lat="44.80334" lon="5.32243">
        <ele>611.69</ele>
        <time>2019-05-15T12:13:38.000Z</time>
      </trkpt>
      <trkpt lat="44.80325" lon="5.32245">
        <ele>610.92</ele>
        <time>2019-05-15T12:13:48.000Z</time>
      </trkpt>
      <trkpt lat="44.80314" lon="5.32243">
        <ele>609.7</ele>
        <time>2019-05-15T12:13:58.000Z</time>
      </trkpt>
      <trkpt lat="44.80304" lon="5.32242">
        <ele>608.54</ele>
        <time>2019-05-15T12:14:09.000Z</time>
      </trkpt>
      <trkpt lat="44.80293" lon="5.32242">
        <ele>607.19</ele>
        <time>2019-05-15T12:14:19.000Z</time>
      </trkpt>
      <trkpt lat="44.80283" lon="5.32233">
        <ele>605.73</ele>
        <time>2019-05-15T12:14:29.000Z</time>
      </trkpt>
      <trkpt lat="44.80272" lon="5.32223">
        <ele>604.3</ele>
        <time>2019-05-15T12:14:39.000Z</time>
      </trkpt>
      <trkpt lat="44.80264" lon="5.32217">
        <ele>603.31</ele>
        <time>2019-05-15T12:14:51.000Z</time>
      </trkpt>
      <trkpt lat="44.80255" lon="5.32211">
        <ele>602.45</ele>
        <time>2019-05-15T12:15:01.000Z</time>
      </trkpt>
      <trkpt lat="44.80245" lon="5.32212">
        <ele>601.7</ele>
        <time>2019-05-15T12:15:11.000Z</time>
      </trkpt>
      <trkpt lat="44.80237" lon="5.32232">
        <ele>601.39</ele>
        <time>2019-05-15T12:15:21.000Z</time>
      </trkpt>
      <trkpt lat="44.80234" lon="5.32248">
        <ele>601.44</ele>
        <time>2019-05-15T12:15:31.000Z</time>
      </trkpt>
      <trkpt lat="44.80233" lon="5.32263">
        <ele>601.64</ele>
        <time>2019-05-15T12:15:41.000Z</time>
      </trkpt>
      <trkpt lat="44.80238" lon="5.32275">
        <ele>602.56</ele>
        <time>2019-05-15T12:15:51.000Z</time>
      </trkpt>
      <trkpt lat="44.80247" lon="5.3228">
        <ele>603.65</ele>
        <time>2019-05-15T12:16:01.000Z</time>
      </trkpt>
      <trkpt lat="44.80255" lon="5.32285">
        <ele>604.77</ele>
        <time>2019-05-15T12:16:11.000Z</time>
      </trkpt>
      <trkpt lat="44.80264" lon="5.32291">
        <ele>606.09</ele>
        <time>2019-05-15T12:16:21.000Z</time>
      </trkpt>
      <trkpt lat="44.80269" lon="5.32305">
        <ele>607.39</ele>
        <time>2019-05-15T12:16:31.000Z</time>
      </trkpt>
      <trkpt lat="44.80271" lon="5.32319">
        <ele>608.65</ele>
        <time>2019-05-15T12:16:41.000Z</time>
      </trkpt>
      <trkpt lat="44.80271" lon="5.32333">
        <ele>609.49</ele>
        <time>2019-05-15T12:16:51.000Z</time>
      </trkpt>
      <trkpt lat="44.80269" lon="5.32347">
        <ele>610.12</ele>
        <time>2019-05-15T12:17:01.000Z</time>
      </trkpt>
      <trkpt lat="44.80268" lon="5.32361">
        <ele>610.81</ele>
        <time>2019-05-15T12:17:11.000Z</time>
      </trkpt>
      <trkpt lat="44.80265" lon="5.32373">
        <ele>610.9</ele>
        <time>2019-05-15T12:17:21.000Z</time>
      </trkpt>
      <trkpt lat="44.8026" lon="5.32389">
        <ele>609.85</ele>
        <time>2019-05-15T12:17:31.000Z</time>
      </trkpt>
      <trkpt lat="44.80256" lon="5.32405">
        <ele>608.74</ele>
        <time>2019-05-15T12:17:41.000Z</time>
      </trkpt>
      <trkpt lat="44.80251" lon="5.32422">
        <ele>607.66</ele>
        <time>2019-05-15T12:17:51.000Z</time>
      </trkpt>
      <trkpt lat="44.80247" lon="5.32435">
        <ele>606.75</ele>
        <time>2019-05-15T12:18:01.000Z</time>
      </trkpt>
      <trkpt lat="44.80243" lon="5.32452">
        <ele>606.07</ele>
        <time>2019-05-15T12:18:11.000Z</time>
      </trkpt>
      <trkpt lat="44.80241" lon="5.32466">
        <ele>606.16</ele>
        <time>2019-05-15T12:18:21.000Z</time>
      </trkpt>
      <trkpt lat="44.80244" lon="5.32479">
        <ele>607.69</ele>
        <time>2019-05-15T12:18:31.000Z</time>
      </trkpt>
      <trkpt lat="44.80249" lon="5.32494">
        <ele>610.36</ele>
        <time>2019-05-15T12:18:41.000Z</time>
      </trkpt>
      <trkpt lat="44.80254" lon="5.32509">
        <ele>612.98</ele>
        <time>2019-05-15T12:18:51.000Z</time>
      </trkpt>
      <trkpt lat="44.80258" lon="5.32524">
        <ele>616.06</ele>
        <time>2019-05-15T12:19:01.000Z</time>
      </trkpt>
      <trkpt lat="44.80259" lon="5.32539">
        <ele>617.65</ele>
        <time>2019-05-15T12:19:11.000Z</time>
      </trkpt>
      <trkpt lat="44.80257" lon="5.32554">
        <ele>618.01</ele>
        <time>2019-05-15T12:19:21.000Z</time>
      </trkpt>
      <trkpt lat="44.80253" lon="5.32568">
        <ele>617.34</ele>
        <time>2019-05-15T12:19:31.000Z</time>
      </trkpt>
      <trkpt lat="44.80249" lon="5.32582">
        <ele>616.69</ele>
        <time>2019-05-15T12:19:41.000Z</time>
      </trkpt>
      <trkpt lat="44.80247" lon="5.32598">
        <ele>616.36</ele>
        <time>2019-05-15T12:19:51.000Z</time>
      </trkpt>
      <trkpt lat="44.80246" lon="5.32614">
        <ele>616.7</ele>
        <time>2019-05-15T12:20:01.000Z</time>
      </trkpt>
      <trkpt lat="44.80248" lon="5.32629">
        <ele>617.95</ele>
        <time>2019-05-15T12:20:11.000Z</time>
      </trkpt>
      <trkpt lat="44.8025" lon="5.32645">
        <ele>619.11</ele>
        <time>2019-05-15T12:20:21.000Z</time>
      </trkpt>
      <trkpt lat="44.8025" lon="5.32661">
        <ele>619.54</ele>
        <time>2019-05-15T12:20:31.000Z</time>
      </trkpt>
      <trkpt lat="44.80248" lon="5.32679">
        <ele>619.91</ele>
        <time>2019-05-15T12:20:41.000Z</time>
      </trkpt>
      <trkpt lat="44.80247" lon="5.32694">
        <ele>620.33</ele>
        <time>2019-05-15T12:20:51.000Z</time>
      </trkpt>
      <trkpt lat="44.80243" lon="5.32709">
        <ele>620.03</ele>
        <time>2019-05-15T12:21:01.000Z</time>
      </trkpt>
      <trkpt lat="44.80239" lon="5.32723">
        <ele>619.69</ele>
        <time>2019-05-15T12:21:11.000Z</time>
      </trkpt>
      <trkpt lat="44.80234" lon="5.32734">
        <ele>619.09</ele>
        <time>2019-05-15T12:21:21.000Z</time>
      </trkpt>
      <trkpt lat="44.80229" lon="5.32748">
        <ele>618.96</ele>
        <time>2019-05-15T12:21:31.000Z</time>
      </trkpt>
      <trkpt lat="44.80227" lon="5.32764">
        <ele>620.21</ele>
        <time>2019-05-15T12:21:41.000Z</time>
      </trkpt>
      <trkpt lat="44.80228" lon="5.32779">
        <ele>622.79</ele>
        <time>2019-05-15T12:21:51.000Z</time>
      </trkpt>
      <trkpt lat="44.80227" lon="5.32794">
        <ele>624.54</ele>
        <time>2019-05-15T12:22:01.000Z</time>
      </trkpt>
      <trkpt lat="44.80223" lon="5.32806">
        <ele>624.57</ele>
        <time>2019-05-15T12:22:11.000Z</time>
      </trkpt>
      <trkpt lat="44.80219" lon="5.32822">
        <ele>625.01</ele>
        <time>2019-05-15T12:22:21.000Z</time>
      </trkpt>
      <trkpt lat="44.80212" lon="5.32838">
        <ele>624.01</ele>
        <time>2019-05-15T12:22:31.000Z</time>
      </trkpt>
      <trkpt lat="44.80206" lon="5.3285">
        <ele>623.02</ele>
        <time>2019-05-15T12:22:41.000Z</time>
      </trkpt>
      <trkpt lat="44.802" lon="5.32864">
        <ele>622.6</ele>
        <time>2019-05-15T12:22:51.000Z</time>
      </trkpt>
      <trkpt lat="44.80194" lon="5.32875">
        <ele>621.95</ele>
        <time>2019-05-15T12:23:01.000Z</time>
      </trkpt>
      <trkpt lat="44.8019" lon="5.32891">
        <ele>622.82</ele>
        <time>2019-05-15T12:23:11.000Z</time>
      </trkpt>
      <trkpt lat="44.80185" lon="5.32906">
        <ele>623.25</ele>
        <time>2019-05-15T12:23:21.000Z</time>
      </trkpt>
      <trkpt lat="44.80182" lon="5.32921">
        <ele>623.7</ele>
        <time>2019-05-15T12:23:31.000Z</time>
      </trkpt>
      <trkpt lat="44.80178" lon="5.32937">
        <ele>623.95</ele>
        <time>2019-05-15T12:23:41.000Z</time>
      </trkpt>
      <trkpt lat="44.80175" lon="5.32954">
        <ele>624.71</ele>
        <time>2019-05-15T12:23:51.000Z</time>
      </trkpt>
      <trkpt lat="44.80172" lon="5.3297">
        <ele>624.95</ele>
        <time>2019-05-15T12:24:01.000Z</time>
      </trkpt>
      <trkpt lat="44.80169" lon="5.32984">
        <ele>625.16</ele>
        <time>2019-05-15T12:24:11.000Z</time>
      </trkpt>
      <trkpt lat="44.80166" lon="5.32998">
        <ele>624.71</ele>
        <time>2019-05-15T12:24:21.000Z</time>
      </trkpt>
      <trkpt lat="44.80164" lon="5.33016">
        <ele>624.33</ele>
        <time>2019-05-15T12:24:31.000Z</time>
      </trkpt>
      <trkpt lat="44.80164" lon="5.33033">
        <ele>623.81</ele>
        <time>2019-05-15T12:24:41.000Z</time>
      </trkpt>
      <trkpt lat="44.80172" lon="5.33043">
        <ele>624.45</ele>
        <time>2019-05-15T12:24:51.000Z</time>
      </trkpt>
      <trkpt lat="44.80183" lon="5.33053">
        <ele>624.86</ele>
        <time>2019-05-15T12:25:01.000Z</time>
      </trkpt>
      <trkpt lat="44.80193" lon="5.33057">
        <ele>625.42</ele>
        <time>2019-05-15T12:25:11.000Z</time>
      </trkpt>
      <trkpt lat="44.80203" lon="5.33061">
        <ele>625.89</ele>
        <time>2019-05-15T12:25:21.000Z</time>
      </trkpt>
      <trkpt lat="44.80215" lon="5.33065">
        <ele>626.18</ele>
        <time>2019-05-15T12:25:31.000Z</time>
      </trkpt>
      <trkpt lat="44.80228" lon="5.33067">
        <ele>626.71</ele>
        <time>2019-05-15T12:25:41.000Z</time>
      </trkpt>
      <trkpt lat="44.80237" lon="5.33068">
        <ele>627.01</ele>
        <time>2019-05-15T12:25:54.000Z</time>
      </trkpt>
      <trkpt lat="44.80246" lon="5.33071">
        <ele>626.95</ele>
        <time>2019-05-15T12:26:08.000Z</time>
      </trkpt>
      <trkpt lat="44.80257" lon="5.33073">
        <ele>626.76</ele>
        <time>2019-05-15T12:26:18.000Z</time>
      </trkpt>
      <trkpt lat="44.80266" lon="5.33078">
        <ele>625.91</ele>
        <time>2019-05-15T12:26:28.000Z</time>
      </trkpt>
      <trkpt lat="44.80277" lon="5.33079">
        <ele>625.86</ele>
        <time>2019-05-15T12:26:38.000Z</time>
      </trkpt>
      <trkpt lat="44.80288" lon="5.33081">
        <ele>625.55</ele>
        <time>2019-05-15T12:26:48.000Z</time>
      </trkpt>
      <trkpt lat="44.80298" lon="5.33083">
        <ele>625.14</ele>
        <time>2019-05-15T12:26:58.000Z</time>
      </trkpt>
      <trkpt lat="44.80312" lon="5.33086">
        <ele>625.03</ele>
        <time>2019-05-15T12:27:08.000Z</time>
      </trkpt>
      <trkpt lat="44.80323" lon="5.33088">
        <ele>625.3</ele>
        <time>2019-05-15T12:27:18.000Z</time>
      </trkpt>
      <trkpt lat="44.80333" lon="5.33094">
        <ele>625.02</ele>
        <time>2019-05-15T12:27:28.000Z</time>
      </trkpt>
      <trkpt lat="44.80343" lon="5.33104">
        <ele>624.47</ele>
        <time>2019-05-15T12:27:38.000Z</time>
      </trkpt>
      <trkpt lat="44.80353" lon="5.33114">
        <ele>624.11</ele>
        <time>2019-05-15T12:27:48.000Z</time>
      </trkpt>
      <trkpt lat="44.80362" lon="5.33123">
        <ele>624.08</ele>
        <time>2019-05-15T12:27:58.000Z</time>
      </trkpt>
      <trkpt lat="44.80371" lon="5.33132">
        <ele>624.26</ele>
        <time>2019-05-15T12:28:08.000Z</time>
      </trkpt>
      <trkpt lat="44.8038" lon="5.33141">
        <ele>624.44</ele>
        <time>2019-05-15T12:28:18.000Z</time>
      </trkpt>
      <trkpt lat="44.80387" lon="5.33153">
        <ele>624.26</ele>
        <time>2019-05-15T12:28:28.000Z</time>
      </trkpt>
      <trkpt lat="44.80393" lon="5.33167">
        <ele>624</ele>
        <time>2019-05-15T12:28:38.000Z</time>
      </trkpt>
      <trkpt lat="44.80398" lon="5.33183">
        <ele>623.84</ele>
        <time>2019-05-15T12:28:48.000Z</time>
      </trkpt>
      <trkpt lat="44.80402" lon="5.332">
        <ele>624.02</ele>
        <time>2019-05-15T12:28:58.000Z</time>
      </trkpt>
      <trkpt lat="44.80403" lon="5.33214">
        <ele>624.02</ele>
        <time>2019-05-15T12:29:08.000Z</time>
      </trkpt>
      <trkpt lat="44.80398" lon="5.33225">
        <ele>623.46</ele>
        <time>2019-05-15T12:29:20.000Z</time>
      </trkpt>
      <trkpt lat="44.80386" lon="5.33233">
        <ele>622.15</ele>
        <time>2019-05-15T12:29:30.000Z</time>
      </trkpt>
      <trkpt lat="44.80374" lon="5.3324">
        <ele>621.03</ele>
        <time>2019-05-15T12:29:40.000Z</time>
      </trkpt>
      <trkpt lat="44.80362" lon="5.33246">
        <ele>620</ele>
        <time>2019-05-15T12:29:50.000Z</time>
      </trkpt>
      <trkpt lat="44.80351" lon="5.33254">
        <ele>619.26</ele>
        <time>2019-05-15T12:30:00.000Z</time>
      </trkpt>
      <trkpt lat="44.8034" lon="5.3326">
        <ele>618.72</ele>
        <time>2019-05-15T12:30:10.000Z</time>
      </trkpt>
      <trkpt lat="44.80328" lon="5.33265">
        <ele>618.22</ele>
        <time>2019-05-15T12:30:20.000Z</time>
      </trkpt>
      <trkpt lat="44.80319" lon="5.3327">
        <ele>617.96</ele>
        <time>2019-05-15T12:30:30.000Z</time>
      </trkpt>
      <trkpt lat="44.80307" lon="5.33275">
        <ele>617.76</ele>
        <time>2019-05-15T12:30:40.000Z</time>
      </trkpt>
      <trkpt lat="44.80296" lon="5.33282">
        <ele>617.91</ele>
        <time>2019-05-15T12:30:50.000Z</time>
      </trkpt>
      <trkpt lat="44.80286" lon="5.33292">
        <ele>618.44</ele>
        <time>2019-05-15T12:31:00.000Z</time>
      </trkpt>
      <trkpt lat="44.80277" lon="5.33302">
        <ele>619.05</ele>
        <time>2019-05-15T12:31:10.000Z</time>
      </trkpt>
      <trkpt lat="44.80269" lon="5.33311">
        <ele>619.45</ele>
        <time>2019-05-15T12:31:20.000Z</time>
      </trkpt>
      <trkpt lat="44.8026" lon="5.33319">
        <ele>619.51</ele>
        <time>2019-05-15T12:31:30.000Z</time>
      </trkpt>
      <trkpt lat="44.80254" lon="5.33329">
        <ele>619.99</ele>
        <time>2019-05-15T12:31:40.000Z</time>
      </trkpt>
      <trkpt lat="44.80245" lon="5.33336">
        <ele>619.81</ele>
        <time>2019-05-15T12:35:33.000Z</time>
      </trkpt>
      <trkpt lat="44.80235" lon="5.33341">
        <ele>619.42</ele>
        <time>2019-05-15T12:37:28.000Z</time>
      </trkpt>
      <trkpt lat="44.80226" lon="5.33339">
        <ele>618.78</ele>
        <time>2019-05-15T12:37:38.000Z</time>
      </trkpt>
      <trkpt lat="44.80216" lon="5.33341">
        <ele>618.42</ele>
        <time>2019-05-15T12:37:48.000Z</time>
      </trkpt>
      <trkpt lat="44.80204" lon="5.33342">
        <ele>617.85</ele>
        <time>2019-05-15T12:37:58.000Z</time>
      </trkpt>
      <trkpt lat="44.80195" lon="5.33345">
        <ele>617.56</ele>
        <time>2019-05-15T12:38:08.000Z</time>
      </trkpt>
      <trkpt lat="44.80182" lon="5.33347">
        <ele>616.97</ele>
        <time>2019-05-15T12:38:18.000Z</time>
      </trkpt>
      <trkpt lat="44.8017" lon="5.33351">
        <ele>616.34</ele>
        <time>2019-05-15T12:38:28.000Z</time>
      </trkpt>
      <trkpt lat="44.8016" lon="5.33352">
        <ele>615.55</ele>
        <time>2019-05-15T12:38:38.000Z</time>
      </trkpt>
      <trkpt lat="44.80149" lon="5.33355">
        <ele>614.68</ele>
        <time>2019-05-15T12:38:48.000Z</time>
      </trkpt>
      <trkpt lat="44.80139" lon="5.33357">
        <ele>613.82</ele>
        <time>2019-05-15T12:38:58.000Z</time>
      </trkpt>
      <trkpt lat="44.80129" lon="5.3336">
        <ele>612.92</ele>
        <time>2019-05-15T12:39:08.000Z</time>
      </trkpt>
      <trkpt lat="44.8012" lon="5.33361">
        <ele>611.93</ele>
        <time>2019-05-15T12:39:18.000Z</time>
      </trkpt>
      <trkpt lat="44.8011" lon="5.33363">
        <ele>611</ele>
        <time>2019-05-15T12:39:28.000Z</time>
      </trkpt>
      <trkpt lat="44.80099" lon="5.33365">
        <ele>610.04</ele>
        <time>2019-05-15T12:39:38.000Z</time>
      </trkpt>
      <trkpt lat="44.80089" lon="5.33369">
        <ele>609.29</ele>
        <time>2019-05-15T12:39:48.000Z</time>
      </trkpt>
      <trkpt lat="44.80081" lon="5.33377">
        <ele>608.97</ele>
        <time>2019-05-15T12:40:25.000Z</time>
      </trkpt>
      <trkpt lat="44.8007" lon="5.33379">
        <ele>607.94</ele>
        <time>2019-05-15T12:40:35.000Z</time>
      </trkpt>
      <trkpt lat="44.8006" lon="5.33383">
        <ele>606.92</ele>
        <time>2019-05-15T12:40:45.000Z</time>
      </trkpt>
      <trkpt lat="44.8005" lon="5.33385">
        <ele>605.86</ele>
        <time>2019-05-15T12:40:55.000Z</time>
      </trkpt>
      <trkpt lat="44.8004" lon="5.33387">
        <ele>604.74</ele>
        <time>2019-05-15T12:41:05.000Z</time>
      </trkpt>
      <trkpt lat="44.80029" lon="5.3339">
        <ele>603.55</ele>
        <time>2019-05-15T12:41:15.000Z</time>
      </trkpt>
      <trkpt lat="44.80019" lon="5.33392">
        <ele>602.55</ele>
        <time>2019-05-15T12:41:25.000Z</time>
      </trkpt>
      <trkpt lat="44.80008" lon="5.33395">
        <ele>601.64</ele>
        <time>2019-05-15T12:41:35.000Z</time>
      </trkpt>
      <trkpt lat="44.79997" lon="5.33398">
        <ele>600.96</ele>
        <time>2019-05-15T12:41:45.000Z</time>
      </trkpt>
      <trkpt lat="44.79986" lon="5.33401">
        <ele>600.34</ele>
        <time>2019-05-15T12:41:55.000Z</time>
      </trkpt>
      <trkpt lat="44.79975" lon="5.33404">
        <ele>599.79</ele>
        <time>2019-05-15T12:42:05.000Z</time>
      </trkpt>
      <trkpt lat="44.79964" lon="5.33406">
        <ele>599.32</ele>
        <time>2019-05-15T12:42:15.000Z</time>
      </trkpt>
      <trkpt lat="44.79953" lon="5.33409">
        <ele>599.04</ele>
        <time>2019-05-15T12:42:25.000Z</time>
      </trkpt>
      <trkpt lat="44.79942" lon="5.33412">
        <ele>598.94</ele>
        <time>2019-05-15T12:42:35.000Z</time>
      </trkpt>
      <trkpt lat="44.79932" lon="5.33417">
        <ele>599.02</ele>
        <time>2019-05-15T12:42:45.000Z</time>
      </trkpt>
      <trkpt lat="44.79921" lon="5.33423">
        <ele>599.37</ele>
        <time>2019-05-15T12:42:55.000Z</time>
      </trkpt>
      <trkpt lat="44.79913" lon="5.3343">
        <ele>599.79</ele>
        <time>2019-05-15T12:43:05.000Z</time>
      </trkpt>
      <trkpt lat="44.79905" lon="5.33439">
        <ele>600.42</ele>
        <time>2019-05-15T12:43:15.000Z</time>
      </trkpt>
      <trkpt lat="44.79897" lon="5.33451">
        <ele>600.98</ele>
        <time>2019-05-15T12:43:25.000Z</time>
      </trkpt>
      <trkpt lat="44.7989" lon="5.33462">
        <ele>601.45</ele>
        <time>2019-05-15T12:43:35.000Z</time>
      </trkpt>
      <trkpt lat="44.79884" lon="5.33477">
        <ele>601.26</ele>
        <time>2019-05-15T12:43:45.000Z</time>
      </trkpt>
      <trkpt lat="44.79879" lon="5.33491">
        <ele>600.74</ele>
        <time>2019-05-15T12:43:55.000Z</time>
      </trkpt>
      <trkpt lat="44.79875" lon="5.33505">
        <ele>599.95</ele>
        <time>2019-05-15T12:44:05.000Z</time>
      </trkpt>
      <trkpt lat="44.79872" lon="5.33519">
        <ele>598.76</ele>
        <time>2019-05-15T12:44:15.000Z</time>
      </trkpt>
      <trkpt lat="44.79869" lon="5.33533">
        <ele>597.64</ele>
        <time>2019-05-15T12:44:25.000Z</time>
      </trkpt>
      <trkpt lat="44.79867" lon="5.33548">
        <ele>595.94</ele>
        <time>2019-05-15T12:44:35.000Z</time>
      </trkpt>
      <trkpt lat="44.79867" lon="5.33563">
        <ele>593.97</ele>
        <time>2019-05-15T12:44:45.000Z</time>
      </trkpt>
      <trkpt lat="44.79867" lon="5.33576">
        <ele>592.41</ele>
        <time>2019-05-15T12:44:55.000Z</time>
      </trkpt>
      <trkpt lat="44.79867" lon="5.33594">
        <ele>590.22</ele>
        <time>2019-05-15T12:45:05.000Z</time>
      </trkpt>
      <trkpt lat="44.79867" lon="5.33609">
        <ele>588.37</ele>
        <time>2019-05-15T12:45:15.000Z</time>
      </trkpt>
      <trkpt lat="44.79867" lon="5.33623">
        <ele>586.74</ele>
        <time>2019-05-15T12:45:25.000Z</time>
      </trkpt>
      <trkpt lat="44.79866" lon="5.33639">
        <ele>585.07</ele>
        <time>2019-05-15T12:45:35.000Z</time>
      </trkpt>
      <trkpt lat="44.79863" lon="5.33653">
        <ele>583.7</ele>
        <time>2019-05-15T12:45:45.000Z</time>
      </trkpt>
      <trkpt lat="44.79862" lon="5.33667">
        <ele>582.32</ele>
        <time>2019-05-15T12:45:57.000Z</time>
      </trkpt>
      <trkpt lat="44.7986" lon="5.33681">
        <ele>581.08</ele>
        <time>2019-05-15T12:46:07.000Z</time>
      </trkpt>
      <trkpt lat="44.79855" lon="5.33696">
        <ele>579.82</ele>
        <time>2019-05-15T12:46:17.000Z</time>
      </trkpt>
      <trkpt lat="44.79851" lon="5.33711">
        <ele>578.46</ele>
        <time>2019-05-15T12:46:27.000Z</time>
      </trkpt>
      <trkpt lat="44.79848" lon="5.33725">
        <ele>577.09</ele>
        <time>2019-05-15T12:46:37.000Z</time>
      </trkpt>
      <trkpt lat="44.79844" lon="5.33739">
        <ele>576.02</ele>
        <time>2019-05-15T12:46:47.000Z</time>
      </trkpt>
      <trkpt lat="44.7984" lon="5.33754">
        <ele>574.93</ele>
        <time>2019-05-15T12:46:57.000Z</time>
      </trkpt>
      <trkpt lat="44.79835" lon="5.3377">
        <ele>573.97</ele>
        <time>2019-05-15T12:47:07.000Z</time>
      </trkpt>
      <trkpt lat="44.79832" lon="5.33784">
        <ele>573.21</ele>
        <time>2019-05-15T12:47:17.000Z</time>
      </trkpt>
      <trkpt lat="44.79828" lon="5.33799">
        <ele>572.7</ele>
        <time>2019-05-15T12:47:27.000Z</time>
      </trkpt>
      <trkpt lat="44.79827" lon="5.33815">
        <ele>571.7</ele>
        <time>2019-05-15T12:47:37.000Z</time>
      </trkpt>
      <trkpt lat="44.79828" lon="5.3383">
        <ele>570.73</ele>
        <time>2019-05-15T12:47:47.000Z</time>
      </trkpt>
      <trkpt lat="44.79828" lon="5.33844">
        <ele>570.04</ele>
        <time>2019-05-15T12:47:57.000Z</time>
      </trkpt>
      <trkpt lat="44.79825" lon="5.33862">
        <ele>569.74</ele>
        <time>2019-05-15T12:48:07.000Z</time>
      </trkpt>
      <trkpt lat="44.7982" lon="5.33876">
        <ele>570.02</ele>
        <time>2019-05-15T12:48:17.000Z</time>
      </trkpt>
      <trkpt lat="44.79816" lon="5.33892">
        <ele>570.1</ele>
        <time>2019-05-15T12:48:27.000Z</time>
      </trkpt>
      <trkpt lat="44.79812" lon="5.33907">
        <ele>569.98</ele>
        <time>2019-05-15T12:48:37.000Z</time>
      </trkpt>
      <trkpt lat="44.7981" lon="5.33921">
        <ele>569.45</ele>
        <time>2019-05-15T12:48:47.000Z</time>
      </trkpt>
      <trkpt lat="44.79809" lon="5.33938">
        <ele>568.65</ele>
        <time>2019-05-15T12:48:57.000Z</time>
      </trkpt>
      <trkpt lat="44.79807" lon="5.33954">
        <ele>567.89</ele>
        <time>2019-05-15T12:49:07.000Z</time>
      </trkpt>
      <trkpt lat="44.79806" lon="5.33971">
        <ele>566.9</ele>
        <time>2019-05-15T12:49:17.000Z</time>
      </trkpt>
      <trkpt lat="44.79804" lon="5.33987">
        <ele>565.95</ele>
        <time>2019-05-15T12:49:27.000Z</time>
      </trkpt>
      <trkpt lat="44.79803" lon="5.34003">
        <ele>564.99</ele>
        <time>2019-05-15T12:49:37.000Z</time>
      </trkpt>
      <trkpt lat="44.79802" lon="5.34019">
        <ele>564.11</ele>
        <time>2019-05-15T12:49:47.000Z</time>
      </trkpt>
      <trkpt lat="44.79808" lon="5.3403">
        <ele>563.76</ele>
        <time>2019-05-15T12:49:58.000Z</time>
      </trkpt>
      <trkpt lat="44.79817" lon="5.34039">
        <ele>564.04</ele>
        <time>2019-05-15T12:50:08.000Z</time>
      </trkpt>
      <trkpt lat="44.79825" lon="5.34052">
        <ele>564.23</ele>
        <time>2019-05-15T12:50:18.000Z</time>
      </trkpt>
      <trkpt lat="44.79827" lon="5.34068">
        <ele>563.92</ele>
        <time>2019-05-15T12:50:28.000Z</time>
      </trkpt>
      <trkpt lat="44.79828" lon="5.34085">
        <ele>563.56</ele>
        <time>2019-05-15T12:50:38.000Z</time>
      </trkpt>
      <trkpt lat="44.7983" lon="5.34102">
        <ele>563.13</ele>
        <time>2019-05-15T12:50:48.000Z</time>
      </trkpt>
      <trkpt lat="44.79831" lon="5.34119">
        <ele>562.68</ele>
        <time>2019-05-15T12:50:58.000Z</time>
      </trkpt>
      <trkpt lat="44.79832" lon="5.34136">
        <ele>562.14</ele>
        <time>2019-05-15T12:51:08.000Z</time>
      </trkpt>
      <trkpt lat="44.79833" lon="5.34151">
        <ele>561.59</ele>
        <time>2019-05-15T12:51:18.000Z</time>
      </trkpt>
      <trkpt lat="44.79831" lon="5.34168">
        <ele>560.8</ele>
        <time>2019-05-15T12:51:28.000Z</time>
      </trkpt>
      <trkpt lat="44.79832" lon="5.34183">
        <ele>560.23</ele>
        <time>2019-05-15T12:51:38.000Z</time>
      </trkpt>
      <trkpt lat="44.79834" lon="5.342">
        <ele>559.57</ele>
        <time>2019-05-15T12:51:48.000Z</time>
      </trkpt>
      <trkpt lat="44.7984" lon="5.34215">
        <ele>559.11</ele>
        <time>2019-05-15T12:51:58.000Z</time>
      </trkpt>
      <trkpt lat="44.79847" lon="5.34228">
        <ele>558.74</ele>
        <time>2019-05-15T12:52:08.000Z</time>
      </trkpt>
      <trkpt lat="44.79853" lon="5.34242">
        <ele>558.14</ele>
        <time>2019-05-15T12:52:18.000Z</time>
      </trkpt>
      <trkpt lat="44.79854" lon="5.34258">
        <ele>557.24</ele>
        <time>2019-05-15T12:52:28.000Z</time>
      </trkpt>
      <trkpt lat="44.79852" lon="5.34274">
        <ele>556.15</ele>
        <time>2019-05-15T12:52:38.000Z</time>
      </trkpt>
      <trkpt lat="44.79852" lon="5.3429">
        <ele>555.04</ele>
        <time>2019-05-15T12:52:48.000Z</time>
      </trkpt>
      <trkpt lat="44.79852" lon="5.34305">
        <ele>554.06</ele>
        <time>2019-05-15T12:52:58.000Z</time>
      </trkpt>
      <trkpt lat="44.79854" lon="5.34321">
        <ele>553.24</ele>
        <time>2019-05-15T12:53:08.000Z</time>
      </trkpt>
      <trkpt lat="44.79856" lon="5.34338">
        <ele>552.6</ele>
        <time>2019-05-15T12:53:18.000Z</time>
      </trkpt>
      <trkpt lat="44.79858" lon="5.34354">
        <ele>552.23</ele>
        <time>2019-05-15T12:53:28.000Z</time>
      </trkpt>
      <trkpt lat="44.79861" lon="5.34372">
        <ele>552.01</ele>
        <time>2019-05-15T12:53:38.000Z</time>
      </trkpt>
      <trkpt lat="44.79862" lon="5.34389">
        <ele>551.87</ele>
        <time>2019-05-15T12:53:48.000Z</time>
      </trkpt>
      <trkpt lat="44.79864" lon="5.34405">
        <ele>551.76</ele>
        <time>2019-05-15T12:53:58.000Z</time>
      </trkpt>
      <trkpt lat="44.79866" lon="5.3442">
        <ele>551.61</ele>
        <time>2019-05-15T12:54:08.000Z</time>
      </trkpt>
      <trkpt lat="44.79866" lon="5.34436">
        <ele>551.37</ele>
        <time>2019-05-15T12:54:18.000Z</time>
      </trkpt>
      <trkpt lat="44.79868" lon="5.3445">
        <ele>551.24</ele>
        <time>2019-05-15T12:54:29.000Z</time>
      </trkpt>
      <trkpt lat="44.79871" lon="5.34463">
        <ele>551.15</ele>
        <time>2019-05-15T12:55:13.000Z</time>
      </trkpt>
      <trkpt lat="44.79873" lon="5.34476">
        <ele>551.14</ele>
        <time>2019-05-15T12:55:28.000Z</time>
      </trkpt>
      <trkpt lat="44.79877" lon="5.34489">
        <ele>551.28</ele>
        <time>2019-05-15T12:55:38.000Z</time>
      </trkpt>
      <trkpt lat="44.79879" lon="5.34501">
        <ele>551.49</ele>
        <time>2019-05-15T12:57:02.000Z</time>
      </trkpt>
      <trkpt lat="44.7988" lon="5.34518">
        <ele>551.92</ele>
        <time>2019-05-15T12:57:12.000Z</time>
      </trkpt>
      <trkpt lat="44.79887" lon="5.34527">
        <ele>552.5</ele>
        <time>2019-05-15T12:57:26.000Z</time>
      </trkpt>
      <trkpt lat="44.79895" lon="5.34532">
        <ele>553.08</ele>
        <time>2019-05-15T12:57:36.000Z</time>
      </trkpt>
      <trkpt lat="44.79903" lon="5.3454">
        <ele>553.71</ele>
        <time>2019-05-15T12:57:47.000Z</time>
      </trkpt>
      <trkpt lat="44.79911" lon="5.34547">
        <ele>554.38</ele>
        <time>2019-05-15T12:57:58.000Z</time>
      </trkpt>
      <trkpt lat="44.79918" lon="5.34557">
        <ele>555.07</ele>
        <time>2019-05-15T12:58:08.000Z</time>
      </trkpt>
      <trkpt lat="44.79926" lon="5.34565">
        <ele>555.72</ele>
        <time>2019-05-15T12:58:19.000Z</time>
      </trkpt>
      <trkpt lat="44.79931" lon="5.34576">
        <ele>556.33</ele>
        <time>2019-05-15T12:58:29.000Z</time>
      </trkpt>
      <trkpt lat="44.79937" lon="5.34585">
        <ele>556.88</ele>
        <time>2019-05-15T12:58:41.000Z</time>
      </trkpt>
      <trkpt lat="44.79945" lon="5.34594">
        <ele>557.43</ele>
        <time>2019-05-15T12:58:52.000Z</time>
      </trkpt>
      <trkpt lat="44.7995" lon="5.34606">
        <ele>558</ele>
        <time>2019-05-15T12:59:05.000Z</time>
      </trkpt>
      <trkpt lat="44.79955" lon="5.34618">
        <ele>558.65</ele>
        <time>2019-05-15T12:59:19.000Z</time>
      </trkpt>
      <trkpt lat="44.79957" lon="5.34631">
        <ele>559.17</ele>
        <time>2019-05-15T12:59:30.000Z</time>
      </trkpt>
      <trkpt lat="44.79957" lon="5.34646">
        <ele>559.68</ele>
        <time>2019-05-15T12:59:41.000Z</time>
      </trkpt>
      <trkpt lat="44.79958" lon="5.34654">
        <ele>559.99</ele>
        <time>2019-05-15T12:59:56.000Z</time>
      </trkpt>
    </trkseg>
  </trk>
</gpx>